<?xml version="1.0" encoding="UTF-8" standalone="no" ?>
<gpx xmlns="http://www.topografix.com/GPX/1/1" xmlns:xsi="http://www.w3.org/2001/XMLSchema-instance" xsi:schemaLocation="http://www.topografix.com/GPX/1/1 http://www.topografix.com/GPX/1/1/gpx.xsd" version="1.1" creator="VisuGPX - https://www.visugpx.com">
  <metadata>
    <name>vallon du Rochecardon</name>
    <desc><![CDATA[le 18 novembre 2011, en mode tranquillou]]></desc>
  </metadata>
  <trk>
    <name><![CDATA[2011-11-18T09:13:31Z]]></name>
    <trkseg>
      <trkpt lat="45.80185" lon="4.78557">
        <ele>291.9</ele>
        <time>2011-11-18T09:13:31Z</time>
      </trkpt>
      <trkpt lat="45.8018" lon="4.78566">
        <ele>290.8</ele>
        <time>2011-11-18T09:13:35Z</time>
      </trkpt>
      <trkpt lat="45.80173" lon="4.78576">
        <ele>291.4</ele>
        <time>2011-11-18T09:13:38Z</time>
      </trkpt>
      <trkpt lat="45.8017" lon="4.78579">
        <ele>291.6</ele>
        <time>2011-11-18T09:13:39Z</time>
      </trkpt>
      <trkpt lat="45.80166" lon="4.78592">
        <ele>292.2</ele>
        <time>2011-11-18T09:13:43Z</time>
      </trkpt>
      <trkpt lat="45.80167" lon="4.786">
        <ele>292.2</ele>
        <time>2011-11-18T09:13:45Z</time>
      </trkpt>
      <trkpt lat="45.80168" lon="4.78612">
        <ele>292.6</ele>
        <time>2011-11-18T09:13:48Z</time>
      </trkpt>
      <trkpt lat="45.8017" lon="4.78627">
        <ele>292.8</ele>
        <time>2011-11-18T09:13:52Z</time>
      </trkpt>
      <trkpt lat="45.80171" lon="4.78635">
        <ele>292.8</ele>
        <time>2011-11-18T09:13:54Z</time>
      </trkpt>
      <trkpt lat="45.80174" lon="4.78654">
        <ele>293</ele>
        <time>2011-11-18T09:13:59Z</time>
      </trkpt>
      <trkpt lat="45.80175" lon="4.78658">
        <ele>293.2</ele>
        <time>2011-11-18T09:14:00Z</time>
      </trkpt>
      <trkpt lat="45.80179" lon="4.78673">
        <ele>293.4</ele>
        <time>2011-11-18T09:14:05Z</time>
      </trkpt>
      <trkpt lat="45.80181" lon="4.7868">
        <ele>293.4</ele>
        <time>2011-11-18T09:14:07Z</time>
      </trkpt>
      <trkpt lat="45.80184" lon="4.78689">
        <ele>293.2</ele>
        <time>2011-11-18T09:14:10Z</time>
      </trkpt>
      <trkpt lat="45.80189" lon="4.78703">
        <ele>293.2</ele>
        <time>2011-11-18T09:14:14Z</time>
      </trkpt>
      <trkpt lat="45.8019" lon="4.78705">
        <ele>293</ele>
        <time>2011-11-18T09:14:15Z</time>
      </trkpt>
      <trkpt lat="45.80195" lon="4.78722">
        <ele>292.8</ele>
        <time>2011-11-18T09:14:20Z</time>
      </trkpt>
      <trkpt lat="45.80197" lon="4.78728">
        <ele>292.8</ele>
        <time>2011-11-18T09:14:22Z</time>
      </trkpt>
      <trkpt lat="45.80199" lon="4.78736">
        <ele>292.6</ele>
        <time>2011-11-18T09:14:25Z</time>
      </trkpt>
      <trkpt lat="45.80197" lon="4.78754">
        <ele>292.4</ele>
        <time>2011-11-18T09:14:29Z</time>
      </trkpt>
      <trkpt lat="45.80196" lon="4.78758">
        <ele>292.4</ele>
        <time>2011-11-18T09:14:30Z</time>
      </trkpt>
      <trkpt lat="45.80188" lon="4.78773">
        <ele>292.2</ele>
        <time>2011-11-18T09:14:35Z</time>
      </trkpt>
      <trkpt lat="45.80187" lon="4.78776">
        <ele>292.2</ele>
        <time>2011-11-18T09:14:36Z</time>
      </trkpt>
      <trkpt lat="45.80182" lon="4.78792">
        <ele>291.8</ele>
        <time>2011-11-18T09:14:41Z</time>
      </trkpt>
      <trkpt lat="45.80178" lon="4.78799">
        <ele>291.6</ele>
        <time>2011-11-18T09:14:44Z</time>
      </trkpt>
      <trkpt lat="45.80178" lon="4.78806">
        <ele>291.4</ele>
        <time>2011-11-18T09:14:46Z</time>
      </trkpt>
      <trkpt lat="45.80178" lon="4.78808">
        <ele>291.2</ele>
        <time>2011-11-18T09:14:47Z</time>
      </trkpt>
      <trkpt lat="45.8018" lon="4.78827">
        <ele>290.6</ele>
        <time>2011-11-18T09:14:53Z</time>
      </trkpt>
      <trkpt lat="45.80188" lon="4.7884">
        <ele>290.2</ele>
        <time>2011-11-18T09:14:58Z</time>
      </trkpt>
      <trkpt lat="45.80194" lon="4.78847">
        <ele>290</ele>
        <time>2011-11-18T09:15:01Z</time>
      </trkpt>
      <trkpt lat="45.80197" lon="4.78851">
        <ele>289.8</ele>
        <time>2011-11-18T09:15:03Z</time>
      </trkpt>
      <trkpt lat="45.8021" lon="4.78851">
        <ele>289</ele>
        <time>2011-11-18T09:15:08Z</time>
      </trkpt>
      <trkpt lat="45.80212" lon="4.78852">
        <ele>288.8</ele>
        <time>2011-11-18T09:15:09Z</time>
      </trkpt>
      <trkpt lat="45.80223" lon="4.78853">
        <ele>287.8</ele>
        <time>2011-11-18T09:15:13Z</time>
      </trkpt>
      <trkpt lat="45.80231" lon="4.78853">
        <ele>287</ele>
        <time>2011-11-18T09:15:16Z</time>
      </trkpt>
      <trkpt lat="45.80243" lon="4.78853">
        <ele>285.8</ele>
        <time>2011-11-18T09:15:20Z</time>
      </trkpt>
      <trkpt lat="45.8025" lon="4.78854">
        <ele>285.4</ele>
        <time>2011-11-18T09:15:22Z</time>
      </trkpt>
      <trkpt lat="45.80263" lon="4.78853">
        <ele>284.2</ele>
        <time>2011-11-18T09:15:26Z</time>
      </trkpt>
      <trkpt lat="45.8027" lon="4.78853">
        <ele>283.4</ele>
        <time>2011-11-18T09:15:29Z</time>
      </trkpt>
      <trkpt lat="45.80277" lon="4.78852">
        <ele>282.8</ele>
        <time>2011-11-18T09:15:31Z</time>
      </trkpt>
      <trkpt lat="45.8029" lon="4.78853">
        <ele>282</ele>
        <time>2011-11-18T09:15:35Z</time>
      </trkpt>
      <trkpt lat="45.80292" lon="4.78854">
        <ele>281.6</ele>
        <time>2011-11-18T09:15:36Z</time>
      </trkpt>
      <trkpt lat="45.80303" lon="4.78856">
        <ele>281</ele>
        <time>2011-11-18T09:15:39Z</time>
      </trkpt>
      <trkpt lat="45.80305" lon="4.78858">
        <ele>280.8</ele>
        <time>2011-11-18T09:15:40Z</time>
      </trkpt>
      <trkpt lat="45.80308" lon="4.78861">
        <ele>280.2</ele>
        <time>2011-11-18T09:15:42Z</time>
      </trkpt>
      <trkpt lat="45.8031" lon="4.78862">
        <ele>280</ele>
        <time>2011-11-18T09:15:43Z</time>
      </trkpt>
      <trkpt lat="45.80316" lon="4.78874">
        <ele>279.2</ele>
        <time>2011-11-18T09:15:47Z</time>
      </trkpt>
      <trkpt lat="45.8032" lon="4.78881">
        <ele>278.8</ele>
        <time>2011-11-18T09:15:49Z</time>
      </trkpt>
      <trkpt lat="45.80325" lon="4.78891">
        <ele>278.2</ele>
        <time>2011-11-18T09:15:52Z</time>
      </trkpt>
      <trkpt lat="45.8033" lon="4.78901">
        <ele>277.6</ele>
        <time>2011-11-18T09:15:55Z</time>
      </trkpt>
      <trkpt lat="45.8033" lon="4.78906">
        <ele>277.4</ele>
        <time>2011-11-18T09:15:56Z</time>
      </trkpt>
      <trkpt lat="45.80333" lon="4.78927">
        <ele>276.2</ele>
        <time>2011-11-18T09:16:01Z</time>
      </trkpt>
      <trkpt lat="45.80335" lon="4.7893">
        <ele>276</ele>
        <time>2011-11-18T09:16:02Z</time>
      </trkpt>
      <trkpt lat="45.80342" lon="4.78942">
        <ele>275.2</ele>
        <time>2011-11-18T09:16:06Z</time>
      </trkpt>
      <trkpt lat="45.80346" lon="4.78953">
        <ele>274.8</ele>
        <time>2011-11-18T09:16:09Z</time>
      </trkpt>
      <trkpt lat="45.80346" lon="4.78958">
        <ele>274.6</ele>
        <time>2011-11-18T09:16:10Z</time>
      </trkpt>
      <trkpt lat="45.80349" lon="4.78979">
        <ele>274.2</ele>
        <time>2011-11-18T09:16:15Z</time>
      </trkpt>
      <trkpt lat="45.80359" lon="4.78988">
        <ele>273.6</ele>
        <time>2011-11-18T09:16:19Z</time>
      </trkpt>
      <trkpt lat="45.80366" lon="4.78993">
        <ele>273.2</ele>
        <time>2011-11-18T09:16:22Z</time>
      </trkpt>
      <trkpt lat="45.80374" lon="4.78997">
        <ele>272.8</ele>
        <time>2011-11-18T09:16:25Z</time>
      </trkpt>
      <trkpt lat="45.80382" lon="4.79007">
        <ele>272.4</ele>
        <time>2011-11-18T09:16:29Z</time>
      </trkpt>
      <trkpt lat="45.80382" lon="4.7901">
        <ele>272.2</ele>
        <time>2011-11-18T09:16:30Z</time>
      </trkpt>
      <trkpt lat="45.80385" lon="4.79026">
        <ele>271.6</ele>
        <time>2011-11-18T09:16:35Z</time>
      </trkpt>
      <trkpt lat="45.80386" lon="4.79031">
        <ele>271.4</ele>
        <time>2011-11-18T09:16:36Z</time>
      </trkpt>
      <trkpt lat="45.80388" lon="4.7904">
        <ele>271</ele>
        <time>2011-11-18T09:16:39Z</time>
      </trkpt>
      <trkpt lat="45.80383" lon="4.79053">
        <ele>270.4</ele>
        <time>2011-11-18T09:16:43Z</time>
      </trkpt>
      <trkpt lat="45.80382" lon="4.79058">
        <ele>270.4</ele>
        <time>2011-11-18T09:16:44Z</time>
      </trkpt>
      <trkpt lat="45.80375" lon="4.79074">
        <ele>269.8</ele>
        <time>2011-11-18T09:16:49Z</time>
      </trkpt>
      <trkpt lat="45.80374" lon="4.79081">
        <ele>269.6</ele>
        <time>2011-11-18T09:16:51Z</time>
      </trkpt>
      <trkpt lat="45.80369" lon="4.7909">
        <ele>269.4</ele>
        <time>2011-11-18T09:16:54Z</time>
      </trkpt>
      <trkpt lat="45.80362" lon="4.79101">
        <ele>268.8</ele>
        <time>2011-11-18T09:16:58Z</time>
      </trkpt>
      <trkpt lat="45.80354" lon="4.79117">
        <ele>268.4</ele>
        <time>2011-11-18T09:17:03Z</time>
      </trkpt>
      <trkpt lat="45.8035" lon="4.79122">
        <ele>268.2</ele>
        <time>2011-11-18T09:17:05Z</time>
      </trkpt>
      <trkpt lat="45.80343" lon="4.79134">
        <ele>267.8</ele>
        <time>2011-11-18T09:17:09Z</time>
      </trkpt>
      <trkpt lat="45.80338" lon="4.79144">
        <ele>267.6</ele>
        <time>2011-11-18T09:17:12Z</time>
      </trkpt>
      <trkpt lat="45.80337" lon="4.79151">
        <ele>267.4</ele>
        <time>2011-11-18T09:17:14Z</time>
      </trkpt>
      <trkpt lat="45.80333" lon="4.79164">
        <ele>267</ele>
        <time>2011-11-18T09:17:19Z</time>
      </trkpt>
      <trkpt lat="45.8033" lon="4.7917">
        <ele>266.8</ele>
        <time>2011-11-18T09:17:21Z</time>
      </trkpt>
      <trkpt lat="45.80327" lon="4.79181">
        <ele>266.8</ele>
        <time>2011-11-18T09:17:24Z</time>
      </trkpt>
      <trkpt lat="45.80326" lon="4.79197">
        <ele>266.6</ele>
        <time>2011-11-18T09:17:28Z</time>
      </trkpt>
      <trkpt lat="45.80319" lon="4.79214">
        <ele>266.4</ele>
        <time>2011-11-18T09:17:33Z</time>
      </trkpt>
      <trkpt lat="45.80315" lon="4.79221">
        <ele>266.2</ele>
        <time>2011-11-18T09:17:35Z</time>
      </trkpt>
      <trkpt lat="45.80307" lon="4.79231">
        <ele>266.2</ele>
        <time>2011-11-18T09:17:38Z</time>
      </trkpt>
      <trkpt lat="45.803" lon="4.79243">
        <ele>266</ele>
        <time>2011-11-18T09:17:42Z</time>
      </trkpt>
      <trkpt lat="45.80298" lon="4.79246">
        <ele>265.8</ele>
        <time>2011-11-18T09:17:43Z</time>
      </trkpt>
      <trkpt lat="45.80287" lon="4.79259">
        <ele>265.6</ele>
        <time>2011-11-18T09:17:48Z</time>
      </trkpt>
      <trkpt lat="45.80283" lon="4.79261">
        <ele>265.6</ele>
        <time>2011-11-18T09:17:49Z</time>
      </trkpt>
      <trkpt lat="45.80274" lon="4.7926">
        <ele>265.6</ele>
        <time>2011-11-18T09:17:52Z</time>
      </trkpt>
      <trkpt lat="45.80267" lon="4.79257">
        <ele>265.4</ele>
        <time>2011-11-18T09:17:55Z</time>
      </trkpt>
      <trkpt lat="45.80264" lon="4.79258">
        <ele>265</ele>
        <time>2011-11-18T09:17:57Z</time>
      </trkpt>
      <trkpt lat="45.80251" lon="4.79269">
        <ele>264.4</ele>
        <time>2011-11-18T09:18:03Z</time>
      </trkpt>
      <trkpt lat="45.80247" lon="4.79274">
        <ele>264.4</ele>
        <time>2011-11-18T09:18:04Z</time>
      </trkpt>
      <trkpt lat="45.80234" lon="4.79283">
        <ele>264.2</ele>
        <time>2011-11-18T09:18:08Z</time>
      </trkpt>
      <trkpt lat="45.8023" lon="4.79288">
        <ele>264</ele>
        <time>2011-11-18T09:18:10Z</time>
      </trkpt>
      <trkpt lat="45.80226" lon="4.79296">
        <ele>263.6</ele>
        <time>2011-11-18T09:18:13Z</time>
      </trkpt>
      <trkpt lat="45.80219" lon="4.79309">
        <ele>263.4</ele>
        <time>2011-11-18T09:18:17Z</time>
      </trkpt>
      <trkpt lat="45.80218" lon="4.79312">
        <ele>263.2</ele>
        <time>2011-11-18T09:18:18Z</time>
      </trkpt>
      <trkpt lat="45.80213" lon="4.79328">
        <ele>262.8</ele>
        <time>2011-11-18T09:18:23Z</time>
      </trkpt>
      <trkpt lat="45.80212" lon="4.79334">
        <ele>262.8</ele>
        <time>2011-11-18T09:18:25Z</time>
      </trkpt>
      <trkpt lat="45.80211" lon="4.79335">
        <ele>262.6</ele>
        <time>2011-11-18T09:18:26Z</time>
      </trkpt>
      <trkpt lat="45.80211" lon="4.79331">
        <ele>262.6</ele>
        <time>2011-11-18T09:18:28Z</time>
      </trkpt>
      <trkpt lat="45.80213" lon="4.79324">
        <ele>262.4</ele>
        <time>2011-11-18T09:18:30Z</time>
      </trkpt>
      <trkpt lat="45.80215" lon="4.79317">
        <ele>262.4</ele>
        <time>2011-11-18T09:18:32Z</time>
      </trkpt>
      <trkpt lat="45.80216" lon="4.79309">
        <ele>262.2</ele>
        <time>2011-11-18T09:18:34Z</time>
      </trkpt>
      <trkpt lat="45.80216" lon="4.79293">
        <ele>262</ele>
        <time>2011-11-18T09:18:39Z</time>
      </trkpt>
      <trkpt lat="45.80212" lon="4.79282">
        <ele>262</ele>
        <time>2011-11-18T09:18:42Z</time>
      </trkpt>
      <trkpt lat="45.8021" lon="4.79269">
        <ele>261.8</ele>
        <time>2011-11-18T09:18:46Z</time>
      </trkpt>
      <trkpt lat="45.80208" lon="4.7926">
        <ele>261.6</ele>
        <time>2011-11-18T09:18:49Z</time>
      </trkpt>
      <trkpt lat="45.80205" lon="4.79254">
        <ele>261.6</ele>
        <time>2011-11-18T09:18:51Z</time>
      </trkpt>
      <trkpt lat="45.80199" lon="4.79246">
        <ele>261.4</ele>
        <time>2011-11-18T09:18:54Z</time>
      </trkpt>
      <trkpt lat="45.80197" lon="4.79244">
        <ele>261.2</ele>
        <time>2011-11-18T09:18:55Z</time>
      </trkpt>
      <trkpt lat="45.8019" lon="4.79238">
        <ele>261</ele>
        <time>2011-11-18T09:18:58Z</time>
      </trkpt>
      <trkpt lat="45.80186" lon="4.79232">
        <ele>260.8</ele>
        <time>2011-11-18T09:19:01Z</time>
      </trkpt>
      <trkpt lat="45.80185" lon="4.7923">
        <ele>260.8</ele>
        <time>2011-11-18T09:19:02Z</time>
      </trkpt>
      <trkpt lat="45.80181" lon="4.79226">
        <ele>260.6</ele>
        <time>2011-11-18T09:19:05Z</time>
      </trkpt>
      <trkpt lat="45.80174" lon="4.79223">
        <ele>260.6</ele>
        <time>2011-11-18T09:19:08Z</time>
      </trkpt>
      <trkpt lat="45.80173" lon="4.7922">
        <ele>260.6</ele>
        <time>2011-11-18T09:19:09Z</time>
      </trkpt>
      <trkpt lat="45.80164" lon="4.79219">
        <ele>260.4</ele>
        <time>2011-11-18T09:19:13Z</time>
      </trkpt>
      <trkpt lat="45.80162" lon="4.79217">
        <ele>260.4</ele>
        <time>2011-11-18T09:19:15Z</time>
      </trkpt>
      <trkpt lat="45.80163" lon="4.79211">
        <ele>260.6</ele>
        <time>2011-11-18T09:19:17Z</time>
      </trkpt>
      <trkpt lat="45.80164" lon="4.79205">
        <ele>260.4</ele>
        <time>2011-11-18T09:19:19Z</time>
      </trkpt>
      <trkpt lat="45.80162" lon="4.79192">
        <ele>260.4</ele>
        <time>2011-11-18T09:19:23Z</time>
      </trkpt>
      <trkpt lat="45.80161" lon="4.79185">
        <ele>260.2</ele>
        <time>2011-11-18T09:19:26Z</time>
      </trkpt>
      <trkpt lat="45.8016" lon="4.79181">
        <ele>260.2</ele>
        <time>2011-11-18T09:19:28Z</time>
      </trkpt>
      <trkpt lat="45.80166" lon="4.79174">
        <ele>260.6</ele>
        <time>2011-11-18T09:19:33Z</time>
      </trkpt>
      <trkpt lat="45.80173" lon="4.79166">
        <ele>260.8</ele>
        <time>2011-11-18T09:19:37Z</time>
      </trkpt>
      <trkpt lat="45.80183" lon="4.79155">
        <ele>261.8</ele>
        <time>2011-11-18T09:19:43Z</time>
      </trkpt>
      <trkpt lat="45.80187" lon="4.79147">
        <ele>262</ele>
        <time>2011-11-18T09:19:46Z</time>
      </trkpt>
      <trkpt lat="45.80189" lon="4.79145">
        <ele>262</ele>
        <time>2011-11-18T09:19:47Z</time>
      </trkpt>
      <trkpt lat="45.80193" lon="4.79137">
        <ele>262.8</ele>
        <time>2011-11-18T09:19:52Z</time>
      </trkpt>
      <trkpt lat="45.802" lon="4.79129">
        <ele>263</ele>
        <time>2011-11-18T09:19:58Z</time>
      </trkpt>
      <trkpt lat="45.80201" lon="4.79129">
        <ele>263.2</ele>
        <time>2011-11-18T09:19:59Z</time>
      </trkpt>
      <trkpt lat="45.80209" lon="4.7912">
        <ele>263.6</ele>
        <time>2011-11-18T09:20:04Z</time>
      </trkpt>
      <trkpt lat="45.80212" lon="4.79115">
        <ele>263.6</ele>
        <time>2011-11-18T09:20:06Z</time>
      </trkpt>
      <trkpt lat="45.80214" lon="4.79111">
        <ele>263.6</ele>
        <time>2011-11-18T09:20:08Z</time>
      </trkpt>
      <trkpt lat="45.80217" lon="4.79105">
        <ele>263.6</ele>
        <time>2011-11-18T09:20:10Z</time>
      </trkpt>
      <trkpt lat="45.80217" lon="4.79103">
        <ele>263.6</ele>
        <time>2011-11-18T09:20:11Z</time>
      </trkpt>
      <trkpt lat="45.80221" lon="4.79093">
        <ele>263.6</ele>
        <time>2011-11-18T09:20:15Z</time>
      </trkpt>
      <trkpt lat="45.80223" lon="4.79085">
        <ele>263.4</ele>
        <time>2011-11-18T09:20:18Z</time>
      </trkpt>
      <trkpt lat="45.80223" lon="4.79083">
        <ele>263.4</ele>
        <time>2011-11-18T09:20:19Z</time>
      </trkpt>
      <trkpt lat="45.80223" lon="4.79078">
        <ele>263.4</ele>
        <time>2011-11-18T09:20:21Z</time>
      </trkpt>
      <trkpt lat="45.80223" lon="4.79065">
        <ele>263.2</ele>
        <time>2011-11-18T09:20:27Z</time>
      </trkpt>
      <trkpt lat="45.80223" lon="4.79062">
        <ele>263</ele>
        <time>2011-11-18T09:20:28Z</time>
      </trkpt>
      <trkpt lat="45.80223" lon="4.79058">
        <ele>263</ele>
        <time>2011-11-18T09:20:30Z</time>
      </trkpt>
      <trkpt lat="45.8022" lon="4.79048">
        <ele>262.8</ele>
        <time>2011-11-18T09:20:34Z</time>
      </trkpt>
      <trkpt lat="45.80216" lon="4.79032">
        <ele>262.6</ele>
        <time>2011-11-18T09:20:40Z</time>
      </trkpt>
      <trkpt lat="45.80214" lon="4.79015">
        <ele>262.4</ele>
        <time>2011-11-18T09:20:46Z</time>
      </trkpt>
      <trkpt lat="45.80214" lon="4.79007">
        <ele>262.4</ele>
        <time>2011-11-18T09:20:49Z</time>
      </trkpt>
      <trkpt lat="45.80212" lon="4.79">
        <ele>262.6</ele>
        <time>2011-11-18T09:20:51Z</time>
      </trkpt>
      <trkpt lat="45.80211" lon="4.78997">
        <ele>262.6</ele>
        <time>2011-11-18T09:20:52Z</time>
      </trkpt>
      <trkpt lat="45.80207" lon="4.78982">
        <ele>263</ele>
        <time>2011-11-18T09:20:57Z</time>
      </trkpt>
      <trkpt lat="45.80206" lon="4.7898">
        <ele>263</ele>
        <time>2011-11-18T09:20:58Z</time>
      </trkpt>
      <trkpt lat="45.80202" lon="4.78962">
        <ele>263.4</ele>
        <time>2011-11-18T09:21:04Z</time>
      </trkpt>
      <trkpt lat="45.80201" lon="4.78955">
        <ele>263.8</ele>
        <time>2011-11-18T09:21:06Z</time>
      </trkpt>
      <trkpt lat="45.80198" lon="4.78944">
        <ele>264.8</ele>
        <time>2011-11-18T09:21:10Z</time>
      </trkpt>
      <trkpt lat="45.80194" lon="4.7893">
        <ele>265.8</ele>
        <time>2011-11-18T09:21:15Z</time>
      </trkpt>
      <trkpt lat="45.80191" lon="4.78912">
        <ele>266.8</ele>
        <time>2011-11-18T09:21:21Z</time>
      </trkpt>
      <trkpt lat="45.80189" lon="4.78902">
        <ele>267.4</ele>
        <time>2011-11-18T09:21:24Z</time>
      </trkpt>
      <trkpt lat="45.80185" lon="4.7889">
        <ele>267.8</ele>
        <time>2011-11-18T09:21:28Z</time>
      </trkpt>
      <trkpt lat="45.80181" lon="4.78879">
        <ele>268.6</ele>
        <time>2011-11-18T09:21:31Z</time>
      </trkpt>
      <trkpt lat="45.80179" lon="4.78871">
        <ele>268.8</ele>
        <time>2011-11-18T09:21:33Z</time>
      </trkpt>
      <trkpt lat="45.80174" lon="4.78853">
        <ele>269.4</ele>
        <time>2011-11-18T09:21:39Z</time>
      </trkpt>
      <trkpt lat="45.80174" lon="4.78849">
        <ele>269.4</ele>
        <time>2011-11-18T09:21:40Z</time>
      </trkpt>
      <trkpt lat="45.80169" lon="4.78835">
        <ele>269.8</ele>
        <time>2011-11-18T09:21:45Z</time>
      </trkpt>
      <trkpt lat="45.80168" lon="4.78833">
        <ele>269.8</ele>
        <time>2011-11-18T09:21:46Z</time>
      </trkpt>
      <trkpt lat="45.80169" lon="4.78828">
        <ele>269.8</ele>
        <time>2011-11-18T09:21:48Z</time>
      </trkpt>
      <trkpt lat="45.80169" lon="4.78826">
        <ele>269.8</ele>
        <time>2011-11-18T09:21:49Z</time>
      </trkpt>
      <trkpt lat="45.80167" lon="4.78814">
        <ele>270</ele>
        <time>2011-11-18T09:21:53Z</time>
      </trkpt>
      <trkpt lat="45.80168" lon="4.78805">
        <ele>270.2</ele>
        <time>2011-11-18T09:21:56Z</time>
      </trkpt>
      <trkpt lat="45.80169" lon="4.78802">
        <ele>270.4</ele>
        <time>2011-11-18T09:21:57Z</time>
      </trkpt>
      <trkpt lat="45.8017" lon="4.788">
        <ele>270.6</ele>
        <time>2011-11-18T09:21:58Z</time>
      </trkpt>
      <trkpt lat="45.80179" lon="4.78785">
        <ele>271.2</ele>
        <time>2011-11-18T09:22:04Z</time>
      </trkpt>
      <trkpt lat="45.8018" lon="4.78783">
        <ele>271.4</ele>
        <time>2011-11-18T09:22:05Z</time>
      </trkpt>
      <trkpt lat="45.80186" lon="4.78768">
        <ele>272</ele>
        <time>2011-11-18T09:22:11Z</time>
      </trkpt>
      <trkpt lat="45.80187" lon="4.78758">
        <ele>272</ele>
        <time>2011-11-18T09:22:15Z</time>
      </trkpt>
      <trkpt lat="45.80188" lon="4.78756">
        <ele>272</ele>
        <time>2011-11-18T09:22:16Z</time>
      </trkpt>
      <trkpt lat="45.8019" lon="4.78742">
        <ele>271.8</ele>
        <time>2011-11-18T09:22:21Z</time>
      </trkpt>
      <trkpt lat="45.80188" lon="4.78731">
        <ele>271.6</ele>
        <time>2011-11-18T09:22:25Z</time>
      </trkpt>
      <trkpt lat="45.80187" lon="4.78726">
        <ele>271.6</ele>
        <time>2011-11-18T09:22:27Z</time>
      </trkpt>
      <trkpt lat="45.80184" lon="4.78716">
        <ele>271.6</ele>
        <time>2011-11-18T09:22:31Z</time>
      </trkpt>
      <trkpt lat="45.80183" lon="4.78711">
        <ele>271.6</ele>
        <time>2011-11-18T09:22:33Z</time>
      </trkpt>
      <trkpt lat="45.80182" lon="4.78707">
        <ele>271.6</ele>
        <time>2011-11-18T09:22:34Z</time>
      </trkpt>
      <trkpt lat="45.80176" lon="4.78698">
        <ele>272.2</ele>
        <time>2011-11-18T09:22:38Z</time>
      </trkpt>
      <trkpt lat="45.80174" lon="4.78694">
        <ele>272.4</ele>
        <time>2011-11-18T09:22:40Z</time>
      </trkpt>
      <trkpt lat="45.80172" lon="4.78685">
        <ele>272.8</ele>
        <time>2011-11-18T09:22:43Z</time>
      </trkpt>
      <trkpt lat="45.80171" lon="4.78683">
        <ele>273</ele>
        <time>2011-11-18T09:22:44Z</time>
      </trkpt>
      <trkpt lat="45.80168" lon="4.78669">
        <ele>273.8</ele>
        <time>2011-11-18T09:22:49Z</time>
      </trkpt>
      <trkpt lat="45.80173" lon="4.78666">
        <ele>274.2</ele>
        <time>2011-11-18T09:22:52Z</time>
      </trkpt>
      <trkpt lat="45.80176" lon="4.78666">
        <ele>274.4</ele>
        <time>2011-11-18T09:22:53Z</time>
      </trkpt>
      <trkpt lat="45.80187" lon="4.78667">
        <ele>275.2</ele>
        <time>2011-11-18T09:22:57Z</time>
      </trkpt>
      <trkpt lat="45.80189" lon="4.78668">
        <ele>275.2</ele>
        <time>2011-11-18T09:22:58Z</time>
      </trkpt>
      <trkpt lat="45.80191" lon="4.78668">
        <ele>275.4</ele>
        <time>2011-11-18T09:22:59Z</time>
      </trkpt>
      <trkpt lat="45.802" lon="4.78669">
        <ele>276</ele>
        <time>2011-11-18T09:23:04Z</time>
      </trkpt>
      <trkpt lat="45.80208" lon="4.78671">
        <ele>276.4</ele>
        <time>2011-11-18T09:23:09Z</time>
      </trkpt>
      <trkpt lat="45.80221" lon="4.7867">
        <ele>277</ele>
        <time>2011-11-18T09:23:14Z</time>
      </trkpt>
      <trkpt lat="45.80228" lon="4.78671">
        <ele>277</ele>
        <time>2011-11-18T09:23:18Z</time>
      </trkpt>
      <trkpt lat="45.80231" lon="4.78671">
        <ele>277.2</ele>
        <time>2011-11-18T09:23:19Z</time>
      </trkpt>
      <trkpt lat="45.80243" lon="4.78671">
        <ele>278</ele>
        <time>2011-11-18T09:23:24Z</time>
      </trkpt>
      <trkpt lat="45.80247" lon="4.78671">
        <ele>278</ele>
        <time>2011-11-18T09:23:26Z</time>
      </trkpt>
      <trkpt lat="45.8025" lon="4.78671">
        <ele>278.2</ele>
        <time>2011-11-18T09:23:27Z</time>
      </trkpt>
      <trkpt lat="45.80255" lon="4.78669">
        <ele>278.2</ele>
        <time>2011-11-18T09:23:29Z</time>
      </trkpt>
      <trkpt lat="45.80265" lon="4.78671">
        <ele>278.4</ele>
        <time>2011-11-18T09:23:34Z</time>
      </trkpt>
      <trkpt lat="45.80274" lon="4.78672">
        <ele>278.2</ele>
        <time>2011-11-18T09:23:38Z</time>
      </trkpt>
      <trkpt lat="45.8028" lon="4.78674">
        <ele>278</ele>
        <time>2011-11-18T09:23:40Z</time>
      </trkpt>
      <trkpt lat="45.80286" lon="4.78674">
        <ele>278</ele>
        <time>2011-11-18T09:23:42Z</time>
      </trkpt>
      <trkpt lat="45.80296" lon="4.78673">
        <ele>278</ele>
        <time>2011-11-18T09:23:45Z</time>
      </trkpt>
      <trkpt lat="45.80304" lon="4.78674">
        <ele>277.8</ele>
        <time>2011-11-18T09:23:48Z</time>
      </trkpt>
      <trkpt lat="45.80309" lon="4.78674">
        <ele>277.6</ele>
        <time>2011-11-18T09:23:50Z</time>
      </trkpt>
      <trkpt lat="45.80322" lon="4.78673">
        <ele>277.2</ele>
        <time>2011-11-18T09:23:55Z</time>
      </trkpt>
      <trkpt lat="45.80332" lon="4.78669">
        <ele>276.6</ele>
        <time>2011-11-18T09:24:00Z</time>
      </trkpt>
      <trkpt lat="45.8034" lon="4.78664">
        <ele>276.2</ele>
        <time>2011-11-18T09:24:04Z</time>
      </trkpt>
      <trkpt lat="45.80342" lon="4.78662">
        <ele>276</ele>
        <time>2011-11-18T09:24:05Z</time>
      </trkpt>
      <trkpt lat="45.80354" lon="4.78653">
        <ele>275.4</ele>
        <time>2011-11-18T09:24:10Z</time>
      </trkpt>
      <trkpt lat="45.80357" lon="4.7865">
        <ele>275.2</ele>
        <time>2011-11-18T09:24:12Z</time>
      </trkpt>
      <trkpt lat="45.8036" lon="4.78647">
        <ele>274.8</ele>
        <time>2011-11-18T09:24:14Z</time>
      </trkpt>
      <trkpt lat="45.80366" lon="4.78637">
        <ele>274.4</ele>
        <time>2011-11-18T09:24:19Z</time>
      </trkpt>
      <trkpt lat="45.8037" lon="4.78635">
        <ele>274</ele>
        <time>2011-11-18T09:24:21Z</time>
      </trkpt>
      <trkpt lat="45.80372" lon="4.78634">
        <ele>273.8</ele>
        <time>2011-11-18T09:24:22Z</time>
      </trkpt>
      <trkpt lat="45.80372" lon="4.78632">
        <ele>273.6</ele>
        <time>2011-11-18T09:24:23Z</time>
      </trkpt>
      <trkpt lat="45.80386" lon="4.78628">
        <ele>273.4</ele>
        <time>2011-11-18T09:24:27Z</time>
      </trkpt>
      <trkpt lat="45.80391" lon="4.78624">
        <ele>273</ele>
        <time>2011-11-18T09:24:29Z</time>
      </trkpt>
      <trkpt lat="45.80395" lon="4.78621">
        <ele>272.6</ele>
        <time>2011-11-18T09:24:31Z</time>
      </trkpt>
      <trkpt lat="45.80402" lon="4.78618">
        <ele>272.6</ele>
        <time>2011-11-18T09:24:33Z</time>
      </trkpt>
      <trkpt lat="45.8041" lon="4.78612">
        <ele>272.2</ele>
        <time>2011-11-18T09:24:36Z</time>
      </trkpt>
      <trkpt lat="45.80414" lon="4.7861">
        <ele>272.2</ele>
        <time>2011-11-18T09:24:37Z</time>
      </trkpt>
      <trkpt lat="45.80416" lon="4.7861">
        <ele>272.2</ele>
        <time>2011-11-18T09:24:38Z</time>
      </trkpt>
      <trkpt lat="45.80427" lon="4.78602">
        <ele>271.8</ele>
        <time>2011-11-18T09:24:43Z</time>
      </trkpt>
      <trkpt lat="45.80437" lon="4.78603">
        <ele>271.4</ele>
        <time>2011-11-18T09:24:47Z</time>
      </trkpt>
      <trkpt lat="45.8044" lon="4.78605">
        <ele>271.4</ele>
        <time>2011-11-18T09:24:48Z</time>
      </trkpt>
      <trkpt lat="45.80445" lon="4.78609">
        <ele>271</ele>
        <time>2011-11-18T09:24:51Z</time>
      </trkpt>
      <trkpt lat="45.80449" lon="4.78611">
        <ele>270.8</ele>
        <time>2011-11-18T09:24:53Z</time>
      </trkpt>
      <trkpt lat="45.80451" lon="4.78613">
        <ele>270.6</ele>
        <time>2011-11-18T09:24:55Z</time>
      </trkpt>
      <trkpt lat="45.80454" lon="4.78615">
        <ele>270.4</ele>
        <time>2011-11-18T09:24:57Z</time>
      </trkpt>
      <trkpt lat="45.80456" lon="4.78617">
        <ele>270.2</ele>
        <time>2011-11-18T09:24:58Z</time>
      </trkpt>
      <trkpt lat="45.80463" lon="4.78623">
        <ele>269.8</ele>
        <time>2011-11-18T09:25:02Z</time>
      </trkpt>
      <trkpt lat="45.80466" lon="4.78626">
        <ele>269.6</ele>
        <time>2011-11-18T09:25:04Z</time>
      </trkpt>
      <trkpt lat="45.80467" lon="4.78627">
        <ele>269.6</ele>
        <time>2011-11-18T09:25:05Z</time>
      </trkpt>
      <trkpt lat="45.80475" lon="4.7863">
        <ele>269.2</ele>
        <time>2011-11-18T09:25:09Z</time>
      </trkpt>
      <trkpt lat="45.80479" lon="4.78633">
        <ele>269</ele>
        <time>2011-11-18T09:25:11Z</time>
      </trkpt>
      <trkpt lat="45.80482" lon="4.78635">
        <ele>268.8</ele>
        <time>2011-11-18T09:25:12Z</time>
      </trkpt>
      <trkpt lat="45.80488" lon="4.78638">
        <ele>268.6</ele>
        <time>2011-11-18T09:25:15Z</time>
      </trkpt>
      <trkpt lat="45.8049" lon="4.78639">
        <ele>268.6</ele>
        <time>2011-11-18T09:25:16Z</time>
      </trkpt>
      <trkpt lat="45.80493" lon="4.78647">
        <ele>268.2</ele>
        <time>2011-11-18T09:25:20Z</time>
      </trkpt>
      <trkpt lat="45.80497" lon="4.78651">
        <ele>268</ele>
        <time>2011-11-18T09:25:23Z</time>
      </trkpt>
      <trkpt lat="45.805" lon="4.78654">
        <ele>268</ele>
        <time>2011-11-18T09:25:25Z</time>
      </trkpt>
      <trkpt lat="45.80501" lon="4.78655">
        <ele>267.8</ele>
        <time>2011-11-18T09:25:26Z</time>
      </trkpt>
      <trkpt lat="45.8051" lon="4.78657">
        <ele>267.8</ele>
        <time>2011-11-18T09:25:30Z</time>
      </trkpt>
      <trkpt lat="45.80513" lon="4.78659">
        <ele>267.8</ele>
        <time>2011-11-18T09:25:32Z</time>
      </trkpt>
      <trkpt lat="45.80515" lon="4.78658">
        <ele>267.8</ele>
        <time>2011-11-18T09:25:33Z</time>
      </trkpt>
      <trkpt lat="45.80516" lon="4.78658">
        <ele>267.8</ele>
        <time>2011-11-18T09:25:34Z</time>
      </trkpt>
      <trkpt lat="45.8052" lon="4.78661">
        <ele>268.2</ele>
        <time>2011-11-18T09:25:38Z</time>
      </trkpt>
      <trkpt lat="45.80521" lon="4.78662">
        <ele>268.4</ele>
        <time>2011-11-18T09:25:39Z</time>
      </trkpt>
      <trkpt lat="45.80523" lon="4.78663">
        <ele>268.8</ele>
        <time>2011-11-18T09:25:40Z</time>
      </trkpt>
      <trkpt lat="45.80531" lon="4.78667">
        <ele>270.4</ele>
        <time>2011-11-18T09:25:45Z</time>
      </trkpt>
      <trkpt lat="45.80533" lon="4.78668">
        <ele>270.8</ele>
        <time>2011-11-18T09:25:46Z</time>
      </trkpt>
      <trkpt lat="45.80539" lon="4.78673">
        <ele>272</ele>
        <time>2011-11-18T09:25:51Z</time>
      </trkpt>
      <trkpt lat="45.80546" lon="4.78677">
        <ele>273.4</ele>
        <time>2011-11-18T09:25:57Z</time>
      </trkpt>
      <trkpt lat="45.80547" lon="4.78678">
        <ele>273.6</ele>
        <time>2011-11-18T09:25:58Z</time>
      </trkpt>
      <trkpt lat="45.80549" lon="4.7868">
        <ele>273.8</ele>
        <time>2011-11-18T09:26:00Z</time>
      </trkpt>
      <trkpt lat="45.80555" lon="4.78685">
        <ele>275</ele>
        <time>2011-11-18T09:26:05Z</time>
      </trkpt>
      <trkpt lat="45.80557" lon="4.78688">
        <ele>275.2</ele>
        <time>2011-11-18T09:26:07Z</time>
      </trkpt>
      <trkpt lat="45.80561" lon="4.78691">
        <ele>275.6</ele>
        <time>2011-11-18T09:26:10Z</time>
      </trkpt>
      <trkpt lat="45.80565" lon="4.78693">
        <ele>275.8</ele>
        <time>2011-11-18T09:26:12Z</time>
      </trkpt>
      <trkpt lat="45.80571" lon="4.78697">
        <ele>275.8</ele>
        <time>2011-11-18T09:26:15Z</time>
      </trkpt>
      <trkpt lat="45.80581" lon="4.78705">
        <ele>275.8</ele>
        <time>2011-11-18T09:26:21Z</time>
      </trkpt>
      <trkpt lat="45.80582" lon="4.78706">
        <ele>275.8</ele>
        <time>2011-11-18T09:26:22Z</time>
      </trkpt>
      <trkpt lat="45.80596" lon="4.78712">
        <ele>276.2</ele>
        <time>2011-11-18T09:26:28Z</time>
      </trkpt>
      <trkpt lat="45.80601" lon="4.78714">
        <ele>276.6</ele>
        <time>2011-11-18T09:26:30Z</time>
      </trkpt>
      <trkpt lat="45.80604" lon="4.78714">
        <ele>277.6</ele>
        <time>2011-11-18T09:26:34Z</time>
      </trkpt>
      <trkpt lat="45.80604" lon="4.78712">
        <ele>279.4</ele>
        <time>2011-11-18T09:26:46Z</time>
      </trkpt>
      <trkpt lat="45.8061" lon="4.7872">
        <ele>279.4</ele>
        <time>2011-11-18T09:27:00Z</time>
      </trkpt>
      <trkpt lat="45.80616" lon="4.78725">
        <ele>279.4</ele>
        <time>2011-11-18T09:27:04Z</time>
      </trkpt>
      <trkpt lat="45.80617" lon="4.78727">
        <ele>279.4</ele>
        <time>2011-11-18T09:27:05Z</time>
      </trkpt>
      <trkpt lat="45.80619" lon="4.78728">
        <ele>279.4</ele>
        <time>2011-11-18T09:27:06Z</time>
      </trkpt>
      <trkpt lat="45.80622" lon="4.78732">
        <ele>279.4</ele>
        <time>2011-11-18T09:27:09Z</time>
      </trkpt>
      <trkpt lat="45.80629" lon="4.78736">
        <ele>279.4</ele>
        <time>2011-11-18T09:27:13Z</time>
      </trkpt>
      <trkpt lat="45.80633" lon="4.7874">
        <ele>279.8</ele>
        <time>2011-11-18T09:27:16Z</time>
      </trkpt>
      <trkpt lat="45.80637" lon="4.78744">
        <ele>280</ele>
        <time>2011-11-18T09:27:19Z</time>
      </trkpt>
      <trkpt lat="45.80642" lon="4.78748">
        <ele>280.8</ele>
        <time>2011-11-18T09:27:23Z</time>
      </trkpt>
      <trkpt lat="45.80645" lon="4.78752">
        <ele>281.2</ele>
        <time>2011-11-18T09:27:25Z</time>
      </trkpt>
      <trkpt lat="45.80648" lon="4.78756">
        <ele>281.6</ele>
        <time>2011-11-18T09:27:27Z</time>
      </trkpt>
      <trkpt lat="45.80652" lon="4.78762">
        <ele>282.6</ele>
        <time>2011-11-18T09:27:31Z</time>
      </trkpt>
      <trkpt lat="45.80654" lon="4.78767">
        <ele>283.6</ele>
        <time>2011-11-18T09:27:35Z</time>
      </trkpt>
      <trkpt lat="45.80657" lon="4.78771">
        <ele>284.6</ele>
        <time>2011-11-18T09:27:38Z</time>
      </trkpt>
      <trkpt lat="45.8066" lon="4.78774">
        <ele>285.4</ele>
        <time>2011-11-18T09:27:40Z</time>
      </trkpt>
      <trkpt lat="45.80661" lon="4.78777">
        <ele>285.6</ele>
        <time>2011-11-18T09:27:41Z</time>
      </trkpt>
      <trkpt lat="45.80663" lon="4.78784">
        <ele>286.4</ele>
        <time>2011-11-18T09:27:44Z</time>
      </trkpt>
      <trkpt lat="45.80665" lon="4.78787">
        <ele>287</ele>
        <time>2011-11-18T09:27:47Z</time>
      </trkpt>
      <trkpt lat="45.80667" lon="4.78792">
        <ele>287.8</ele>
        <time>2011-11-18T09:27:50Z</time>
      </trkpt>
      <trkpt lat="45.80668" lon="4.78794">
        <ele>288.2</ele>
        <time>2011-11-18T09:27:51Z</time>
      </trkpt>
      <trkpt lat="45.80668" lon="4.78795">
        <ele>288.4</ele>
        <time>2011-11-18T09:27:52Z</time>
      </trkpt>
      <trkpt lat="45.80671" lon="4.78798">
        <ele>288.8</ele>
        <time>2011-11-18T09:27:54Z</time>
      </trkpt>
      <trkpt lat="45.80674" lon="4.78802">
        <ele>288.8</ele>
        <time>2011-11-18T09:27:56Z</time>
      </trkpt>
      <trkpt lat="45.80674" lon="4.78808">
        <ele>289.8</ele>
        <time>2011-11-18T09:28:01Z</time>
      </trkpt>
      <trkpt lat="45.80675" lon="4.78808">
        <ele>290</ele>
        <time>2011-11-18T09:28:02Z</time>
      </trkpt>
      <trkpt lat="45.80678" lon="4.78812">
        <ele>290.8</ele>
        <time>2011-11-18T09:28:05Z</time>
      </trkpt>
      <trkpt lat="45.80678" lon="4.78811">
        <ele>291.4</ele>
        <time>2011-11-18T09:28:07Z</time>
      </trkpt>
      <trkpt lat="45.80677" lon="4.78806">
        <ele>292</ele>
        <time>2011-11-18T09:28:10Z</time>
      </trkpt>
      <trkpt lat="45.80674" lon="4.788">
        <ele>292.4</ele>
        <time>2011-11-18T09:28:14Z</time>
      </trkpt>
      <trkpt lat="45.80666" lon="4.78786">
        <ele>293.2</ele>
        <time>2011-11-18T09:28:19Z</time>
      </trkpt>
      <trkpt lat="45.80665" lon="4.78785">
        <ele>293.2</ele>
        <time>2011-11-18T09:28:20Z</time>
      </trkpt>
      <trkpt lat="45.80664" lon="4.78779">
        <ele>292.8</ele>
        <time>2011-11-18T09:28:23Z</time>
      </trkpt>
      <trkpt lat="45.80663" lon="4.78777">
        <ele>292.8</ele>
        <time>2011-11-18T09:28:24Z</time>
      </trkpt>
      <trkpt lat="45.80663" lon="4.78775">
        <ele>292.8</ele>
        <time>2011-11-18T09:28:25Z</time>
      </trkpt>
      <trkpt lat="45.80657" lon="4.78768">
        <ele>292.6</ele>
        <time>2011-11-18T09:28:29Z</time>
      </trkpt>
      <trkpt lat="45.80649" lon="4.78762">
        <ele>291.8</ele>
        <time>2011-11-18T09:28:34Z</time>
      </trkpt>
      <trkpt lat="45.80648" lon="4.7876">
        <ele>291.8</ele>
        <time>2011-11-18T09:28:35Z</time>
      </trkpt>
      <trkpt lat="45.80646" lon="4.78758">
        <ele>291.6</ele>
        <time>2011-11-18T09:28:36Z</time>
      </trkpt>
      <trkpt lat="45.80637" lon="4.78751">
        <ele>291.2</ele>
        <time>2011-11-18T09:28:40Z</time>
      </trkpt>
      <trkpt lat="45.80632" lon="4.78748">
        <ele>290.8</ele>
        <time>2011-11-18T09:28:42Z</time>
      </trkpt>
      <trkpt lat="45.80623" lon="4.78738">
        <ele>290.2</ele>
        <time>2011-11-18T09:28:48Z</time>
      </trkpt>
      <trkpt lat="45.80617" lon="4.78732">
        <ele>289.8</ele>
        <time>2011-11-18T09:28:51Z</time>
      </trkpt>
      <trkpt lat="45.80613" lon="4.78728">
        <ele>289.4</ele>
        <time>2011-11-18T09:28:53Z</time>
      </trkpt>
      <trkpt lat="45.80603" lon="4.7872">
        <ele>288.6</ele>
        <time>2011-11-18T09:28:58Z</time>
      </trkpt>
      <trkpt lat="45.80601" lon="4.78719">
        <ele>288.4</ele>
        <time>2011-11-18T09:28:59Z</time>
      </trkpt>
      <trkpt lat="45.80589" lon="4.78712">
        <ele>287.6</ele>
        <time>2011-11-18T09:29:04Z</time>
      </trkpt>
      <trkpt lat="45.80583" lon="4.78708">
        <ele>287.2</ele>
        <time>2011-11-18T09:29:07Z</time>
      </trkpt>
      <trkpt lat="45.80577" lon="4.78704">
        <ele>286.8</ele>
        <time>2011-11-18T09:29:09Z</time>
      </trkpt>
      <trkpt lat="45.80566" lon="4.78699">
        <ele>285.8</ele>
        <time>2011-11-18T09:29:15Z</time>
      </trkpt>
      <trkpt lat="45.80564" lon="4.78697">
        <ele>285.8</ele>
        <time>2011-11-18T09:29:16Z</time>
      </trkpt>
      <trkpt lat="45.80557" lon="4.78692">
        <ele>285.2</ele>
        <time>2011-11-18T09:29:19Z</time>
      </trkpt>
      <trkpt lat="45.80547" lon="4.78685">
        <ele>284.8</ele>
        <time>2011-11-18T09:29:22Z</time>
      </trkpt>
      <trkpt lat="45.80543" lon="4.78682">
        <ele>284.6</ele>
        <time>2011-11-18T09:29:24Z</time>
      </trkpt>
      <trkpt lat="45.80533" lon="4.78673">
        <ele>283.8</ele>
        <time>2011-11-18T09:29:30Z</time>
      </trkpt>
      <trkpt lat="45.8053" lon="4.78671">
        <ele>283.6</ele>
        <time>2011-11-18T09:29:32Z</time>
      </trkpt>
      <trkpt lat="45.80527" lon="4.78669">
        <ele>283.2</ele>
        <time>2011-11-18T09:29:34Z</time>
      </trkpt>
      <trkpt lat="45.80526" lon="4.78668">
        <ele>283.2</ele>
        <time>2011-11-18T09:29:35Z</time>
      </trkpt>
      <trkpt lat="45.80516" lon="4.78662">
        <ele>282.4</ele>
        <time>2011-11-18T09:29:40Z</time>
      </trkpt>
      <trkpt lat="45.80513" lon="4.78659">
        <ele>282</ele>
        <time>2011-11-18T09:29:42Z</time>
      </trkpt>
      <trkpt lat="45.8051" lon="4.78659">
        <ele>281.6</ele>
        <time>2011-11-18T09:29:44Z</time>
      </trkpt>
      <trkpt lat="45.80509" lon="4.78658">
        <ele>281.4</ele>
        <time>2011-11-18T09:29:45Z</time>
      </trkpt>
      <trkpt lat="45.8051" lon="4.78653">
        <ele>281</ele>
        <time>2011-11-18T09:29:47Z</time>
      </trkpt>
      <trkpt lat="45.80516" lon="4.78647">
        <ele>280.4</ele>
        <time>2011-11-18T09:29:50Z</time>
      </trkpt>
      <trkpt lat="45.80517" lon="4.78645">
        <ele>280.2</ele>
        <time>2011-11-18T09:29:51Z</time>
      </trkpt>
      <trkpt lat="45.80531" lon="4.7864">
        <ele>278.8</ele>
        <time>2011-11-18T09:29:57Z</time>
      </trkpt>
      <trkpt lat="45.80535" lon="4.78639">
        <ele>278.2</ele>
        <time>2011-11-18T09:29:59Z</time>
      </trkpt>
      <trkpt lat="45.8054" lon="4.78635">
        <ele>277.4</ele>
        <time>2011-11-18T09:30:02Z</time>
      </trkpt>
      <trkpt lat="45.80541" lon="4.78633">
        <ele>277.2</ele>
        <time>2011-11-18T09:30:03Z</time>
      </trkpt>
      <trkpt lat="45.80545" lon="4.78624">
        <ele>276.2</ele>
        <time>2011-11-18T09:30:07Z</time>
      </trkpt>
      <trkpt lat="45.80545" lon="4.78615">
        <ele>276.2</ele>
        <time>2011-11-18T09:30:09Z</time>
      </trkpt>
      <trkpt lat="45.80549" lon="4.78612">
        <ele>275.6</ele>
        <time>2011-11-18T09:30:11Z</time>
      </trkpt>
      <trkpt lat="45.80557" lon="4.78604">
        <ele>274.8</ele>
        <time>2011-11-18T09:30:15Z</time>
      </trkpt>
      <trkpt lat="45.8056" lon="4.78599">
        <ele>274.4</ele>
        <time>2011-11-18T09:30:17Z</time>
      </trkpt>
      <trkpt lat="45.80567" lon="4.7858">
        <ele>273</ele>
        <time>2011-11-18T09:30:23Z</time>
      </trkpt>
      <trkpt lat="45.80569" lon="4.78574">
        <ele>272.6</ele>
        <time>2011-11-18T09:30:25Z</time>
      </trkpt>
      <trkpt lat="45.80573" lon="4.78565">
        <ele>272</ele>
        <time>2011-11-18T09:30:28Z</time>
      </trkpt>
      <trkpt lat="45.80579" lon="4.7855">
        <ele>270.8</ele>
        <time>2011-11-18T09:30:33Z</time>
      </trkpt>
      <trkpt lat="45.80582" lon="4.78522">
        <ele>270.4</ele>
        <time>2011-11-18T09:30:39Z</time>
      </trkpt>
      <trkpt lat="45.80587" lon="4.78506">
        <ele>269.8</ele>
        <time>2011-11-18T09:30:44Z</time>
      </trkpt>
      <trkpt lat="45.80587" lon="4.78494">
        <ele>269.6</ele>
        <time>2011-11-18T09:30:47Z</time>
      </trkpt>
      <trkpt lat="45.80589" lon="4.78485">
        <ele>269.4</ele>
        <time>2011-11-18T09:30:50Z</time>
      </trkpt>
      <trkpt lat="45.80592" lon="4.78469">
        <ele>268.8</ele>
        <time>2011-11-18T09:30:55Z</time>
      </trkpt>
      <trkpt lat="45.80596" lon="4.7846">
        <ele>268.6</ele>
        <time>2011-11-18T09:30:58Z</time>
      </trkpt>
      <trkpt lat="45.80601" lon="4.78456">
        <ele>268.2</ele>
        <time>2011-11-18T09:31:00Z</time>
      </trkpt>
      <trkpt lat="45.80604" lon="4.78449">
        <ele>268</ele>
        <time>2011-11-18T09:31:02Z</time>
      </trkpt>
      <trkpt lat="45.80612" lon="4.78436">
        <ele>267.8</ele>
        <time>2011-11-18T09:31:06Z</time>
      </trkpt>
      <trkpt lat="45.80616" lon="4.78424">
        <ele>267.6</ele>
        <time>2011-11-18T09:31:09Z</time>
      </trkpt>
      <trkpt lat="45.80622" lon="4.78412">
        <ele>267.6</ele>
        <time>2011-11-18T09:31:13Z</time>
      </trkpt>
      <trkpt lat="45.80628" lon="4.78405">
        <ele>267.6</ele>
        <time>2011-11-18T09:31:16Z</time>
      </trkpt>
      <trkpt lat="45.80633" lon="4.78401">
        <ele>267.8</ele>
        <time>2011-11-18T09:31:18Z</time>
      </trkpt>
      <trkpt lat="45.80646" lon="4.78394">
        <ele>268</ele>
        <time>2011-11-18T09:31:23Z</time>
      </trkpt>
      <trkpt lat="45.80655" lon="4.78392">
        <ele>268</ele>
        <time>2011-11-18T09:31:28Z</time>
      </trkpt>
      <trkpt lat="45.80664" lon="4.78397">
        <ele>267.8</ele>
        <time>2011-11-18T09:31:32Z</time>
      </trkpt>
      <trkpt lat="45.80666" lon="4.78399">
        <ele>267.8</ele>
        <time>2011-11-18T09:31:33Z</time>
      </trkpt>
      <trkpt lat="45.80676" lon="4.78403">
        <ele>267.8</ele>
        <time>2011-11-18T09:31:39Z</time>
      </trkpt>
      <trkpt lat="45.80682" lon="4.78401">
        <ele>267.6</ele>
        <time>2011-11-18T09:31:42Z</time>
      </trkpt>
      <trkpt lat="45.80686" lon="4.784">
        <ele>267.6</ele>
        <time>2011-11-18T09:31:44Z</time>
      </trkpt>
      <trkpt lat="45.80699" lon="4.78395">
        <ele>267.8</ele>
        <time>2011-11-18T09:31:50Z</time>
      </trkpt>
      <trkpt lat="45.807" lon="4.78393">
        <ele>268</ele>
        <time>2011-11-18T09:31:51Z</time>
      </trkpt>
      <trkpt lat="45.80709" lon="4.78392">
        <ele>267.8</ele>
        <time>2011-11-18T09:31:55Z</time>
      </trkpt>
      <trkpt lat="45.80719" lon="4.78393">
        <ele>267.6</ele>
        <time>2011-11-18T09:31:59Z</time>
      </trkpt>
      <trkpt lat="45.80723" lon="4.7839">
        <ele>267.6</ele>
        <time>2011-11-18T09:32:01Z</time>
      </trkpt>
      <trkpt lat="45.80731" lon="4.78385">
        <ele>267.6</ele>
        <time>2011-11-18T09:32:06Z</time>
      </trkpt>
      <trkpt lat="45.80739" lon="4.78384">
        <ele>267.2</ele>
        <time>2011-11-18T09:32:09Z</time>
      </trkpt>
      <trkpt lat="45.80747" lon="4.78385">
        <ele>267</ele>
        <time>2011-11-18T09:32:12Z</time>
      </trkpt>
      <trkpt lat="45.8076" lon="4.78385">
        <ele>266.4</ele>
        <time>2011-11-18T09:32:17Z</time>
      </trkpt>
      <trkpt lat="45.80764" lon="4.78381">
        <ele>266.4</ele>
        <time>2011-11-18T09:32:20Z</time>
      </trkpt>
      <trkpt lat="45.80771" lon="4.78378">
        <ele>266.2</ele>
        <time>2011-11-18T09:32:23Z</time>
      </trkpt>
      <trkpt lat="45.80778" lon="4.78375">
        <ele>266.2</ele>
        <time>2011-11-18T09:32:26Z</time>
      </trkpt>
      <trkpt lat="45.8078" lon="4.78373">
        <ele>266.2</ele>
        <time>2011-11-18T09:32:28Z</time>
      </trkpt>
      <trkpt lat="45.80792" lon="4.78367">
        <ele>266.8</ele>
        <time>2011-11-18T09:32:33Z</time>
      </trkpt>
      <trkpt lat="45.80795" lon="4.78365">
        <ele>267</ele>
        <time>2011-11-18T09:32:34Z</time>
      </trkpt>
      <trkpt lat="45.80799" lon="4.78362">
        <ele>267.6</ele>
        <time>2011-11-18T09:32:36Z</time>
      </trkpt>
      <trkpt lat="45.80801" lon="4.78361">
        <ele>267.8</ele>
        <time>2011-11-18T09:32:37Z</time>
      </trkpt>
      <trkpt lat="45.80814" lon="4.78358">
        <ele>269.4</ele>
        <time>2011-11-18T09:32:42Z</time>
      </trkpt>
      <trkpt lat="45.80817" lon="4.78359">
        <ele>269.6</ele>
        <time>2011-11-18T09:32:43Z</time>
      </trkpt>
      <trkpt lat="45.80825" lon="4.78358">
        <ele>270.4</ele>
        <time>2011-11-18T09:32:46Z</time>
      </trkpt>
      <trkpt lat="45.80831" lon="4.7836">
        <ele>270.6</ele>
        <time>2011-11-18T09:32:48Z</time>
      </trkpt>
      <trkpt lat="45.80834" lon="4.7836">
        <ele>270.8</ele>
        <time>2011-11-18T09:32:49Z</time>
      </trkpt>
      <trkpt lat="45.80845" lon="4.78362">
        <ele>271.2</ele>
        <time>2011-11-18T09:32:53Z</time>
      </trkpt>
      <trkpt lat="45.80854" lon="4.78364">
        <ele>271.4</ele>
        <time>2011-11-18T09:32:57Z</time>
      </trkpt>
      <trkpt lat="45.80859" lon="4.78365">
        <ele>271.4</ele>
        <time>2011-11-18T09:32:59Z</time>
      </trkpt>
      <trkpt lat="45.80874" lon="4.78367">
        <ele>271.6</ele>
        <time>2011-11-18T09:33:05Z</time>
      </trkpt>
      <trkpt lat="45.80876" lon="4.78366">
        <ele>271.6</ele>
        <time>2011-11-18T09:33:06Z</time>
      </trkpt>
      <trkpt lat="45.80887" lon="4.7836">
        <ele>272</ele>
        <time>2011-11-18T09:33:10Z</time>
      </trkpt>
      <trkpt lat="45.80891" lon="4.78356">
        <ele>272</ele>
        <time>2011-11-18T09:33:12Z</time>
      </trkpt>
      <trkpt lat="45.80899" lon="4.78347">
        <ele>272</ele>
        <time>2011-11-18T09:33:16Z</time>
      </trkpt>
      <trkpt lat="45.80904" lon="4.78336">
        <ele>271.6</ele>
        <time>2011-11-18T09:33:20Z</time>
      </trkpt>
      <trkpt lat="45.80907" lon="4.78325">
        <ele>271.6</ele>
        <time>2011-11-18T09:33:23Z</time>
      </trkpt>
      <trkpt lat="45.80908" lon="4.7831">
        <ele>271.6</ele>
        <time>2011-11-18T09:33:27Z</time>
      </trkpt>
      <trkpt lat="45.80908" lon="4.78307">
        <ele>271.6</ele>
        <time>2011-11-18T09:33:28Z</time>
      </trkpt>
      <trkpt lat="45.80913" lon="4.78295">
        <ele>271.6</ele>
        <time>2011-11-18T09:33:31Z</time>
      </trkpt>
      <trkpt lat="45.80914" lon="4.78291">
        <ele>271.6</ele>
        <time>2011-11-18T09:33:32Z</time>
      </trkpt>
      <trkpt lat="45.80914" lon="4.78288">
        <ele>271.6</ele>
        <time>2011-11-18T09:33:33Z</time>
      </trkpt>
      <trkpt lat="45.80917" lon="4.78274">
        <ele>271.6</ele>
        <time>2011-11-18T09:33:36Z</time>
      </trkpt>
      <trkpt lat="45.80919" lon="4.78261">
        <ele>272</ele>
        <time>2011-11-18T09:33:40Z</time>
      </trkpt>
      <trkpt lat="45.8092" lon="4.78258">
        <ele>272</ele>
        <time>2011-11-18T09:33:41Z</time>
      </trkpt>
      <trkpt lat="45.80922" lon="4.78256">
        <ele>272.2</ele>
        <time>2011-11-18T09:33:42Z</time>
      </trkpt>
      <trkpt lat="45.80932" lon="4.7825">
        <ele>273</ele>
        <time>2011-11-18T09:33:47Z</time>
      </trkpt>
      <trkpt lat="45.80935" lon="4.78249">
        <ele>273.2</ele>
        <time>2011-11-18T09:33:48Z</time>
      </trkpt>
      <trkpt lat="45.80942" lon="4.78249">
        <ele>273.4</ele>
        <time>2011-11-18T09:33:51Z</time>
      </trkpt>
      <trkpt lat="45.80955" lon="4.7825">
        <ele>274</ele>
        <time>2011-11-18T09:33:56Z</time>
      </trkpt>
      <trkpt lat="45.80959" lon="4.7825">
        <ele>274.2</ele>
        <time>2011-11-18T09:33:57Z</time>
      </trkpt>
      <trkpt lat="45.80972" lon="4.78252">
        <ele>275.4</ele>
        <time>2011-11-18T09:34:03Z</time>
      </trkpt>
      <trkpt lat="45.80974" lon="4.78252">
        <ele>275.6</ele>
        <time>2011-11-18T09:34:04Z</time>
      </trkpt>
      <trkpt lat="45.80985" lon="4.78255">
        <ele>276.6</ele>
        <time>2011-11-18T09:34:08Z</time>
      </trkpt>
      <trkpt lat="45.80989" lon="4.78255">
        <ele>277.2</ele>
        <time>2011-11-18T09:34:10Z</time>
      </trkpt>
      <trkpt lat="45.80994" lon="4.78256">
        <ele>277.6</ele>
        <time>2011-11-18T09:34:12Z</time>
      </trkpt>
      <trkpt lat="45.81006" lon="4.78257">
        <ele>279</ele>
        <time>2011-11-18T09:34:17Z</time>
      </trkpt>
      <trkpt lat="45.81012" lon="4.78256">
        <ele>279.8</ele>
        <time>2011-11-18T09:34:19Z</time>
      </trkpt>
      <trkpt lat="45.81014" lon="4.78256">
        <ele>279.8</ele>
        <time>2011-11-18T09:34:20Z</time>
      </trkpt>
      <trkpt lat="45.81018" lon="4.78257">
        <ele>280</ele>
        <time>2011-11-18T09:34:22Z</time>
      </trkpt>
      <trkpt lat="45.81031" lon="4.78253">
        <ele>280.2</ele>
        <time>2011-11-18T09:34:28Z</time>
      </trkpt>
      <trkpt lat="45.81042" lon="4.78252">
        <ele>280.2</ele>
        <time>2011-11-18T09:34:33Z</time>
      </trkpt>
      <trkpt lat="45.81046" lon="4.78253">
        <ele>280</ele>
        <time>2011-11-18T09:34:35Z</time>
      </trkpt>
      <trkpt lat="45.81051" lon="4.78253">
        <ele>280</ele>
        <time>2011-11-18T09:34:38Z</time>
      </trkpt>
      <trkpt lat="45.81053" lon="4.78252">
        <ele>280</ele>
        <time>2011-11-18T09:34:39Z</time>
      </trkpt>
      <trkpt lat="45.81064" lon="4.78251">
        <ele>279.8</ele>
        <time>2011-11-18T09:34:44Z</time>
      </trkpt>
      <trkpt lat="45.81069" lon="4.78251">
        <ele>279.6</ele>
        <time>2011-11-18T09:34:46Z</time>
      </trkpt>
      <trkpt lat="45.81075" lon="4.78251">
        <ele>279.6</ele>
        <time>2011-11-18T09:34:48Z</time>
      </trkpt>
      <trkpt lat="45.81081" lon="4.78251">
        <ele>279.2</ele>
        <time>2011-11-18T09:34:51Z</time>
      </trkpt>
      <trkpt lat="45.81089" lon="4.78251">
        <ele>279</ele>
        <time>2011-11-18T09:34:54Z</time>
      </trkpt>
      <trkpt lat="45.81092" lon="4.78251">
        <ele>279</ele>
        <time>2011-11-18T09:34:55Z</time>
      </trkpt>
      <trkpt lat="45.81102" lon="4.7825">
        <ele>278.8</ele>
        <time>2011-11-18T09:34:59Z</time>
      </trkpt>
      <trkpt lat="45.81108" lon="4.78249">
        <ele>278.6</ele>
        <time>2011-11-18T09:35:02Z</time>
      </trkpt>
      <trkpt lat="45.81116" lon="4.78248">
        <ele>278.6</ele>
        <time>2011-11-18T09:35:05Z</time>
      </trkpt>
      <trkpt lat="45.81127" lon="4.78246">
        <ele>278.4</ele>
        <time>2011-11-18T09:35:10Z</time>
      </trkpt>
      <trkpt lat="45.81136" lon="4.78241">
        <ele>278.4</ele>
        <time>2011-11-18T09:35:14Z</time>
      </trkpt>
      <trkpt lat="45.81146" lon="4.78239">
        <ele>278.6</ele>
        <time>2011-11-18T09:35:18Z</time>
      </trkpt>
      <trkpt lat="45.81149" lon="4.78238">
        <ele>278.4</ele>
        <time>2011-11-18T09:35:20Z</time>
      </trkpt>
      <trkpt lat="45.8116" lon="4.78236">
        <ele>279.4</ele>
        <time>2011-11-18T09:35:25Z</time>
      </trkpt>
      <trkpt lat="45.81164" lon="4.78236">
        <ele>279.6</ele>
        <time>2011-11-18T09:35:27Z</time>
      </trkpt>
      <trkpt lat="45.81165" lon="4.78234">
        <ele>279.8</ele>
        <time>2011-11-18T09:35:29Z</time>
      </trkpt>
      <trkpt lat="45.81173" lon="4.7823">
        <ele>280.4</ele>
        <time>2011-11-18T09:35:34Z</time>
      </trkpt>
      <trkpt lat="45.81182" lon="4.78229">
        <ele>280.6</ele>
        <time>2011-11-18T09:35:38Z</time>
      </trkpt>
      <trkpt lat="45.81187" lon="4.78228">
        <ele>280.6</ele>
        <time>2011-11-18T09:35:40Z</time>
      </trkpt>
      <trkpt lat="45.812" lon="4.78225">
        <ele>280.4</ele>
        <time>2011-11-18T09:35:46Z</time>
      </trkpt>
      <trkpt lat="45.81207" lon="4.78224">
        <ele>280.4</ele>
        <time>2011-11-18T09:35:49Z</time>
      </trkpt>
      <trkpt lat="45.81219" lon="4.7822">
        <ele>280.2</ele>
        <time>2011-11-18T09:35:54Z</time>
      </trkpt>
      <trkpt lat="45.81223" lon="4.7822">
        <ele>280.2</ele>
        <time>2011-11-18T09:35:56Z</time>
      </trkpt>
      <trkpt lat="45.81238" lon="4.78217">
        <ele>280</ele>
        <time>2011-11-18T09:36:02Z</time>
      </trkpt>
      <trkpt lat="45.81252" lon="4.78217">
        <ele>280</ele>
        <time>2011-11-18T09:36:08Z</time>
      </trkpt>
      <trkpt lat="45.81254" lon="4.78217">
        <ele>280</ele>
        <time>2011-11-18T09:36:09Z</time>
      </trkpt>
      <trkpt lat="45.81256" lon="4.78216">
        <ele>280</ele>
        <time>2011-11-18T09:36:10Z</time>
      </trkpt>
      <trkpt lat="45.8126" lon="4.78213">
        <ele>280.2</ele>
        <time>2011-11-18T09:36:12Z</time>
      </trkpt>
      <trkpt lat="45.81265" lon="4.78212">
        <ele>280.2</ele>
        <time>2011-11-18T09:36:14Z</time>
      </trkpt>
      <trkpt lat="45.81271" lon="4.78212">
        <ele>280.2</ele>
        <time>2011-11-18T09:36:17Z</time>
      </trkpt>
      <trkpt lat="45.81275" lon="4.78214">
        <ele>280.4</ele>
        <time>2011-11-18T09:36:19Z</time>
      </trkpt>
      <trkpt lat="45.8128" lon="4.78216">
        <ele>280.4</ele>
        <time>2011-11-18T09:36:22Z</time>
      </trkpt>
      <trkpt lat="45.81282" lon="4.78216">
        <ele>280.6</ele>
        <time>2011-11-18T09:36:23Z</time>
      </trkpt>
      <trkpt lat="45.81287" lon="4.78212">
        <ele>281</ele>
        <time>2011-11-18T09:36:28Z</time>
      </trkpt>
      <trkpt lat="45.8129" lon="4.78209">
        <ele>281.6</ele>
        <time>2011-11-18T09:36:34Z</time>
      </trkpt>
      <trkpt lat="45.8129" lon="4.78207">
        <ele>281.8</ele>
        <time>2011-11-18T09:36:38Z</time>
      </trkpt>
      <trkpt lat="45.81288" lon="4.78204">
        <ele>282</ele>
        <time>2011-11-18T09:36:42Z</time>
      </trkpt>
      <trkpt lat="45.81286" lon="4.78206">
        <ele>284</ele>
        <time>2011-11-18T09:36:54Z</time>
      </trkpt>
      <trkpt lat="45.81287" lon="4.7821">
        <ele>284</ele>
        <time>2011-11-18T09:36:56Z</time>
      </trkpt>
      <trkpt lat="45.81281" lon="4.78213">
        <ele>284</ele>
        <time>2011-11-18T09:36:59Z</time>
      </trkpt>
      <trkpt lat="45.81279" lon="4.78213">
        <ele>284</ele>
        <time>2011-11-18T09:37:00Z</time>
      </trkpt>
      <trkpt lat="45.81277" lon="4.78213">
        <ele>284</ele>
        <time>2011-11-18T09:37:01Z</time>
      </trkpt>
      <trkpt lat="45.81265" lon="4.78212">
        <ele>284</ele>
        <time>2011-11-18T09:37:06Z</time>
      </trkpt>
      <trkpt lat="45.81263" lon="4.78213">
        <ele>284</ele>
        <time>2011-11-18T09:37:07Z</time>
      </trkpt>
      <trkpt lat="45.81256" lon="4.78215">
        <ele>283.8</ele>
        <time>2011-11-18T09:37:10Z</time>
      </trkpt>
      <trkpt lat="45.81253" lon="4.78215">
        <ele>283.6</ele>
        <time>2011-11-18T09:37:12Z</time>
      </trkpt>
      <trkpt lat="45.8125" lon="4.78215">
        <ele>283.6</ele>
        <time>2011-11-18T09:37:14Z</time>
      </trkpt>
      <trkpt lat="45.81247" lon="4.78215">
        <ele>283.4</ele>
        <time>2011-11-18T09:37:16Z</time>
      </trkpt>
      <trkpt lat="45.81246" lon="4.78217">
        <ele>283.2</ele>
        <time>2011-11-18T09:37:17Z</time>
      </trkpt>
      <trkpt lat="45.81242" lon="4.78222">
        <ele>283</ele>
        <time>2011-11-18T09:37:19Z</time>
      </trkpt>
      <trkpt lat="45.81241" lon="4.78225">
        <ele>283</ele>
        <time>2011-11-18T09:37:20Z</time>
      </trkpt>
      <trkpt lat="45.81243" lon="4.78235">
        <ele>282.8</ele>
        <time>2011-11-18T09:37:23Z</time>
      </trkpt>
      <trkpt lat="45.81245" lon="4.78239">
        <ele>282.8</ele>
        <time>2011-11-18T09:37:24Z</time>
      </trkpt>
      <trkpt lat="45.81249" lon="4.78249">
        <ele>282.6</ele>
        <time>2011-11-18T09:37:28Z</time>
      </trkpt>
      <trkpt lat="45.81253" lon="4.78261">
        <ele>282.4</ele>
        <time>2011-11-18T09:37:32Z</time>
      </trkpt>
      <trkpt lat="45.81255" lon="4.78264">
        <ele>282.4</ele>
        <time>2011-11-18T09:37:33Z</time>
      </trkpt>
      <trkpt lat="45.81265" lon="4.78277">
        <ele>282.2</ele>
        <time>2011-11-18T09:37:38Z</time>
      </trkpt>
      <trkpt lat="45.81267" lon="4.7828">
        <ele>282.2</ele>
        <time>2011-11-18T09:37:39Z</time>
      </trkpt>
      <trkpt lat="45.8127" lon="4.7829">
        <ele>282.2</ele>
        <time>2011-11-18T09:37:42Z</time>
      </trkpt>
      <trkpt lat="45.81277" lon="4.78305">
        <ele>282</ele>
        <time>2011-11-18T09:37:47Z</time>
      </trkpt>
      <trkpt lat="45.81279" lon="4.78308">
        <ele>282</ele>
        <time>2011-11-18T09:37:48Z</time>
      </trkpt>
      <trkpt lat="45.81286" lon="4.78322">
        <ele>282.2</ele>
        <time>2011-11-18T09:37:53Z</time>
      </trkpt>
      <trkpt lat="45.81288" lon="4.78323">
        <ele>282.2</ele>
        <time>2011-11-18T09:37:54Z</time>
      </trkpt>
      <trkpt lat="45.8129" lon="4.78323">
        <ele>282</ele>
        <time>2011-11-18T09:37:55Z</time>
      </trkpt>
      <trkpt lat="45.81293" lon="4.78323">
        <ele>282</ele>
        <time>2011-11-18T09:37:57Z</time>
      </trkpt>
      <trkpt lat="45.81294" lon="4.78324">
        <ele>282</ele>
        <time>2011-11-18T09:37:58Z</time>
      </trkpt>
      <trkpt lat="45.81298" lon="4.78324">
        <ele>282</ele>
        <time>2011-11-18T09:38:01Z</time>
      </trkpt>
      <trkpt lat="45.81306" lon="4.78327">
        <ele>281.8</ele>
        <time>2011-11-18T09:38:05Z</time>
      </trkpt>
      <trkpt lat="45.81308" lon="4.78328">
        <ele>281.8</ele>
        <time>2011-11-18T09:38:06Z</time>
      </trkpt>
      <trkpt lat="45.81322" lon="4.78334">
        <ele>282</ele>
        <time>2011-11-18T09:38:14Z</time>
      </trkpt>
      <trkpt lat="45.81326" lon="4.78336">
        <ele>281.8</ele>
        <time>2011-11-18T09:38:16Z</time>
      </trkpt>
      <trkpt lat="45.81333" lon="4.78338">
        <ele>281.8</ele>
        <time>2011-11-18T09:38:20Z</time>
      </trkpt>
      <trkpt lat="45.81347" lon="4.78343">
        <ele>282.4</ele>
        <time>2011-11-18T09:38:26Z</time>
      </trkpt>
      <trkpt lat="45.81363" lon="4.78346">
        <ele>284</ele>
        <time>2011-11-18T09:38:32Z</time>
      </trkpt>
      <trkpt lat="45.81366" lon="4.78345">
        <ele>284.6</ele>
        <time>2011-11-18T09:38:34Z</time>
      </trkpt>
      <trkpt lat="45.81372" lon="4.78346">
        <ele>285.2</ele>
        <time>2011-11-18T09:38:38Z</time>
      </trkpt>
      <trkpt lat="45.81384" lon="4.78348">
        <ele>286.2</ele>
        <time>2011-11-18T09:38:44Z</time>
      </trkpt>
      <trkpt lat="45.81386" lon="4.78348">
        <ele>286.4</ele>
        <time>2011-11-18T09:38:45Z</time>
      </trkpt>
      <trkpt lat="45.81399" lon="4.78349">
        <ele>287</ele>
        <time>2011-11-18T09:38:51Z</time>
      </trkpt>
      <trkpt lat="45.81404" lon="4.78349">
        <ele>287.2</ele>
        <time>2011-11-18T09:38:53Z</time>
      </trkpt>
      <trkpt lat="45.81411" lon="4.7835">
        <ele>287.8</ele>
        <time>2011-11-18T09:38:56Z</time>
      </trkpt>
      <trkpt lat="45.81421" lon="4.78349">
        <ele>288</ele>
        <time>2011-11-18T09:39:01Z</time>
      </trkpt>
      <trkpt lat="45.81423" lon="4.78348">
        <ele>288</ele>
        <time>2011-11-18T09:39:02Z</time>
      </trkpt>
      <trkpt lat="45.81432" lon="4.78348">
        <ele>288.4</ele>
        <time>2011-11-18T09:39:07Z</time>
      </trkpt>
      <trkpt lat="45.81444" lon="4.78351">
        <ele>288.8</ele>
        <time>2011-11-18T09:39:12Z</time>
      </trkpt>
      <trkpt lat="45.81453" lon="4.7835">
        <ele>289</ele>
        <time>2011-11-18T09:39:16Z</time>
      </trkpt>
      <trkpt lat="45.81454" lon="4.7835">
        <ele>289.2</ele>
        <time>2011-11-18T09:39:17Z</time>
      </trkpt>
      <trkpt lat="45.81462" lon="4.78353">
        <ele>289.6</ele>
        <time>2011-11-18T09:39:21Z</time>
      </trkpt>
      <trkpt lat="45.8147" lon="4.78353">
        <ele>290</ele>
        <time>2011-11-18T09:39:25Z</time>
      </trkpt>
      <trkpt lat="45.81475" lon="4.78352">
        <ele>290.4</ele>
        <time>2011-11-18T09:39:27Z</time>
      </trkpt>
      <trkpt lat="45.8148" lon="4.78351">
        <ele>290.8</ele>
        <time>2011-11-18T09:39:30Z</time>
      </trkpt>
      <trkpt lat="45.81482" lon="4.78351">
        <ele>291</ele>
        <time>2011-11-18T09:39:31Z</time>
      </trkpt>
      <trkpt lat="45.81484" lon="4.78351">
        <ele>291</ele>
        <time>2011-11-18T09:39:32Z</time>
      </trkpt>
      <trkpt lat="45.81498" lon="4.78351">
        <ele>292.2</ele>
        <time>2011-11-18T09:39:38Z</time>
      </trkpt>
      <trkpt lat="45.81501" lon="4.78351">
        <ele>292.4</ele>
        <time>2011-11-18T09:39:39Z</time>
      </trkpt>
      <trkpt lat="45.81509" lon="4.78352">
        <ele>292.8</ele>
        <time>2011-11-18T09:39:43Z</time>
      </trkpt>
      <trkpt lat="45.81518" lon="4.78351">
        <ele>293</ele>
        <time>2011-11-18T09:39:47Z</time>
      </trkpt>
      <trkpt lat="45.81521" lon="4.78351">
        <ele>293</ele>
        <time>2011-11-18T09:39:48Z</time>
      </trkpt>
      <trkpt lat="45.81535" lon="4.78351">
        <ele>293</ele>
        <time>2011-11-18T09:39:55Z</time>
      </trkpt>
      <trkpt lat="45.81538" lon="4.7835">
        <ele>293.2</ele>
        <time>2011-11-18T09:39:57Z</time>
      </trkpt>
      <trkpt lat="45.81544" lon="4.7835">
        <ele>293</ele>
        <time>2011-11-18T09:40:00Z</time>
      </trkpt>
      <trkpt lat="45.81556" lon="4.7835">
        <ele>292.8</ele>
        <time>2011-11-18T09:40:05Z</time>
      </trkpt>
      <trkpt lat="45.81559" lon="4.7835">
        <ele>292.8</ele>
        <time>2011-11-18T09:40:06Z</time>
      </trkpt>
      <trkpt lat="45.8157" lon="4.7835">
        <ele>292.6</ele>
        <time>2011-11-18T09:40:12Z</time>
      </trkpt>
      <trkpt lat="45.81575" lon="4.7835">
        <ele>292.8</ele>
        <time>2011-11-18T09:40:14Z</time>
      </trkpt>
      <trkpt lat="45.81583" lon="4.78349">
        <ele>292.6</ele>
        <time>2011-11-18T09:40:18Z</time>
      </trkpt>
      <trkpt lat="45.81594" lon="4.78346">
        <ele>293</ele>
        <time>2011-11-18T09:40:22Z</time>
      </trkpt>
      <trkpt lat="45.81596" lon="4.78346">
        <ele>292.8</ele>
        <time>2011-11-18T09:40:23Z</time>
      </trkpt>
      <trkpt lat="45.81611" lon="4.78342">
        <ele>292.8</ele>
        <time>2011-11-18T09:40:29Z</time>
      </trkpt>
      <trkpt lat="45.81614" lon="4.7834">
        <ele>292.8</ele>
        <time>2011-11-18T09:40:30Z</time>
      </trkpt>
      <trkpt lat="45.8162" lon="4.78333">
        <ele>293.2</ele>
        <time>2011-11-18T09:40:34Z</time>
      </trkpt>
      <trkpt lat="45.8163" lon="4.78325">
        <ele>293.4</ele>
        <time>2011-11-18T09:40:39Z</time>
      </trkpt>
      <trkpt lat="45.81636" lon="4.78323">
        <ele>294</ele>
        <time>2011-11-18T09:40:41Z</time>
      </trkpt>
      <trkpt lat="45.81641" lon="4.78321">
        <ele>294.2</ele>
        <time>2011-11-18T09:40:43Z</time>
      </trkpt>
      <trkpt lat="45.81648" lon="4.78317">
        <ele>294.6</ele>
        <time>2011-11-18T09:40:46Z</time>
      </trkpt>
      <trkpt lat="45.81651" lon="4.78316">
        <ele>294.8</ele>
        <time>2011-11-18T09:40:47Z</time>
      </trkpt>
      <trkpt lat="45.81653" lon="4.78314">
        <ele>295</ele>
        <time>2011-11-18T09:40:48Z</time>
      </trkpt>
      <trkpt lat="45.81662" lon="4.78308">
        <ele>295.8</ele>
        <time>2011-11-18T09:40:52Z</time>
      </trkpt>
      <trkpt lat="45.81667" lon="4.78307">
        <ele>296</ele>
        <time>2011-11-18T09:40:54Z</time>
      </trkpt>
      <trkpt lat="45.81671" lon="4.78305">
        <ele>296</ele>
        <time>2011-11-18T09:40:56Z</time>
      </trkpt>
      <trkpt lat="45.81682" lon="4.78299">
        <ele>296.4</ele>
        <time>2011-11-18T09:41:01Z</time>
      </trkpt>
      <trkpt lat="45.81685" lon="4.78298">
        <ele>296.4</ele>
        <time>2011-11-18T09:41:02Z</time>
      </trkpt>
      <trkpt lat="45.81692" lon="4.78298">
        <ele>296.4</ele>
        <time>2011-11-18T09:41:05Z</time>
      </trkpt>
      <trkpt lat="45.81704" lon="4.78296">
        <ele>296.2</ele>
        <time>2011-11-18T09:41:10Z</time>
      </trkpt>
      <trkpt lat="45.81708" lon="4.78297">
        <ele>296.2</ele>
        <time>2011-11-18T09:41:12Z</time>
      </trkpt>
      <trkpt lat="45.81712" lon="4.78299">
        <ele>296</ele>
        <time>2011-11-18T09:41:14Z</time>
      </trkpt>
      <trkpt lat="45.81717" lon="4.78298">
        <ele>296</ele>
        <time>2011-11-18T09:41:17Z</time>
      </trkpt>
      <trkpt lat="45.81722" lon="4.78297">
        <ele>295.8</ele>
        <time>2011-11-18T09:41:19Z</time>
      </trkpt>
      <trkpt lat="45.81735" lon="4.78293">
        <ele>295.8</ele>
        <time>2011-11-18T09:41:24Z</time>
      </trkpt>
      <trkpt lat="45.81741" lon="4.7829">
        <ele>295.6</ele>
        <time>2011-11-18T09:41:27Z</time>
      </trkpt>
      <trkpt lat="45.8175" lon="4.78287">
        <ele>295.6</ele>
        <time>2011-11-18T09:41:31Z</time>
      </trkpt>
      <trkpt lat="45.81761" lon="4.78287">
        <ele>295.6</ele>
        <time>2011-11-18T09:41:36Z</time>
      </trkpt>
      <trkpt lat="45.81771" lon="4.78288">
        <ele>295.4</ele>
        <time>2011-11-18T09:41:41Z</time>
      </trkpt>
      <trkpt lat="45.81777" lon="4.78288">
        <ele>295.8</ele>
        <time>2011-11-18T09:41:46Z</time>
      </trkpt>
      <trkpt lat="45.81779" lon="4.78288">
        <ele>295.8</ele>
        <time>2011-11-18T09:41:47Z</time>
      </trkpt>
      <trkpt lat="45.81791" lon="4.78289">
        <ele>296.4</ele>
        <time>2011-11-18T09:41:53Z</time>
      </trkpt>
      <trkpt lat="45.81793" lon="4.78289">
        <ele>296.2</ele>
        <time>2011-11-18T09:41:54Z</time>
      </trkpt>
      <trkpt lat="45.81796" lon="4.78295">
        <ele>296.8</ele>
        <time>2011-11-18T09:41:58Z</time>
      </trkpt>
      <trkpt lat="45.81796" lon="4.78297">
        <ele>297</ele>
        <time>2011-11-18T09:41:59Z</time>
      </trkpt>
      <trkpt lat="45.81792" lon="4.783">
        <ele>297.2</ele>
        <time>2011-11-18T09:42:02Z</time>
      </trkpt>
      <trkpt lat="45.81783" lon="4.78306">
        <ele>297.8</ele>
        <time>2011-11-18T09:42:07Z</time>
      </trkpt>
      <trkpt lat="45.81781" lon="4.78307">
        <ele>298</ele>
        <time>2011-11-18T09:42:08Z</time>
      </trkpt>
      <trkpt lat="45.8178" lon="4.78308">
        <ele>298</ele>
        <time>2011-11-18T09:42:09Z</time>
      </trkpt>
      <trkpt lat="45.81771" lon="4.78313">
        <ele>298.4</ele>
        <time>2011-11-18T09:42:14Z</time>
      </trkpt>
      <trkpt lat="45.81765" lon="4.78317">
        <ele>298.8</ele>
        <time>2011-11-18T09:42:18Z</time>
      </trkpt>
      <trkpt lat="45.81763" lon="4.78318">
        <ele>298.8</ele>
        <time>2011-11-18T09:42:19Z</time>
      </trkpt>
      <trkpt lat="45.81762" lon="4.7832">
        <ele>298.8</ele>
        <time>2011-11-18T09:42:20Z</time>
      </trkpt>
      <trkpt lat="45.81761" lon="4.78325">
        <ele>299</ele>
        <time>2011-11-18T09:42:22Z</time>
      </trkpt>
      <trkpt lat="45.81762" lon="4.78329">
        <ele>299.2</ele>
        <time>2011-11-18T09:42:24Z</time>
      </trkpt>
      <trkpt lat="45.81765" lon="4.78329">
        <ele>299.2</ele>
        <time>2011-11-18T09:42:26Z</time>
      </trkpt>
      <trkpt lat="45.81768" lon="4.78329">
        <ele>299.2</ele>
        <time>2011-11-18T09:42:28Z</time>
      </trkpt>
      <trkpt lat="45.81774" lon="4.78329">
        <ele>299.4</ele>
        <time>2011-11-18T09:42:31Z</time>
      </trkpt>
      <trkpt lat="45.81775" lon="4.78329">
        <ele>299.4</ele>
        <time>2011-11-18T09:42:32Z</time>
      </trkpt>
      <trkpt lat="45.81788" lon="4.78329">
        <ele>300.2</ele>
        <time>2011-11-18T09:42:38Z</time>
      </trkpt>
      <trkpt lat="45.81792" lon="4.7833">
        <ele>300.6</ele>
        <time>2011-11-18T09:42:41Z</time>
      </trkpt>
      <trkpt lat="45.81796" lon="4.78331">
        <ele>300.8</ele>
        <time>2011-11-18T09:42:44Z</time>
      </trkpt>
      <trkpt lat="45.81802" lon="4.78334">
        <ele>301</ele>
        <time>2011-11-18T09:42:48Z</time>
      </trkpt>
      <trkpt lat="45.81807" lon="4.78334">
        <ele>301</ele>
        <time>2011-11-18T09:42:50Z</time>
      </trkpt>
      <trkpt lat="45.81811" lon="4.78335">
        <ele>301.4</ele>
        <time>2011-11-18T09:42:52Z</time>
      </trkpt>
      <trkpt lat="45.81816" lon="4.78338">
        <ele>301.8</ele>
        <time>2011-11-18T09:42:55Z</time>
      </trkpt>
      <trkpt lat="45.81826" lon="4.78344">
        <ele>302.8</ele>
        <time>2011-11-18T09:43:01Z</time>
      </trkpt>
      <trkpt lat="45.81828" lon="4.78345">
        <ele>303</ele>
        <time>2011-11-18T09:43:02Z</time>
      </trkpt>
      <trkpt lat="45.81838" lon="4.78348">
        <ele>303.8</ele>
        <time>2011-11-18T09:43:06Z</time>
      </trkpt>
      <trkpt lat="45.81842" lon="4.78351">
        <ele>304</ele>
        <time>2011-11-18T09:43:09Z</time>
      </trkpt>
      <trkpt lat="45.81846" lon="4.78354">
        <ele>304.6</ele>
        <time>2011-11-18T09:43:12Z</time>
      </trkpt>
      <trkpt lat="45.81855" lon="4.7836">
        <ele>305.4</ele>
        <time>2011-11-18T09:43:17Z</time>
      </trkpt>
      <trkpt lat="45.81864" lon="4.78366">
        <ele>306.8</ele>
        <time>2011-11-18T09:43:24Z</time>
      </trkpt>
      <trkpt lat="45.81865" lon="4.78367">
        <ele>307</ele>
        <time>2011-11-18T09:43:25Z</time>
      </trkpt>
      <trkpt lat="45.81873" lon="4.78373">
        <ele>308.4</ele>
        <time>2011-11-18T09:43:31Z</time>
      </trkpt>
      <trkpt lat="45.81875" lon="4.78373">
        <ele>308.6</ele>
        <time>2011-11-18T09:43:32Z</time>
      </trkpt>
      <trkpt lat="45.81882" lon="4.78376">
        <ele>309.4</ele>
        <time>2011-11-18T09:43:36Z</time>
      </trkpt>
      <trkpt lat="45.81885" lon="4.7838">
        <ele>309.8</ele>
        <time>2011-11-18T09:43:39Z</time>
      </trkpt>
      <trkpt lat="45.8189" lon="4.78383">
        <ele>310.4</ele>
        <time>2011-11-18T09:43:42Z</time>
      </trkpt>
      <trkpt lat="45.81899" lon="4.78387">
        <ele>311.2</ele>
        <time>2011-11-18T09:43:47Z</time>
      </trkpt>
      <trkpt lat="45.81905" lon="4.7839">
        <ele>311.6</ele>
        <time>2011-11-18T09:43:50Z</time>
      </trkpt>
      <trkpt lat="45.81917" lon="4.78396">
        <ele>312.6</ele>
        <time>2011-11-18T09:43:56Z</time>
      </trkpt>
      <trkpt lat="45.81919" lon="4.78397">
        <ele>312.8</ele>
        <time>2011-11-18T09:43:57Z</time>
      </trkpt>
      <trkpt lat="45.8193" lon="4.784">
        <ele>313.6</ele>
        <time>2011-11-18T09:44:02Z</time>
      </trkpt>
      <trkpt lat="45.81935" lon="4.78401">
        <ele>314</ele>
        <time>2011-11-18T09:44:05Z</time>
      </trkpt>
      <trkpt lat="45.81943" lon="4.78402">
        <ele>314.2</ele>
        <time>2011-11-18T09:44:09Z</time>
      </trkpt>
      <trkpt lat="45.81954" lon="4.78406">
        <ele>314.6</ele>
        <time>2011-11-18T09:44:15Z</time>
      </trkpt>
      <trkpt lat="45.81956" lon="4.78407">
        <ele>314.6</ele>
        <time>2011-11-18T09:44:16Z</time>
      </trkpt>
      <trkpt lat="45.81963" lon="4.7841">
        <ele>314.6</ele>
        <time>2011-11-18T09:44:21Z</time>
      </trkpt>
      <trkpt lat="45.81974" lon="4.78412">
        <ele>315</ele>
        <time>2011-11-18T09:44:26Z</time>
      </trkpt>
      <trkpt lat="45.81976" lon="4.78413">
        <ele>315.2</ele>
        <time>2011-11-18T09:44:27Z</time>
      </trkpt>
      <trkpt lat="45.8198" lon="4.78413">
        <ele>315.4</ele>
        <time>2011-11-18T09:44:29Z</time>
      </trkpt>
      <trkpt lat="45.81983" lon="4.78415">
        <ele>315.6</ele>
        <time>2011-11-18T09:44:32Z</time>
      </trkpt>
      <trkpt lat="45.81984" lon="4.78416">
        <ele>315.6</ele>
        <time>2011-11-18T09:44:33Z</time>
      </trkpt>
      <trkpt lat="45.81985" lon="4.78424">
        <ele>316.2</ele>
        <time>2011-11-18T09:44:38Z</time>
      </trkpt>
      <trkpt lat="45.81985" lon="4.78426">
        <ele>316.2</ele>
        <time>2011-11-18T09:44:39Z</time>
      </trkpt>
      <trkpt lat="45.81985" lon="4.78427">
        <ele>316.4</ele>
        <time>2011-11-18T09:44:40Z</time>
      </trkpt>
      <trkpt lat="45.81986" lon="4.78436">
        <ele>317.4</ele>
        <time>2011-11-18T09:44:45Z</time>
      </trkpt>
      <trkpt lat="45.81986" lon="4.78439">
        <ele>317.8</ele>
        <time>2011-11-18T09:44:47Z</time>
      </trkpt>
      <trkpt lat="45.81986" lon="4.78448">
        <ele>319.2</ele>
        <time>2011-11-18T09:44:52Z</time>
      </trkpt>
      <trkpt lat="45.81986" lon="4.78453">
        <ele>320.2</ele>
        <time>2011-11-18T09:44:55Z</time>
      </trkpt>
      <trkpt lat="45.81985" lon="4.78462">
        <ele>321.8</ele>
        <time>2011-11-18T09:45:00Z</time>
      </trkpt>
      <trkpt lat="45.81985" lon="4.78475">
        <ele>324.2</ele>
        <time>2011-11-18T09:45:07Z</time>
      </trkpt>
      <trkpt lat="45.81985" lon="4.7848">
        <ele>325.2</ele>
        <time>2011-11-18T09:45:10Z</time>
      </trkpt>
      <trkpt lat="45.81985" lon="4.7849">
        <ele>327.2</ele>
        <time>2011-11-18T09:45:16Z</time>
      </trkpt>
      <trkpt lat="45.81986" lon="4.78504">
        <ele>329.8</ele>
        <time>2011-11-18T09:45:24Z</time>
      </trkpt>
      <trkpt lat="45.81987" lon="4.78506">
        <ele>329.8</ele>
        <time>2011-11-18T09:45:25Z</time>
      </trkpt>
      <trkpt lat="45.81984" lon="4.78522">
        <ele>331</ele>
        <time>2011-11-18T09:45:31Z</time>
      </trkpt>
      <trkpt lat="45.81983" lon="4.78532">
        <ele>331.8</ele>
        <time>2011-11-18T09:45:34Z</time>
      </trkpt>
      <trkpt lat="45.81982" lon="4.78539">
        <ele>332.2</ele>
        <time>2011-11-18T09:45:36Z</time>
      </trkpt>
      <trkpt lat="45.81981" lon="4.78555">
        <ele>333</ele>
        <time>2011-11-18T09:45:41Z</time>
      </trkpt>
      <trkpt lat="45.81981" lon="4.78562">
        <ele>333.4</ele>
        <time>2011-11-18T09:45:43Z</time>
      </trkpt>
      <trkpt lat="45.81981" lon="4.78567">
        <ele>333.8</ele>
        <time>2011-11-18T09:45:45Z</time>
      </trkpt>
      <trkpt lat="45.81982" lon="4.78572">
        <ele>334</ele>
        <time>2011-11-18T09:45:47Z</time>
      </trkpt>
      <trkpt lat="45.81983" lon="4.78579">
        <ele>335</ele>
        <time>2011-11-18T09:45:50Z</time>
      </trkpt>
      <trkpt lat="45.81983" lon="4.78579">
        <ele>335</ele>
        <time>2011-11-18T09:45:51Z</time>
      </trkpt>
      <trkpt lat="45.81981" lon="4.7858">
        <ele>335.4</ele>
        <time>2011-11-18T09:45:55Z</time>
      </trkpt>
      <trkpt lat="45.81981" lon="4.78583">
        <ele>336.2</ele>
        <time>2011-11-18T09:46:01Z</time>
      </trkpt>
      <trkpt lat="45.81981" lon="4.78585">
        <ele>336.4</ele>
        <time>2011-11-18T09:46:03Z</time>
      </trkpt>
      <trkpt lat="45.8198" lon="4.78585">
        <ele>336.4</ele>
        <time>2011-11-18T09:46:04Z</time>
      </trkpt>
      <trkpt lat="45.81979" lon="4.78586">
        <ele>336.6</ele>
        <time>2011-11-18T09:46:06Z</time>
      </trkpt>
      <trkpt lat="45.8198" lon="4.78589">
        <ele>336.8</ele>
        <time>2011-11-18T09:46:12Z</time>
      </trkpt>
      <trkpt lat="45.81983" lon="4.78583">
        <ele>340.4</ele>
        <time>2011-11-18T09:46:50Z</time>
      </trkpt>
      <trkpt lat="45.81984" lon="4.78576">
        <ele>340.2</ele>
        <time>2011-11-18T09:46:57Z</time>
      </trkpt>
      <trkpt lat="45.81981" lon="4.78558">
        <ele>340.4</ele>
        <time>2011-11-18T09:47:14Z</time>
      </trkpt>
      <trkpt lat="45.81982" lon="4.78548">
        <ele>340.2</ele>
        <time>2011-11-18T09:47:20Z</time>
      </trkpt>
      <trkpt lat="45.81982" lon="4.78546">
        <ele>340.2</ele>
        <time>2011-11-18T09:47:21Z</time>
      </trkpt>
      <trkpt lat="45.81984" lon="4.78534">
        <ele>340.2</ele>
        <time>2011-11-18T09:47:25Z</time>
      </trkpt>
      <trkpt lat="45.81987" lon="4.7852">
        <ele>339.8</ele>
        <time>2011-11-18T09:47:29Z</time>
      </trkpt>
      <trkpt lat="45.81989" lon="4.78513">
        <ele>339.6</ele>
        <time>2011-11-18T09:47:31Z</time>
      </trkpt>
      <trkpt lat="45.81988" lon="4.78494">
        <ele>339.2</ele>
        <time>2011-11-18T09:47:36Z</time>
      </trkpt>
      <trkpt lat="45.81987" lon="4.78474">
        <ele>338.6</ele>
        <time>2011-11-18T09:47:41Z</time>
      </trkpt>
      <trkpt lat="45.81987" lon="4.78469">
        <ele>338.6</ele>
        <time>2011-11-18T09:47:42Z</time>
      </trkpt>
      <trkpt lat="45.81986" lon="4.78453">
        <ele>338</ele>
        <time>2011-11-18T09:47:46Z</time>
      </trkpt>
      <trkpt lat="45.81986" lon="4.78441">
        <ele>337.6</ele>
        <time>2011-11-18T09:47:49Z</time>
      </trkpt>
      <trkpt lat="45.81986" lon="4.78426">
        <ele>337</ele>
        <time>2011-11-18T09:47:53Z</time>
      </trkpt>
      <trkpt lat="45.81986" lon="4.78412">
        <ele>336.4</ele>
        <time>2011-11-18T09:47:57Z</time>
      </trkpt>
      <trkpt lat="45.81986" lon="4.78409">
        <ele>336.2</ele>
        <time>2011-11-18T09:47:58Z</time>
      </trkpt>
      <trkpt lat="45.81983" lon="4.7839">
        <ele>335.2</ele>
        <time>2011-11-18T09:48:04Z</time>
      </trkpt>
      <trkpt lat="45.81982" lon="4.78387">
        <ele>335</ele>
        <time>2011-11-18T09:48:05Z</time>
      </trkpt>
      <trkpt lat="45.81974" lon="4.78373">
        <ele>333.6</ele>
        <time>2011-11-18T09:48:11Z</time>
      </trkpt>
      <trkpt lat="45.81969" lon="4.78367">
        <ele>332.8</ele>
        <time>2011-11-18T09:48:14Z</time>
      </trkpt>
      <trkpt lat="45.81967" lon="4.78363">
        <ele>332.4</ele>
        <time>2011-11-18T09:48:16Z</time>
      </trkpt>
      <trkpt lat="45.81956" lon="4.7835">
        <ele>331.2</ele>
        <time>2011-11-18T09:48:21Z</time>
      </trkpt>
      <trkpt lat="45.81949" lon="4.78346">
        <ele>330</ele>
        <time>2011-11-18T09:48:26Z</time>
      </trkpt>
      <trkpt lat="45.8195" lon="4.78344">
        <ele>326.6</ele>
        <time>2011-11-18T09:48:38Z</time>
      </trkpt>
      <trkpt lat="45.81951" lon="4.78344">
        <ele>324</ele>
        <time>2011-11-18T09:48:48Z</time>
      </trkpt>
      <trkpt lat="45.81953" lon="4.78342">
        <ele>323.6</ele>
        <time>2011-11-18T09:48:50Z</time>
      </trkpt>
      <trkpt lat="45.81954" lon="4.78341">
        <ele>323.2</ele>
        <time>2011-11-18T09:48:52Z</time>
      </trkpt>
      <trkpt lat="45.81961" lon="4.78342">
        <ele>322.2</ele>
        <time>2011-11-18T09:48:57Z</time>
      </trkpt>
      <trkpt lat="45.81965" lon="4.78342">
        <ele>322</ele>
        <time>2011-11-18T09:48:59Z</time>
      </trkpt>
      <trkpt lat="45.81973" lon="4.78344">
        <ele>321.6</ele>
        <time>2011-11-18T09:49:03Z</time>
      </trkpt>
      <trkpt lat="45.81978" lon="4.78347">
        <ele>321.4</ele>
        <time>2011-11-18T09:49:05Z</time>
      </trkpt>
      <trkpt lat="45.8198" lon="4.78348">
        <ele>321.2</ele>
        <time>2011-11-18T09:49:06Z</time>
      </trkpt>
      <trkpt lat="45.81982" lon="4.78349">
        <ele>321.2</ele>
        <time>2011-11-18T09:49:07Z</time>
      </trkpt>
      <trkpt lat="45.81987" lon="4.78351">
        <ele>320.8</ele>
        <time>2011-11-18T09:49:09Z</time>
      </trkpt>
      <trkpt lat="45.81992" lon="4.78353">
        <ele>320.6</ele>
        <time>2011-11-18T09:49:12Z</time>
      </trkpt>
      <trkpt lat="45.81997" lon="4.78354">
        <ele>320.2</ele>
        <time>2011-11-18T09:49:15Z</time>
      </trkpt>
      <trkpt lat="45.81999" lon="4.78354">
        <ele>320</ele>
        <time>2011-11-18T09:49:16Z</time>
      </trkpt>
      <trkpt lat="45.82004" lon="4.78354">
        <ele>319.8</ele>
        <time>2011-11-18T09:49:18Z</time>
      </trkpt>
      <trkpt lat="45.82016" lon="4.78358">
        <ele>319.2</ele>
        <time>2011-11-18T09:49:23Z</time>
      </trkpt>
      <trkpt lat="45.82026" lon="4.7836">
        <ele>319</ele>
        <time>2011-11-18T09:49:27Z</time>
      </trkpt>
      <trkpt lat="45.82036" lon="4.78365">
        <ele>318.4</ele>
        <time>2011-11-18T09:49:32Z</time>
      </trkpt>
      <trkpt lat="45.82038" lon="4.78366">
        <ele>318.4</ele>
        <time>2011-11-18T09:49:33Z</time>
      </trkpt>
      <trkpt lat="45.82049" lon="4.78368">
        <ele>318</ele>
        <time>2011-11-18T09:49:38Z</time>
      </trkpt>
      <trkpt lat="45.82054" lon="4.78369">
        <ele>317.8</ele>
        <time>2011-11-18T09:49:40Z</time>
      </trkpt>
      <trkpt lat="45.82062" lon="4.78371">
        <ele>317.6</ele>
        <time>2011-11-18T09:49:43Z</time>
      </trkpt>
      <trkpt lat="45.82073" lon="4.78372">
        <ele>317.4</ele>
        <time>2011-11-18T09:49:47Z</time>
      </trkpt>
      <trkpt lat="45.82078" lon="4.78373">
        <ele>317.2</ele>
        <time>2011-11-18T09:49:49Z</time>
      </trkpt>
      <trkpt lat="45.8209" lon="4.78376">
        <ele>317</ele>
        <time>2011-11-18T09:49:53Z</time>
      </trkpt>
      <trkpt lat="45.82093" lon="4.78376">
        <ele>317</ele>
        <time>2011-11-18T09:49:54Z</time>
      </trkpt>
      <trkpt lat="45.82103" lon="4.78381">
        <ele>316.8</ele>
        <time>2011-11-18T09:49:59Z</time>
      </trkpt>
      <trkpt lat="45.82111" lon="4.78386">
        <ele>316.8</ele>
        <time>2011-11-18T09:50:03Z</time>
      </trkpt>
      <trkpt lat="45.82115" lon="4.78388">
        <ele>316.8</ele>
        <time>2011-11-18T09:50:05Z</time>
      </trkpt>
      <trkpt lat="45.82116" lon="4.78388">
        <ele>316.8</ele>
        <time>2011-11-18T09:50:06Z</time>
      </trkpt>
      <trkpt lat="45.8212" lon="4.78389">
        <ele>316.8</ele>
        <time>2011-11-18T09:50:08Z</time>
      </trkpt>
      <trkpt lat="45.82126" lon="4.78388">
        <ele>316.6</ele>
        <time>2011-11-18T09:50:11Z</time>
      </trkpt>
      <trkpt lat="45.82129" lon="4.78388">
        <ele>316.6</ele>
        <time>2011-11-18T09:50:12Z</time>
      </trkpt>
      <trkpt lat="45.8213" lon="4.78387">
        <ele>316.6</ele>
        <time>2011-11-18T09:50:13Z</time>
      </trkpt>
      <trkpt lat="45.82141" lon="4.78378">
        <ele>316.4</ele>
        <time>2011-11-18T09:50:18Z</time>
      </trkpt>
      <trkpt lat="45.82145" lon="4.78373">
        <ele>316.4</ele>
        <time>2011-11-18T09:50:20Z</time>
      </trkpt>
      <trkpt lat="45.82148" lon="4.78373">
        <ele>316.4</ele>
        <time>2011-11-18T09:50:21Z</time>
      </trkpt>
      <trkpt lat="45.82151" lon="4.78373">
        <ele>316.4</ele>
        <time>2011-11-18T09:50:23Z</time>
      </trkpt>
      <trkpt lat="45.82158" lon="4.7837">
        <ele>316.4</ele>
        <time>2011-11-18T09:50:27Z</time>
      </trkpt>
      <trkpt lat="45.82159" lon="4.78369">
        <ele>316.4</ele>
        <time>2011-11-18T09:50:28Z</time>
      </trkpt>
      <trkpt lat="45.82165" lon="4.78367">
        <ele>316.2</ele>
        <time>2011-11-18T09:50:31Z</time>
      </trkpt>
      <trkpt lat="45.82169" lon="4.78368">
        <ele>316.2</ele>
        <time>2011-11-18T09:50:33Z</time>
      </trkpt>
      <trkpt lat="45.82184" lon="4.78373">
        <ele>317.2</ele>
        <time>2011-11-18T09:50:39Z</time>
      </trkpt>
      <trkpt lat="45.82192" lon="4.78376">
        <ele>317.8</ele>
        <time>2011-11-18T09:50:43Z</time>
      </trkpt>
      <trkpt lat="45.82194" lon="4.78376">
        <ele>318</ele>
        <time>2011-11-18T09:50:44Z</time>
      </trkpt>
      <trkpt lat="45.82202" lon="4.78377">
        <ele>318.4</ele>
        <time>2011-11-18T09:50:48Z</time>
      </trkpt>
      <trkpt lat="45.82204" lon="4.78377">
        <ele>318.6</ele>
        <time>2011-11-18T09:50:49Z</time>
      </trkpt>
      <trkpt lat="45.8221" lon="4.78378">
        <ele>319</ele>
        <time>2011-11-18T09:50:51Z</time>
      </trkpt>
      <trkpt lat="45.82215" lon="4.7838">
        <ele>319.2</ele>
        <time>2011-11-18T09:50:54Z</time>
      </trkpt>
      <trkpt lat="45.82223" lon="4.78387">
        <ele>320</ele>
        <time>2011-11-18T09:50:58Z</time>
      </trkpt>
      <trkpt lat="45.82226" lon="4.78389">
        <ele>320.2</ele>
        <time>2011-11-18T09:50:59Z</time>
      </trkpt>
      <trkpt lat="45.82227" lon="4.7839">
        <ele>320.4</ele>
        <time>2011-11-18T09:51:00Z</time>
      </trkpt>
      <trkpt lat="45.82239" lon="4.78398">
        <ele>322</ele>
        <time>2011-11-18T09:51:06Z</time>
      </trkpt>
      <trkpt lat="45.82241" lon="4.78398">
        <ele>322.2</ele>
        <time>2011-11-18T09:51:07Z</time>
      </trkpt>
      <trkpt lat="45.82248" lon="4.78398">
        <ele>322.6</ele>
        <time>2011-11-18T09:51:11Z</time>
      </trkpt>
      <trkpt lat="45.8226" lon="4.78401">
        <ele>323</ele>
        <time>2011-11-18T09:51:17Z</time>
      </trkpt>
      <trkpt lat="45.82262" lon="4.78402">
        <ele>323</ele>
        <time>2011-11-18T09:51:18Z</time>
      </trkpt>
      <trkpt lat="45.82273" lon="4.7841">
        <ele>323.4</ele>
        <time>2011-11-18T09:51:23Z</time>
      </trkpt>
      <trkpt lat="45.82276" lon="4.78413">
        <ele>323.6</ele>
        <time>2011-11-18T09:51:25Z</time>
      </trkpt>
      <trkpt lat="45.82281" lon="4.78421">
        <ele>324.2</ele>
        <time>2011-11-18T09:51:28Z</time>
      </trkpt>
      <trkpt lat="45.8229" lon="4.78427">
        <ele>325.2</ele>
        <time>2011-11-18T09:51:32Z</time>
      </trkpt>
      <trkpt lat="45.82298" lon="4.78435">
        <ele>326</ele>
        <time>2011-11-18T09:51:37Z</time>
      </trkpt>
      <trkpt lat="45.82306" lon="4.78439">
        <ele>326.4</ele>
        <time>2011-11-18T09:51:43Z</time>
      </trkpt>
      <trkpt lat="45.82308" lon="4.78439">
        <ele>326.4</ele>
        <time>2011-11-18T09:51:44Z</time>
      </trkpt>
      <trkpt lat="45.82316" lon="4.78446">
        <ele>326.4</ele>
        <time>2011-11-18T09:51:49Z</time>
      </trkpt>
      <trkpt lat="45.82318" lon="4.78451">
        <ele>326.6</ele>
        <time>2011-11-18T09:51:52Z</time>
      </trkpt>
      <trkpt lat="45.82318" lon="4.78453">
        <ele>326.6</ele>
        <time>2011-11-18T09:51:53Z</time>
      </trkpt>
      <trkpt lat="45.82321" lon="4.78459">
        <ele>326.6</ele>
        <time>2011-11-18T09:51:55Z</time>
      </trkpt>
      <trkpt lat="45.82321" lon="4.7846">
        <ele>326.8</ele>
        <time>2011-11-18T09:51:56Z</time>
      </trkpt>
      <trkpt lat="45.82322" lon="4.78461">
        <ele>326.8</ele>
        <time>2011-11-18T09:51:57Z</time>
      </trkpt>
      <trkpt lat="45.82327" lon="4.78465">
        <ele>328</ele>
        <time>2011-11-18T09:52:02Z</time>
      </trkpt>
      <trkpt lat="45.82329" lon="4.78465">
        <ele>328</ele>
        <time>2011-11-18T09:52:03Z</time>
      </trkpt>
      <trkpt lat="45.82336" lon="4.78466">
        <ele>329</ele>
        <time>2011-11-18T09:52:08Z</time>
      </trkpt>
      <trkpt lat="45.82337" lon="4.78465">
        <ele>329.2</ele>
        <time>2011-11-18T09:52:09Z</time>
      </trkpt>
      <trkpt lat="45.82339" lon="4.78465">
        <ele>329.6</ele>
        <time>2011-11-18T09:52:10Z</time>
      </trkpt>
      <trkpt lat="45.82345" lon="4.78467">
        <ele>330.6</ele>
        <time>2011-11-18T09:52:13Z</time>
      </trkpt>
      <trkpt lat="45.82344" lon="4.78478">
        <ele>333</ele>
        <time>2011-11-18T09:52:19Z</time>
      </trkpt>
      <trkpt lat="45.82343" lon="4.78479">
        <ele>333.4</ele>
        <time>2011-11-18T09:52:20Z</time>
      </trkpt>
      <trkpt lat="45.82341" lon="4.78479">
        <ele>333.6</ele>
        <time>2011-11-18T09:52:21Z</time>
      </trkpt>
      <trkpt lat="45.82334" lon="4.78482">
        <ele>334.6</ele>
        <time>2011-11-18T09:52:25Z</time>
      </trkpt>
      <trkpt lat="45.82332" lon="4.78491">
        <ele>335.6</ele>
        <time>2011-11-18T09:52:30Z</time>
      </trkpt>
      <trkpt lat="45.82331" lon="4.78493">
        <ele>335.6</ele>
        <time>2011-11-18T09:52:31Z</time>
      </trkpt>
      <trkpt lat="45.8233" lon="4.78498">
        <ele>336</ele>
        <time>2011-11-18T09:52:34Z</time>
      </trkpt>
      <trkpt lat="45.8233" lon="4.785">
        <ele>336</ele>
        <time>2011-11-18T09:52:35Z</time>
      </trkpt>
      <trkpt lat="45.82329" lon="4.78504">
        <ele>336</ele>
        <time>2011-11-18T09:52:37Z</time>
      </trkpt>
      <trkpt lat="45.82331" lon="4.78515">
        <ele>336.8</ele>
        <time>2011-11-18T09:52:43Z</time>
      </trkpt>
      <trkpt lat="45.82332" lon="4.78515">
        <ele>336.6</ele>
        <time>2011-11-18T09:52:44Z</time>
      </trkpt>
      <trkpt lat="45.82333" lon="4.78514">
        <ele>336.6</ele>
        <time>2011-11-18T09:52:45Z</time>
      </trkpt>
      <trkpt lat="45.82337" lon="4.78514">
        <ele>336.6</ele>
        <time>2011-11-18T09:52:49Z</time>
      </trkpt>
      <trkpt lat="45.82346" lon="4.78514">
        <ele>337.6</ele>
        <time>2011-11-18T09:52:54Z</time>
      </trkpt>
      <trkpt lat="45.82352" lon="4.78516">
        <ele>338</ele>
        <time>2011-11-18T09:52:58Z</time>
      </trkpt>
      <trkpt lat="45.82352" lon="4.78517">
        <ele>338</ele>
        <time>2011-11-18T09:52:59Z</time>
      </trkpt>
      <trkpt lat="45.82354" lon="4.78521">
        <ele>338.6</ele>
        <time>2011-11-18T09:53:01Z</time>
      </trkpt>
      <trkpt lat="45.82358" lon="4.78526">
        <ele>339.2</ele>
        <time>2011-11-18T09:53:04Z</time>
      </trkpt>
      <trkpt lat="45.8236" lon="4.78533">
        <ele>339.8</ele>
        <time>2011-11-18T09:53:08Z</time>
      </trkpt>
      <trkpt lat="45.8236" lon="4.78534">
        <ele>340</ele>
        <time>2011-11-18T09:53:09Z</time>
      </trkpt>
      <trkpt lat="45.8236" lon="4.78536">
        <ele>340.4</ele>
        <time>2011-11-18T09:53:10Z</time>
      </trkpt>
      <trkpt lat="45.82362" lon="4.78544">
        <ele>341</ele>
        <time>2011-11-18T09:53:16Z</time>
      </trkpt>
      <trkpt lat="45.82363" lon="4.78545">
        <ele>341.2</ele>
        <time>2011-11-18T09:53:17Z</time>
      </trkpt>
      <trkpt lat="45.82364" lon="4.78546">
        <ele>341.4</ele>
        <time>2011-11-18T09:53:18Z</time>
      </trkpt>
      <trkpt lat="45.82365" lon="4.78553">
        <ele>343.6</ele>
        <time>2011-11-18T09:53:24Z</time>
      </trkpt>
      <trkpt lat="45.82366" lon="4.78557">
        <ele>344.4</ele>
        <time>2011-11-18T09:53:27Z</time>
      </trkpt>
      <trkpt lat="45.82369" lon="4.78561">
        <ele>345.8</ele>
        <time>2011-11-18T09:53:31Z</time>
      </trkpt>
      <trkpt lat="45.82369" lon="4.78562">
        <ele>346.4</ele>
        <time>2011-11-18T09:53:33Z</time>
      </trkpt>
      <trkpt lat="45.82372" lon="4.78564">
        <ele>347.2</ele>
        <time>2011-11-18T09:53:35Z</time>
      </trkpt>
      <trkpt lat="45.82373" lon="4.78564">
        <ele>347.2</ele>
        <time>2011-11-18T09:53:36Z</time>
      </trkpt>
      <trkpt lat="45.82376" lon="4.78569">
        <ele>347.8</ele>
        <time>2011-11-18T09:53:40Z</time>
      </trkpt>
      <trkpt lat="45.82377" lon="4.78571">
        <ele>348.2</ele>
        <time>2011-11-18T09:53:42Z</time>
      </trkpt>
      <trkpt lat="45.82384" lon="4.78577">
        <ele>348.2</ele>
        <time>2011-11-18T09:53:46Z</time>
      </trkpt>
      <trkpt lat="45.82386" lon="4.7858">
        <ele>348.6</ele>
        <time>2011-11-18T09:53:49Z</time>
      </trkpt>
      <trkpt lat="45.82388" lon="4.7858">
        <ele>348.8</ele>
        <time>2011-11-18T09:53:51Z</time>
      </trkpt>
      <trkpt lat="45.82391" lon="4.78581">
        <ele>349</ele>
        <time>2011-11-18T09:53:54Z</time>
      </trkpt>
      <trkpt lat="45.82393" lon="4.78581">
        <ele>348.8</ele>
        <time>2011-11-18T09:53:56Z</time>
      </trkpt>
      <trkpt lat="45.82399" lon="4.78586">
        <ele>349.4</ele>
        <time>2011-11-18T09:54:03Z</time>
      </trkpt>
      <trkpt lat="45.824" lon="4.78586">
        <ele>349.4</ele>
        <time>2011-11-18T09:54:04Z</time>
      </trkpt>
      <trkpt lat="45.82404" lon="4.78588">
        <ele>349.8</ele>
        <time>2011-11-18T09:54:07Z</time>
      </trkpt>
      <trkpt lat="45.82406" lon="4.78589">
        <ele>349.8</ele>
        <time>2011-11-18T09:54:09Z</time>
      </trkpt>
      <trkpt lat="45.82407" lon="4.78589">
        <ele>350</ele>
        <time>2011-11-18T09:54:10Z</time>
      </trkpt>
      <trkpt lat="45.82409" lon="4.7859">
        <ele>350.2</ele>
        <time>2011-11-18T09:54:12Z</time>
      </trkpt>
      <trkpt lat="45.82411" lon="4.78591">
        <ele>350.4</ele>
        <time>2011-11-18T09:54:14Z</time>
      </trkpt>
      <trkpt lat="45.82415" lon="4.78594">
        <ele>350.6</ele>
        <time>2011-11-18T09:54:18Z</time>
      </trkpt>
      <trkpt lat="45.82416" lon="4.78595">
        <ele>350.6</ele>
        <time>2011-11-18T09:54:20Z</time>
      </trkpt>
      <trkpt lat="45.82417" lon="4.78596">
        <ele>350.6</ele>
        <time>2011-11-18T09:54:21Z</time>
      </trkpt>
      <trkpt lat="45.82422" lon="4.78596">
        <ele>351.4</ele>
        <time>2011-11-18T09:54:25Z</time>
      </trkpt>
      <trkpt lat="45.82422" lon="4.78597">
        <ele>351.4</ele>
        <time>2011-11-18T09:54:26Z</time>
      </trkpt>
      <trkpt lat="45.82427" lon="4.78599">
        <ele>351.6</ele>
        <time>2011-11-18T09:54:31Z</time>
      </trkpt>
      <trkpt lat="45.82431" lon="4.78599">
        <ele>351.8</ele>
        <time>2011-11-18T09:54:33Z</time>
      </trkpt>
      <trkpt lat="45.82435" lon="4.78601">
        <ele>352</ele>
        <time>2011-11-18T09:54:37Z</time>
      </trkpt>
      <trkpt lat="45.82439" lon="4.78603">
        <ele>352.6</ele>
        <time>2011-11-18T09:54:41Z</time>
      </trkpt>
      <trkpt lat="45.82442" lon="4.78603">
        <ele>352.8</ele>
        <time>2011-11-18T09:54:43Z</time>
      </trkpt>
      <trkpt lat="45.82443" lon="4.78604">
        <ele>352.8</ele>
        <time>2011-11-18T09:54:44Z</time>
      </trkpt>
      <trkpt lat="45.82452" lon="4.78606">
        <ele>353.8</ele>
        <time>2011-11-18T09:54:49Z</time>
      </trkpt>
      <trkpt lat="45.82455" lon="4.78607">
        <ele>354.2</ele>
        <time>2011-11-18T09:54:51Z</time>
      </trkpt>
      <trkpt lat="45.82457" lon="4.78608">
        <ele>354.6</ele>
        <time>2011-11-18T09:54:53Z</time>
      </trkpt>
      <trkpt lat="45.82461" lon="4.78608">
        <ele>355.6</ele>
        <time>2011-11-18T09:54:59Z</time>
      </trkpt>
      <trkpt lat="45.82467" lon="4.78609">
        <ele>356.8</ele>
        <time>2011-11-18T09:55:05Z</time>
      </trkpt>
      <trkpt lat="45.82472" lon="4.7861">
        <ele>358.2</ele>
        <time>2011-11-18T09:55:11Z</time>
      </trkpt>
      <trkpt lat="45.82475" lon="4.78612">
        <ele>358.4</ele>
        <time>2011-11-18T09:55:13Z</time>
      </trkpt>
      <trkpt lat="45.82484" lon="4.78615">
        <ele>359</ele>
        <time>2011-11-18T09:55:18Z</time>
      </trkpt>
      <trkpt lat="45.82493" lon="4.78618">
        <ele>359.8</ele>
        <time>2011-11-18T09:55:23Z</time>
      </trkpt>
      <trkpt lat="45.82507" lon="4.78624">
        <ele>360.8</ele>
        <time>2011-11-18T09:55:29Z</time>
      </trkpt>
      <trkpt lat="45.82512" lon="4.78626">
        <ele>361</ele>
        <time>2011-11-18T09:55:31Z</time>
      </trkpt>
      <trkpt lat="45.82521" lon="4.78628">
        <ele>361.4</ele>
        <time>2011-11-18T09:55:35Z</time>
      </trkpt>
      <trkpt lat="45.8253" lon="4.78629">
        <ele>362.4</ele>
        <time>2011-11-18T09:55:40Z</time>
      </trkpt>
      <trkpt lat="45.82538" lon="4.78632">
        <ele>363</ele>
        <time>2011-11-18T09:55:45Z</time>
      </trkpt>
      <trkpt lat="45.82549" lon="4.78636">
        <ele>364</ele>
        <time>2011-11-18T09:55:50Z</time>
      </trkpt>
      <trkpt lat="45.82551" lon="4.78636">
        <ele>364.2</ele>
        <time>2011-11-18T09:55:51Z</time>
      </trkpt>
      <trkpt lat="45.8256" lon="4.78641">
        <ele>365.4</ele>
        <time>2011-11-18T09:55:57Z</time>
      </trkpt>
      <trkpt lat="45.82567" lon="4.78643">
        <ele>365.8</ele>
        <time>2011-11-18T09:56:01Z</time>
      </trkpt>
      <trkpt lat="45.82568" lon="4.78644">
        <ele>365.8</ele>
        <time>2011-11-18T09:56:02Z</time>
      </trkpt>
      <trkpt lat="45.82579" lon="4.78648">
        <ele>366.8</ele>
        <time>2011-11-18T09:56:08Z</time>
      </trkpt>
      <trkpt lat="45.82584" lon="4.78651">
        <ele>367.2</ele>
        <time>2011-11-18T09:56:11Z</time>
      </trkpt>
      <trkpt lat="45.8259" lon="4.78655">
        <ele>367.8</ele>
        <time>2011-11-18T09:56:14Z</time>
      </trkpt>
      <trkpt lat="45.82598" lon="4.78662">
        <ele>368.6</ele>
        <time>2011-11-18T09:56:19Z</time>
      </trkpt>
      <trkpt lat="45.826" lon="4.78663">
        <ele>368.8</ele>
        <time>2011-11-18T09:56:20Z</time>
      </trkpt>
      <trkpt lat="45.82602" lon="4.78665">
        <ele>369</ele>
        <time>2011-11-18T09:56:21Z</time>
      </trkpt>
      <trkpt lat="45.82611" lon="4.78671">
        <ele>369.6</ele>
        <time>2011-11-18T09:56:26Z</time>
      </trkpt>
      <trkpt lat="45.82619" lon="4.78677">
        <ele>370.4</ele>
        <time>2011-11-18T09:56:32Z</time>
      </trkpt>
      <trkpt lat="45.8262" lon="4.78678">
        <ele>370.6</ele>
        <time>2011-11-18T09:56:33Z</time>
      </trkpt>
      <trkpt lat="45.8263" lon="4.78689">
        <ele>371</ele>
        <time>2011-11-18T09:56:40Z</time>
      </trkpt>
      <trkpt lat="45.82634" lon="4.78692">
        <ele>371.4</ele>
        <time>2011-11-18T09:56:43Z</time>
      </trkpt>
      <trkpt lat="45.82639" lon="4.78696">
        <ele>371.8</ele>
        <time>2011-11-18T09:56:46Z</time>
      </trkpt>
      <trkpt lat="45.82647" lon="4.78706">
        <ele>372.4</ele>
        <time>2011-11-18T09:56:52Z</time>
      </trkpt>
      <trkpt lat="45.82649" lon="4.78708">
        <ele>372.4</ele>
        <time>2011-11-18T09:56:53Z</time>
      </trkpt>
      <trkpt lat="45.82656" lon="4.78715">
        <ele>373</ele>
        <time>2011-11-18T09:56:57Z</time>
      </trkpt>
      <trkpt lat="45.82665" lon="4.78725">
        <ele>374.6</ele>
        <time>2011-11-18T09:57:03Z</time>
      </trkpt>
      <trkpt lat="45.82671" lon="4.78729">
        <ele>375.6</ele>
        <time>2011-11-18T09:57:07Z</time>
      </trkpt>
      <trkpt lat="45.82673" lon="4.78728">
        <ele>375.6</ele>
        <time>2011-11-18T09:57:08Z</time>
      </trkpt>
      <trkpt lat="45.82676" lon="4.7872">
        <ele>376.2</ele>
        <time>2011-11-18T09:57:12Z</time>
      </trkpt>
      <trkpt lat="45.82678" lon="4.78715">
        <ele>376.2</ele>
        <time>2011-11-18T09:57:14Z</time>
      </trkpt>
      <trkpt lat="45.8268" lon="4.78709">
        <ele>376.4</ele>
        <time>2011-11-18T09:57:17Z</time>
      </trkpt>
      <trkpt lat="45.8268" lon="4.78706">
        <ele>376.4</ele>
        <time>2011-11-18T09:57:18Z</time>
      </trkpt>
      <trkpt lat="45.82683" lon="4.78699">
        <ele>376.4</ele>
        <time>2011-11-18T09:57:21Z</time>
      </trkpt>
      <trkpt lat="45.82687" lon="4.78696">
        <ele>376.2</ele>
        <time>2011-11-18T09:57:24Z</time>
      </trkpt>
      <trkpt lat="45.82688" lon="4.78695">
        <ele>376.2</ele>
        <time>2011-11-18T09:57:25Z</time>
      </trkpt>
      <trkpt lat="45.82696" lon="4.78687">
        <ele>375.8</ele>
        <time>2011-11-18T09:57:30Z</time>
      </trkpt>
      <trkpt lat="45.82702" lon="4.78682">
        <ele>375.2</ele>
        <time>2011-11-18T09:57:34Z</time>
      </trkpt>
      <trkpt lat="45.82704" lon="4.7868">
        <ele>375.2</ele>
        <time>2011-11-18T09:57:35Z</time>
      </trkpt>
      <trkpt lat="45.82709" lon="4.78666">
        <ele>374.4</ele>
        <time>2011-11-18T09:57:41Z</time>
      </trkpt>
      <trkpt lat="45.82709" lon="4.78654">
        <ele>374</ele>
        <time>2011-11-18T09:57:45Z</time>
      </trkpt>
      <trkpt lat="45.82708" lon="4.78651">
        <ele>374</ele>
        <time>2011-11-18T09:57:46Z</time>
      </trkpt>
      <trkpt lat="45.82705" lon="4.78647">
        <ele>373.6</ele>
        <time>2011-11-18T09:57:48Z</time>
      </trkpt>
      <trkpt lat="45.82699" lon="4.78641">
        <ele>373.4</ele>
        <time>2011-11-18T09:57:51Z</time>
      </trkpt>
      <trkpt lat="45.82696" lon="4.78636">
        <ele>373</ele>
        <time>2011-11-18T09:57:53Z</time>
      </trkpt>
      <trkpt lat="45.82695" lon="4.78632">
        <ele>372.8</ele>
        <time>2011-11-18T09:57:55Z</time>
      </trkpt>
      <trkpt lat="45.82694" lon="4.78614">
        <ele>371.8</ele>
        <time>2011-11-18T09:58:00Z</time>
      </trkpt>
      <trkpt lat="45.82693" lon="4.78611">
        <ele>371.6</ele>
        <time>2011-11-18T09:58:01Z</time>
      </trkpt>
      <trkpt lat="45.82687" lon="4.78591">
        <ele>370.8</ele>
        <time>2011-11-18T09:58:06Z</time>
      </trkpt>
      <trkpt lat="45.82686" lon="4.78587">
        <ele>370.6</ele>
        <time>2011-11-18T09:58:07Z</time>
      </trkpt>
      <trkpt lat="45.82677" lon="4.78564">
        <ele>370</ele>
        <time>2011-11-18T09:58:13Z</time>
      </trkpt>
      <trkpt lat="45.82672" lon="4.7855">
        <ele>369.6</ele>
        <time>2011-11-18T09:58:18Z</time>
      </trkpt>
      <trkpt lat="45.82666" lon="4.78539">
        <ele>369.4</ele>
        <time>2011-11-18T09:58:22Z</time>
      </trkpt>
      <trkpt lat="45.82665" lon="4.78536">
        <ele>369.2</ele>
        <time>2011-11-18T09:58:23Z</time>
      </trkpt>
      <trkpt lat="45.82657" lon="4.78516">
        <ele>368.6</ele>
        <time>2011-11-18T09:58:30Z</time>
      </trkpt>
      <trkpt lat="45.8265" lon="4.78501">
        <ele>368.2</ele>
        <time>2011-11-18T09:58:35Z</time>
      </trkpt>
      <trkpt lat="45.82647" lon="4.78492">
        <ele>368</ele>
        <time>2011-11-18T09:58:38Z</time>
      </trkpt>
      <trkpt lat="45.82645" lon="4.78487">
        <ele>367.8</ele>
        <time>2011-11-18T09:58:40Z</time>
      </trkpt>
      <trkpt lat="45.82644" lon="4.78482">
        <ele>367.6</ele>
        <time>2011-11-18T09:58:42Z</time>
      </trkpt>
      <trkpt lat="45.8264" lon="4.78473">
        <ele>367.4</ele>
        <time>2011-11-18T09:58:45Z</time>
      </trkpt>
      <trkpt lat="45.82639" lon="4.7847">
        <ele>367.4</ele>
        <time>2011-11-18T09:58:46Z</time>
      </trkpt>
      <trkpt lat="45.82633" lon="4.7845">
        <ele>367.2</ele>
        <time>2011-11-18T09:58:52Z</time>
      </trkpt>
      <trkpt lat="45.82633" lon="4.78445">
        <ele>367.2</ele>
        <time>2011-11-18T09:58:54Z</time>
      </trkpt>
      <trkpt lat="45.82629" lon="4.78431">
        <ele>367.4</ele>
        <time>2011-11-18T09:58:59Z</time>
      </trkpt>
      <trkpt lat="45.82624" lon="4.7842">
        <ele>367.8</ele>
        <time>2011-11-18T09:59:04Z</time>
      </trkpt>
      <trkpt lat="45.82623" lon="4.78417">
        <ele>368</ele>
        <time>2011-11-18T09:59:05Z</time>
      </trkpt>
      <trkpt lat="45.82622" lon="4.78402">
        <ele>368.2</ele>
        <time>2011-11-18T09:59:11Z</time>
      </trkpt>
      <trkpt lat="45.82621" lon="4.78397">
        <ele>368.8</ele>
        <time>2011-11-18T09:59:16Z</time>
      </trkpt>
      <trkpt lat="45.82616" lon="4.78393">
        <ele>369.8</ele>
        <time>2011-11-18T09:59:27Z</time>
      </trkpt>
      <trkpt lat="45.82615" lon="4.78384">
        <ele>370.6</ele>
        <time>2011-11-18T09:59:36Z</time>
      </trkpt>
      <trkpt lat="45.82616" lon="4.78378">
        <ele>371</ele>
        <time>2011-11-18T09:59:41Z</time>
      </trkpt>
      <trkpt lat="45.82617" lon="4.78376">
        <ele>371</ele>
        <time>2011-11-18T09:59:43Z</time>
      </trkpt>
      <trkpt lat="45.82617" lon="4.78369">
        <ele>370.8</ele>
        <time>2011-11-18T09:59:49Z</time>
      </trkpt>
      <trkpt lat="45.82617" lon="4.78368">
        <ele>370.8</ele>
        <time>2011-11-18T09:59:50Z</time>
      </trkpt>
      <trkpt lat="45.82617" lon="4.78368">
        <ele>370.8</ele>
        <time>2011-11-18T09:59:51Z</time>
      </trkpt>
      <trkpt lat="45.82615" lon="4.78364">
        <ele>370.8</ele>
        <time>2011-11-18T09:59:56Z</time>
      </trkpt>
      <trkpt lat="45.82611" lon="4.7836">
        <ele>371.2</ele>
        <time>2011-11-18T10:00:03Z</time>
      </trkpt>
      <trkpt lat="45.82617" lon="4.78357">
        <ele>371.6</ele>
        <time>2011-11-18T10:00:17Z</time>
      </trkpt>
      <trkpt lat="45.82617" lon="4.78354">
        <ele>371.6</ele>
        <time>2011-11-18T10:00:18Z</time>
      </trkpt>
      <trkpt lat="45.82618" lon="4.78345">
        <ele>371.4</ele>
        <time>2011-11-18T10:00:21Z</time>
      </trkpt>
      <trkpt lat="45.82621" lon="4.78328">
        <ele>370.6</ele>
        <time>2011-11-18T10:00:27Z</time>
      </trkpt>
      <trkpt lat="45.82624" lon="4.78315">
        <ele>370</ele>
        <time>2011-11-18T10:00:31Z</time>
      </trkpt>
      <trkpt lat="45.82625" lon="4.78313">
        <ele>369.8</ele>
        <time>2011-11-18T10:00:32Z</time>
      </trkpt>
      <trkpt lat="45.8263" lon="4.78305">
        <ele>369.4</ele>
        <time>2011-11-18T10:00:35Z</time>
      </trkpt>
      <trkpt lat="45.82633" lon="4.78301">
        <ele>369</ele>
        <time>2011-11-18T10:00:37Z</time>
      </trkpt>
      <trkpt lat="45.82644" lon="4.78298">
        <ele>368</ele>
        <time>2011-11-18T10:00:41Z</time>
      </trkpt>
      <trkpt lat="45.82649" lon="4.78297">
        <ele>367.6</ele>
        <time>2011-11-18T10:00:43Z</time>
      </trkpt>
      <trkpt lat="45.82668" lon="4.78297">
        <ele>366</ele>
        <time>2011-11-18T10:00:49Z</time>
      </trkpt>
      <trkpt lat="45.82671" lon="4.78296">
        <ele>365.8</ele>
        <time>2011-11-18T10:00:50Z</time>
      </trkpt>
      <trkpt lat="45.82688" lon="4.78297">
        <ele>364</ele>
        <time>2011-11-18T10:00:56Z</time>
      </trkpt>
      <trkpt lat="45.82701" lon="4.78294">
        <ele>362.6</ele>
        <time>2011-11-18T10:01:01Z</time>
      </trkpt>
      <trkpt lat="45.82707" lon="4.78293">
        <ele>362.2</ele>
        <time>2011-11-18T10:01:03Z</time>
      </trkpt>
      <trkpt lat="45.82711" lon="4.78289">
        <ele>361.6</ele>
        <time>2011-11-18T10:01:05Z</time>
      </trkpt>
      <trkpt lat="45.82715" lon="4.78275">
        <ele>360.8</ele>
        <time>2011-11-18T10:01:09Z</time>
      </trkpt>
      <trkpt lat="45.82715" lon="4.78271">
        <ele>360.6</ele>
        <time>2011-11-18T10:01:10Z</time>
      </trkpt>
      <trkpt lat="45.82714" lon="4.78268">
        <ele>360.4</ele>
        <time>2011-11-18T10:01:11Z</time>
      </trkpt>
      <trkpt lat="45.8271" lon="4.78263">
        <ele>360</ele>
        <time>2011-11-18T10:01:13Z</time>
      </trkpt>
      <trkpt lat="45.82707" lon="4.78261">
        <ele>359.8</ele>
        <time>2011-11-18T10:01:14Z</time>
      </trkpt>
      <trkpt lat="45.82698" lon="4.78253">
        <ele>359.4</ele>
        <time>2011-11-18T10:01:18Z</time>
      </trkpt>
      <trkpt lat="45.82691" lon="4.78245">
        <ele>358.8</ele>
        <time>2011-11-18T10:01:21Z</time>
      </trkpt>
      <trkpt lat="45.82683" lon="4.78235">
        <ele>358.6</ele>
        <time>2011-11-18T10:01:24Z</time>
      </trkpt>
      <trkpt lat="45.82677" lon="4.78226">
        <ele>358.2</ele>
        <time>2011-11-18T10:01:27Z</time>
      </trkpt>
      <trkpt lat="45.82668" lon="4.78213">
        <ele>357.8</ele>
        <time>2011-11-18T10:01:31Z</time>
      </trkpt>
      <trkpt lat="45.82662" lon="4.78204">
        <ele>357.6</ele>
        <time>2011-11-18T10:01:34Z</time>
      </trkpt>
      <trkpt lat="45.82654" lon="4.78194">
        <ele>357.4</ele>
        <time>2011-11-18T10:01:38Z</time>
      </trkpt>
      <trkpt lat="45.82651" lon="4.78191">
        <ele>357.4</ele>
        <time>2011-11-18T10:01:39Z</time>
      </trkpt>
      <trkpt lat="45.82643" lon="4.78178">
        <ele>357</ele>
        <time>2011-11-18T10:01:44Z</time>
      </trkpt>
      <trkpt lat="45.82641" lon="4.78175">
        <ele>356.8</ele>
        <time>2011-11-18T10:01:45Z</time>
      </trkpt>
      <trkpt lat="45.82634" lon="4.78165">
        <ele>356.6</ele>
        <time>2011-11-18T10:01:49Z</time>
      </trkpt>
      <trkpt lat="45.82629" lon="4.78157">
        <ele>356.4</ele>
        <time>2011-11-18T10:01:52Z</time>
      </trkpt>
      <trkpt lat="45.82622" lon="4.78146">
        <ele>356</ele>
        <time>2011-11-18T10:01:56Z</time>
      </trkpt>
      <trkpt lat="45.82617" lon="4.78137">
        <ele>356</ele>
        <time>2011-11-18T10:01:59Z</time>
      </trkpt>
      <trkpt lat="45.82612" lon="4.78128">
        <ele>355.8</ele>
        <time>2011-11-18T10:02:02Z</time>
      </trkpt>
      <trkpt lat="45.82605" lon="4.78116">
        <ele>355.8</ele>
        <time>2011-11-18T10:02:08Z</time>
      </trkpt>
      <trkpt lat="45.82598" lon="4.78106">
        <ele>355.8</ele>
        <time>2011-11-18T10:02:14Z</time>
      </trkpt>
      <trkpt lat="45.82597" lon="4.78097">
        <ele>355.8</ele>
        <time>2011-11-18T10:02:19Z</time>
      </trkpt>
      <trkpt lat="45.82598" lon="4.78093">
        <ele>355.8</ele>
        <time>2011-11-18T10:02:21Z</time>
      </trkpt>
      <trkpt lat="45.82601" lon="4.78084">
        <ele>355.8</ele>
        <time>2011-11-18T10:02:26Z</time>
      </trkpt>
      <trkpt lat="45.82605" lon="4.78077">
        <ele>356.4</ele>
        <time>2011-11-18T10:02:31Z</time>
      </trkpt>
      <trkpt lat="45.82606" lon="4.78074">
        <ele>356.4</ele>
        <time>2011-11-18T10:02:32Z</time>
      </trkpt>
      <trkpt lat="45.82606" lon="4.7807">
        <ele>356.6</ele>
        <time>2011-11-18T10:02:34Z</time>
      </trkpt>
      <trkpt lat="45.82607" lon="4.78058">
        <ele>357.6</ele>
        <time>2011-11-18T10:02:39Z</time>
      </trkpt>
      <trkpt lat="45.82607" lon="4.78058">
        <ele>357.8</ele>
        <time>2011-11-18T10:02:40Z</time>
      </trkpt>
      <trkpt lat="45.82602" lon="4.78052">
        <ele>359.4</ele>
        <time>2011-11-18T10:02:46Z</time>
      </trkpt>
      <trkpt lat="45.82604" lon="4.78051">
        <ele>363.8</ele>
        <time>2011-11-18T10:03:06Z</time>
      </trkpt>
      <trkpt lat="45.82603" lon="4.78051">
        <ele>364.8</ele>
        <time>2011-11-18T10:03:12Z</time>
      </trkpt>
      <trkpt lat="45.82608" lon="4.78053">
        <ele>365.6</ele>
        <time>2011-11-18T10:03:18Z</time>
      </trkpt>
      <trkpt lat="45.82616" lon="4.78056">
        <ele>366.2</ele>
        <time>2011-11-18T10:03:24Z</time>
      </trkpt>
      <trkpt lat="45.82625" lon="4.78056">
        <ele>366.6</ele>
        <time>2011-11-18T10:03:32Z</time>
      </trkpt>
      <trkpt lat="45.82627" lon="4.78056">
        <ele>366.6</ele>
        <time>2011-11-18T10:03:33Z</time>
      </trkpt>
      <trkpt lat="45.82634" lon="4.78057">
        <ele>367</ele>
        <time>2011-11-18T10:03:38Z</time>
      </trkpt>
      <trkpt lat="45.82643" lon="4.78054">
        <ele>368.6</ele>
        <time>2011-11-18T10:03:46Z</time>
      </trkpt>
      <trkpt lat="45.82646" lon="4.78054">
        <ele>369</ele>
        <time>2011-11-18T10:03:48Z</time>
      </trkpt>
      <trkpt lat="45.82657" lon="4.78055">
        <ele>369.8</ele>
        <time>2011-11-18T10:03:54Z</time>
      </trkpt>
      <trkpt lat="45.82664" lon="4.78053">
        <ele>370.4</ele>
        <time>2011-11-18T10:03:59Z</time>
      </trkpt>
      <trkpt lat="45.82666" lon="4.78052">
        <ele>370.6</ele>
        <time>2011-11-18T10:04:00Z</time>
      </trkpt>
      <trkpt lat="45.82673" lon="4.78042">
        <ele>371.8</ele>
        <time>2011-11-18T10:04:07Z</time>
      </trkpt>
      <trkpt lat="45.82674" lon="4.78033">
        <ele>373</ele>
        <time>2011-11-18T10:04:12Z</time>
      </trkpt>
      <trkpt lat="45.82673" lon="4.78023">
        <ele>374</ele>
        <time>2011-11-18T10:04:17Z</time>
      </trkpt>
      <trkpt lat="45.82673" lon="4.78008">
        <ele>375.4</ele>
        <time>2011-11-18T10:04:25Z</time>
      </trkpt>
      <trkpt lat="45.82673" lon="4.78006">
        <ele>375.6</ele>
        <time>2011-11-18T10:04:26Z</time>
      </trkpt>
      <trkpt lat="45.82674" lon="4.77992">
        <ele>376.6</ele>
        <time>2011-11-18T10:04:34Z</time>
      </trkpt>
      <trkpt lat="45.82674" lon="4.77979">
        <ele>376.6</ele>
        <time>2011-11-18T10:04:40Z</time>
      </trkpt>
      <trkpt lat="45.82676" lon="4.77962">
        <ele>376.8</ele>
        <time>2011-11-18T10:04:45Z</time>
      </trkpt>
      <trkpt lat="45.82677" lon="4.77952">
        <ele>376.6</ele>
        <time>2011-11-18T10:04:48Z</time>
      </trkpt>
      <trkpt lat="45.82677" lon="4.77941">
        <ele>376.6</ele>
        <time>2011-11-18T10:04:51Z</time>
      </trkpt>
      <trkpt lat="45.82677" lon="4.77924">
        <ele>376.4</ele>
        <time>2011-11-18T10:04:56Z</time>
      </trkpt>
      <trkpt lat="45.82677" lon="4.77903">
        <ele>376</ele>
        <time>2011-11-18T10:05:02Z</time>
      </trkpt>
      <trkpt lat="45.82679" lon="4.77901">
        <ele>376</ele>
        <time>2011-11-18T10:05:03Z</time>
      </trkpt>
      <trkpt lat="45.82681" lon="4.77899">
        <ele>376</ele>
        <time>2011-11-18T10:05:04Z</time>
      </trkpt>
      <trkpt lat="45.82688" lon="4.77897">
        <ele>375.8</ele>
        <time>2011-11-18T10:05:07Z</time>
      </trkpt>
      <trkpt lat="45.82702" lon="4.77892">
        <ele>375.6</ele>
        <time>2011-11-18T10:05:13Z</time>
      </trkpt>
      <trkpt lat="45.82704" lon="4.77892">
        <ele>375.4</ele>
        <time>2011-11-18T10:05:14Z</time>
      </trkpt>
      <trkpt lat="45.82719" lon="4.77891">
        <ele>375.2</ele>
        <time>2011-11-18T10:05:20Z</time>
      </trkpt>
      <trkpt lat="45.82722" lon="4.77891">
        <ele>375</ele>
        <time>2011-11-18T10:05:21Z</time>
      </trkpt>
      <trkpt lat="45.82729" lon="4.77892">
        <ele>374.6</ele>
        <time>2011-11-18T10:05:26Z</time>
      </trkpt>
      <trkpt lat="45.82731" lon="4.77891">
        <ele>374.2</ele>
        <time>2011-11-18T10:05:33Z</time>
      </trkpt>
      <trkpt lat="45.82734" lon="4.77892">
        <ele>373.8</ele>
        <time>2011-11-18T10:05:40Z</time>
      </trkpt>
      <trkpt lat="45.82741" lon="4.7789">
        <ele>373.4</ele>
        <time>2011-11-18T10:05:44Z</time>
      </trkpt>
      <trkpt lat="45.82744" lon="4.77889">
        <ele>373.4</ele>
        <time>2011-11-18T10:05:45Z</time>
      </trkpt>
      <trkpt lat="45.82756" lon="4.77885">
        <ele>373.2</ele>
        <time>2011-11-18T10:05:51Z</time>
      </trkpt>
      <trkpt lat="45.8276" lon="4.77884">
        <ele>373</ele>
        <time>2011-11-18T10:05:53Z</time>
      </trkpt>
      <trkpt lat="45.82773" lon="4.7788">
        <ele>372.8</ele>
        <time>2011-11-18T10:05:58Z</time>
      </trkpt>
      <trkpt lat="45.82778" lon="4.77879">
        <ele>372.4</ele>
        <time>2011-11-18T10:06:00Z</time>
      </trkpt>
      <trkpt lat="45.82788" lon="4.77877">
        <ele>372</ele>
        <time>2011-11-18T10:06:04Z</time>
      </trkpt>
      <trkpt lat="45.82796" lon="4.77876">
        <ele>371.4</ele>
        <time>2011-11-18T10:06:07Z</time>
      </trkpt>
      <trkpt lat="45.82805" lon="4.77876">
        <ele>370.8</ele>
        <time>2011-11-18T10:06:10Z</time>
      </trkpt>
      <trkpt lat="45.82816" lon="4.77876">
        <ele>370.2</ele>
        <time>2011-11-18T10:06:14Z</time>
      </trkpt>
      <trkpt lat="45.82822" lon="4.77876">
        <ele>369.8</ele>
        <time>2011-11-18T10:06:16Z</time>
      </trkpt>
      <trkpt lat="45.82834" lon="4.77875">
        <ele>368.8</ele>
        <time>2011-11-18T10:06:21Z</time>
      </trkpt>
      <trkpt lat="45.82837" lon="4.77875">
        <ele>368.6</ele>
        <time>2011-11-18T10:06:22Z</time>
      </trkpt>
      <trkpt lat="45.82856" lon="4.7787">
        <ele>367</ele>
        <time>2011-11-18T10:06:29Z</time>
      </trkpt>
      <trkpt lat="45.82869" lon="4.7786">
        <ele>365.8</ele>
        <time>2011-11-18T10:06:34Z</time>
      </trkpt>
      <trkpt lat="45.82874" lon="4.77851">
        <ele>365.4</ele>
        <time>2011-11-18T10:06:36Z</time>
      </trkpt>
      <trkpt lat="45.82876" lon="4.77848">
        <ele>365.2</ele>
        <time>2011-11-18T10:06:38Z</time>
      </trkpt>
      <trkpt lat="45.82883" lon="4.77827">
        <ele>364.4</ele>
        <time>2011-11-18T10:06:43Z</time>
      </trkpt>
      <trkpt lat="45.82883" lon="4.77827">
        <ele>364.2</ele>
        <time>2011-11-18T10:06:44Z</time>
      </trkpt>
      <trkpt lat="45.82886" lon="4.7781">
        <ele>363.8</ele>
        <time>2011-11-18T10:06:49Z</time>
      </trkpt>
      <trkpt lat="45.82887" lon="4.77804">
        <ele>363.6</ele>
        <time>2011-11-18T10:06:51Z</time>
      </trkpt>
      <trkpt lat="45.8289" lon="4.77798">
        <ele>363.4</ele>
        <time>2011-11-18T10:06:53Z</time>
      </trkpt>
      <trkpt lat="45.82894" lon="4.77795">
        <ele>363.2</ele>
        <time>2011-11-18T10:06:54Z</time>
      </trkpt>
      <trkpt lat="45.82897" lon="4.77795">
        <ele>363</ele>
        <time>2011-11-18T10:06:57Z</time>
      </trkpt>
      <trkpt lat="45.82905" lon="4.77797">
        <ele>362.8</ele>
        <time>2011-11-18T10:06:59Z</time>
      </trkpt>
      <trkpt lat="45.82906" lon="4.77795">
        <ele>362.6</ele>
        <time>2011-11-18T10:07:01Z</time>
      </trkpt>
      <trkpt lat="45.829" lon="4.77787">
        <ele>362.6</ele>
        <time>2011-11-18T10:07:05Z</time>
      </trkpt>
      <trkpt lat="45.82898" lon="4.77785">
        <ele>362.4</ele>
        <time>2011-11-18T10:07:07Z</time>
      </trkpt>
      <trkpt lat="45.82893" lon="4.77782">
        <ele>362.2</ele>
        <time>2011-11-18T10:07:09Z</time>
      </trkpt>
      <trkpt lat="45.82888" lon="4.77778">
        <ele>362.2</ele>
        <time>2011-11-18T10:07:12Z</time>
      </trkpt>
      <trkpt lat="45.82876" lon="4.77772">
        <ele>362</ele>
        <time>2011-11-18T10:07:18Z</time>
      </trkpt>
      <trkpt lat="45.82874" lon="4.7777">
        <ele>362</ele>
        <time>2011-11-18T10:07:19Z</time>
      </trkpt>
      <trkpt lat="45.82862" lon="4.77763">
        <ele>362</ele>
        <time>2011-11-18T10:07:26Z</time>
      </trkpt>
      <trkpt lat="45.82859" lon="4.77758">
        <ele>362.2</ele>
        <time>2011-11-18T10:07:28Z</time>
      </trkpt>
      <trkpt lat="45.82853" lon="4.77749">
        <ele>362.4</ele>
        <time>2011-11-18T10:07:32Z</time>
      </trkpt>
      <trkpt lat="45.82848" lon="4.7774">
        <ele>362.6</ele>
        <time>2011-11-18T10:07:37Z</time>
      </trkpt>
      <trkpt lat="45.82844" lon="4.77731">
        <ele>362.4</ele>
        <time>2011-11-18T10:07:39Z</time>
      </trkpt>
      <trkpt lat="45.82839" lon="4.77715">
        <ele>362.6</ele>
        <time>2011-11-18T10:07:45Z</time>
      </trkpt>
      <trkpt lat="45.82838" lon="4.777">
        <ele>362.6</ele>
        <time>2011-11-18T10:07:51Z</time>
      </trkpt>
      <trkpt lat="45.82841" lon="4.77689">
        <ele>362.6</ele>
        <time>2011-11-18T10:07:54Z</time>
      </trkpt>
      <trkpt lat="45.82843" lon="4.77684">
        <ele>362.6</ele>
        <time>2011-11-18T10:07:57Z</time>
      </trkpt>
      <trkpt lat="45.82853" lon="4.77671">
        <ele>362.6</ele>
        <time>2011-11-18T10:08:02Z</time>
      </trkpt>
      <trkpt lat="45.82855" lon="4.77671">
        <ele>362.6</ele>
        <time>2011-11-18T10:08:03Z</time>
      </trkpt>
      <trkpt lat="45.82862" lon="4.77671">
        <ele>363</ele>
        <time>2011-11-18T10:08:07Z</time>
      </trkpt>
      <trkpt lat="45.82868" lon="4.77681">
        <ele>363.6</ele>
        <time>2011-11-18T10:08:12Z</time>
      </trkpt>
      <trkpt lat="45.82869" lon="4.77684">
        <ele>363.8</ele>
        <time>2011-11-18T10:08:13Z</time>
      </trkpt>
      <trkpt lat="45.82872" lon="4.77694">
        <ele>364.6</ele>
        <time>2011-11-18T10:08:17Z</time>
      </trkpt>
      <trkpt lat="45.8288" lon="4.77704">
        <ele>365.8</ele>
        <time>2011-11-18T10:08:23Z</time>
      </trkpt>
      <trkpt lat="45.82892" lon="4.77711">
        <ele>367.2</ele>
        <time>2011-11-18T10:08:30Z</time>
      </trkpt>
      <trkpt lat="45.82893" lon="4.77711">
        <ele>367.6</ele>
        <time>2011-11-18T10:08:32Z</time>
      </trkpt>
      <trkpt lat="45.82895" lon="4.77708">
        <ele>367.8</ele>
        <time>2011-11-18T10:08:34Z</time>
      </trkpt>
      <trkpt lat="45.82895" lon="4.77706">
        <ele>368.2</ele>
        <time>2011-11-18T10:08:38Z</time>
      </trkpt>
      <trkpt lat="45.82896" lon="4.77706">
        <ele>368.4</ele>
        <time>2011-11-18T10:08:40Z</time>
      </trkpt>
      <trkpt lat="45.8289" lon="4.77708">
        <ele>369.8</ele>
        <time>2011-11-18T10:09:20Z</time>
      </trkpt>
      <trkpt lat="45.82888" lon="4.77708">
        <ele>369.8</ele>
        <time>2011-11-18T10:09:22Z</time>
      </trkpt>
      <trkpt lat="45.82885" lon="4.77707">
        <ele>370</ele>
        <time>2011-11-18T10:09:25Z</time>
      </trkpt>
      <trkpt lat="45.82876" lon="4.77701">
        <ele>370</ele>
        <time>2011-11-18T10:09:29Z</time>
      </trkpt>
      <trkpt lat="45.82874" lon="4.777">
        <ele>370</ele>
        <time>2011-11-18T10:09:30Z</time>
      </trkpt>
      <trkpt lat="45.82868" lon="4.77684">
        <ele>369.8</ele>
        <time>2011-11-18T10:09:35Z</time>
      </trkpt>
      <trkpt lat="45.82866" lon="4.77678">
        <ele>369.8</ele>
        <time>2011-11-18T10:09:37Z</time>
      </trkpt>
      <trkpt lat="45.8286" lon="4.77671">
        <ele>369.8</ele>
        <time>2011-11-18T10:09:40Z</time>
      </trkpt>
      <trkpt lat="45.82858" lon="4.7767">
        <ele>369.8</ele>
        <time>2011-11-18T10:09:41Z</time>
      </trkpt>
      <trkpt lat="45.8285" lon="4.77674">
        <ele>369.6</ele>
        <time>2011-11-18T10:09:45Z</time>
      </trkpt>
      <trkpt lat="45.82848" lon="4.77675">
        <ele>369.6</ele>
        <time>2011-11-18T10:09:46Z</time>
      </trkpt>
      <trkpt lat="45.82842" lon="4.77685">
        <ele>369.4</ele>
        <time>2011-11-18T10:09:50Z</time>
      </trkpt>
      <trkpt lat="45.82839" lon="4.77694">
        <ele>369.2</ele>
        <time>2011-11-18T10:09:53Z</time>
      </trkpt>
      <trkpt lat="45.82838" lon="4.77704">
        <ele>369</ele>
        <time>2011-11-18T10:09:56Z</time>
      </trkpt>
      <trkpt lat="45.82841" lon="4.77723">
        <ele>368.6</ele>
        <time>2011-11-18T10:10:01Z</time>
      </trkpt>
      <trkpt lat="45.82847" lon="4.77741">
        <ele>368.4</ele>
        <time>2011-11-18T10:10:07Z</time>
      </trkpt>
      <trkpt lat="45.82851" lon="4.77747">
        <ele>368.4</ele>
        <time>2011-11-18T10:10:09Z</time>
      </trkpt>
      <trkpt lat="45.82857" lon="4.77757">
        <ele>368.2</ele>
        <time>2011-11-18T10:10:12Z</time>
      </trkpt>
      <trkpt lat="45.82861" lon="4.77762">
        <ele>368.2</ele>
        <time>2011-11-18T10:10:14Z</time>
      </trkpt>
      <trkpt lat="45.82866" lon="4.77765">
        <ele>368</ele>
        <time>2011-11-18T10:10:16Z</time>
      </trkpt>
      <trkpt lat="45.82868" lon="4.77766">
        <ele>368</ele>
        <time>2011-11-18T10:10:17Z</time>
      </trkpt>
      <trkpt lat="45.82875" lon="4.7777">
        <ele>367.8</ele>
        <time>2011-11-18T10:10:20Z</time>
      </trkpt>
      <trkpt lat="45.8288" lon="4.77771">
        <ele>367.8</ele>
        <time>2011-11-18T10:10:22Z</time>
      </trkpt>
      <trkpt lat="45.82884" lon="4.77774">
        <ele>367.6</ele>
        <time>2011-11-18T10:10:24Z</time>
      </trkpt>
      <trkpt lat="45.82888" lon="4.77777">
        <ele>367.4</ele>
        <time>2011-11-18T10:10:27Z</time>
      </trkpt>
      <trkpt lat="45.829" lon="4.77787">
        <ele>367.2</ele>
        <time>2011-11-18T10:10:31Z</time>
      </trkpt>
      <trkpt lat="45.82901" lon="4.77789">
        <ele>367.2</ele>
        <time>2011-11-18T10:10:32Z</time>
      </trkpt>
      <trkpt lat="45.82903" lon="4.77792">
        <ele>367</ele>
        <time>2011-11-18T10:10:33Z</time>
      </trkpt>
      <trkpt lat="45.82899" lon="4.77798">
        <ele>366.8</ele>
        <time>2011-11-18T10:10:36Z</time>
      </trkpt>
      <trkpt lat="45.8289" lon="4.77803">
        <ele>366.4</ele>
        <time>2011-11-18T10:10:40Z</time>
      </trkpt>
      <trkpt lat="45.82888" lon="4.77805">
        <ele>366.4</ele>
        <time>2011-11-18T10:10:41Z</time>
      </trkpt>
      <trkpt lat="45.82882" lon="4.77817">
        <ele>365.8</ele>
        <time>2011-11-18T10:10:45Z</time>
      </trkpt>
      <trkpt lat="45.82879" lon="4.77826">
        <ele>365.4</ele>
        <time>2011-11-18T10:10:48Z</time>
      </trkpt>
      <trkpt lat="45.82878" lon="4.7783">
        <ele>365.4</ele>
        <time>2011-11-18T10:10:49Z</time>
      </trkpt>
      <trkpt lat="45.82873" lon="4.77847">
        <ele>364.4</ele>
        <time>2011-11-18T10:10:55Z</time>
      </trkpt>
      <trkpt lat="45.82872" lon="4.7785">
        <ele>364.2</ele>
        <time>2011-11-18T10:10:56Z</time>
      </trkpt>
      <trkpt lat="45.82861" lon="4.77863">
        <ele>363.4</ele>
        <time>2011-11-18T10:11:02Z</time>
      </trkpt>
      <trkpt lat="45.82856" lon="4.77866">
        <ele>363.2</ele>
        <time>2011-11-18T10:11:04Z</time>
      </trkpt>
      <trkpt lat="45.82848" lon="4.7787">
        <ele>362.6</ele>
        <time>2011-11-18T10:11:08Z</time>
      </trkpt>
      <trkpt lat="45.82837" lon="4.77874">
        <ele>362</ele>
        <time>2011-11-18T10:11:13Z</time>
      </trkpt>
      <trkpt lat="45.82825" lon="4.77876">
        <ele>361.4</ele>
        <time>2011-11-18T10:11:19Z</time>
      </trkpt>
      <trkpt lat="45.82819" lon="4.77876">
        <ele>361.2</ele>
        <time>2011-11-18T10:11:22Z</time>
      </trkpt>
      <trkpt lat="45.82813" lon="4.77876">
        <ele>361</ele>
        <time>2011-11-18T10:11:25Z</time>
      </trkpt>
      <trkpt lat="45.82801" lon="4.77877">
        <ele>360.6</ele>
        <time>2011-11-18T10:11:31Z</time>
      </trkpt>
      <trkpt lat="45.8279" lon="4.77878">
        <ele>360.6</ele>
        <time>2011-11-18T10:11:37Z</time>
      </trkpt>
      <trkpt lat="45.82782" lon="4.77879">
        <ele>360.6</ele>
        <time>2011-11-18T10:11:42Z</time>
      </trkpt>
      <trkpt lat="45.82776" lon="4.77884">
        <ele>360.4</ele>
        <time>2011-11-18T10:11:47Z</time>
      </trkpt>
      <trkpt lat="45.82768" lon="4.77887">
        <ele>360.6</ele>
        <time>2011-11-18T10:11:53Z</time>
      </trkpt>
      <trkpt lat="45.82765" lon="4.77888">
        <ele>360.4</ele>
        <time>2011-11-18T10:11:57Z</time>
      </trkpt>
      <trkpt lat="45.82762" lon="4.77888">
        <ele>360.6</ele>
        <time>2011-11-18T10:11:58Z</time>
      </trkpt>
      <trkpt lat="45.8275" lon="4.77891">
        <ele>360.8</ele>
        <time>2011-11-18T10:12:05Z</time>
      </trkpt>
      <trkpt lat="45.82744" lon="4.77891">
        <ele>360.8</ele>
        <time>2011-11-18T10:12:08Z</time>
      </trkpt>
      <trkpt lat="45.82731" lon="4.77893">
        <ele>361</ele>
        <time>2011-11-18T10:12:14Z</time>
      </trkpt>
      <trkpt lat="45.82725" lon="4.77893">
        <ele>361.2</ele>
        <time>2011-11-18T10:12:17Z</time>
      </trkpt>
      <trkpt lat="45.82719" lon="4.77895">
        <ele>361.2</ele>
        <time>2011-11-18T10:12:20Z</time>
      </trkpt>
      <trkpt lat="45.82708" lon="4.77897">
        <ele>361.8</ele>
        <time>2011-11-18T10:12:25Z</time>
      </trkpt>
      <trkpt lat="45.82706" lon="4.77897">
        <ele>361.8</ele>
        <time>2011-11-18T10:12:26Z</time>
      </trkpt>
      <trkpt lat="45.82694" lon="4.779">
        <ele>362</ele>
        <time>2011-11-18T10:12:31Z</time>
      </trkpt>
      <trkpt lat="45.8269" lon="4.779">
        <ele>362.2</ele>
        <time>2011-11-18T10:12:33Z</time>
      </trkpt>
      <trkpt lat="45.82687" lon="4.779">
        <ele>362.2</ele>
        <time>2011-11-18T10:12:34Z</time>
      </trkpt>
      <trkpt lat="45.82683" lon="4.77898">
        <ele>362.2</ele>
        <time>2011-11-18T10:12:36Z</time>
      </trkpt>
      <trkpt lat="45.82681" lon="4.77897">
        <ele>362.2</ele>
        <time>2011-11-18T10:12:37Z</time>
      </trkpt>
      <trkpt lat="45.82673" lon="4.77889">
        <ele>362.4</ele>
        <time>2011-11-18T10:12:42Z</time>
      </trkpt>
      <trkpt lat="45.82673" lon="4.77891">
        <ele>362.4</ele>
        <time>2011-11-18T10:12:44Z</time>
      </trkpt>
      <trkpt lat="45.82675" lon="4.77897">
        <ele>362.6</ele>
        <time>2011-11-18T10:12:46Z</time>
      </trkpt>
      <trkpt lat="45.82678" lon="4.77914">
        <ele>363.2</ele>
        <time>2011-11-18T10:12:52Z</time>
      </trkpt>
      <trkpt lat="45.82678" lon="4.77917">
        <ele>363.4</ele>
        <time>2011-11-18T10:12:53Z</time>
      </trkpt>
      <trkpt lat="45.8268" lon="4.77934">
        <ele>363.8</ele>
        <time>2011-11-18T10:12:59Z</time>
      </trkpt>
      <trkpt lat="45.82681" lon="4.77943">
        <ele>364.2</ele>
        <time>2011-11-18T10:13:02Z</time>
      </trkpt>
      <trkpt lat="45.8268" lon="4.77953">
        <ele>364.8</ele>
        <time>2011-11-18T10:13:06Z</time>
      </trkpt>
      <trkpt lat="45.82679" lon="4.77969">
        <ele>366</ele>
        <time>2011-11-18T10:13:12Z</time>
      </trkpt>
      <trkpt lat="45.82679" lon="4.77972">
        <ele>366.2</ele>
        <time>2011-11-18T10:13:13Z</time>
      </trkpt>
      <trkpt lat="45.82678" lon="4.77985">
        <ele>366.8</ele>
        <time>2011-11-18T10:13:17Z</time>
      </trkpt>
      <trkpt lat="45.82675" lon="4.77999">
        <ele>367.6</ele>
        <time>2011-11-18T10:13:22Z</time>
      </trkpt>
      <trkpt lat="45.82675" lon="4.78021">
        <ele>368.2</ele>
        <time>2011-11-18T10:13:29Z</time>
      </trkpt>
      <trkpt lat="45.82675" lon="4.78027">
        <ele>368.4</ele>
        <time>2011-11-18T10:13:31Z</time>
      </trkpt>
      <trkpt lat="45.82674" lon="4.78033">
        <ele>368.4</ele>
        <time>2011-11-18T10:13:33Z</time>
      </trkpt>
      <trkpt lat="45.82673" lon="4.78039">
        <ele>368.4</ele>
        <time>2011-11-18T10:13:35Z</time>
      </trkpt>
      <trkpt lat="45.82667" lon="4.78052">
        <ele>368.6</ele>
        <time>2011-11-18T10:13:40Z</time>
      </trkpt>
      <trkpt lat="45.82665" lon="4.78054">
        <ele>368.6</ele>
        <time>2011-11-18T10:13:41Z</time>
      </trkpt>
      <trkpt lat="45.8265" lon="4.78058">
        <ele>368.6</ele>
        <time>2011-11-18T10:13:47Z</time>
      </trkpt>
      <trkpt lat="45.82648" lon="4.78058">
        <ele>368.6</ele>
        <time>2011-11-18T10:13:48Z</time>
      </trkpt>
      <trkpt lat="45.8263" lon="4.78057">
        <ele>368.6</ele>
        <time>2011-11-18T10:13:55Z</time>
      </trkpt>
      <trkpt lat="45.82627" lon="4.78056">
        <ele>368.4</ele>
        <time>2011-11-18T10:13:56Z</time>
      </trkpt>
      <trkpt lat="45.82614" lon="4.78053">
        <ele>368.4</ele>
        <time>2011-11-18T10:14:01Z</time>
      </trkpt>
      <trkpt lat="45.82609" lon="4.78052">
        <ele>368.2</ele>
        <time>2011-11-18T10:14:03Z</time>
      </trkpt>
      <trkpt lat="45.82604" lon="4.78053">
        <ele>368.2</ele>
        <time>2011-11-18T10:14:05Z</time>
      </trkpt>
      <trkpt lat="45.82603" lon="4.78055">
        <ele>368</ele>
        <time>2011-11-18T10:14:06Z</time>
      </trkpt>
      <trkpt lat="45.82603" lon="4.78068">
        <ele>367.8</ele>
        <time>2011-11-18T10:14:10Z</time>
      </trkpt>
      <trkpt lat="45.82602" lon="4.78073">
        <ele>367.8</ele>
        <time>2011-11-18T10:14:12Z</time>
      </trkpt>
      <trkpt lat="45.826" lon="4.78087">
        <ele>367.4</ele>
        <time>2011-11-18T10:14:16Z</time>
      </trkpt>
      <trkpt lat="45.82599" lon="4.78099">
        <ele>366.8</ele>
        <time>2011-11-18T10:14:20Z</time>
      </trkpt>
      <trkpt lat="45.826" lon="4.78102">
        <ele>366.8</ele>
        <time>2011-11-18T10:14:21Z</time>
      </trkpt>
      <trkpt lat="45.82608" lon="4.78117">
        <ele>366</ele>
        <time>2011-11-18T10:14:26Z</time>
      </trkpt>
      <trkpt lat="45.8261" lon="4.78121">
        <ele>365.8</ele>
        <time>2011-11-18T10:14:27Z</time>
      </trkpt>
      <trkpt lat="45.82619" lon="4.78134">
        <ele>365.4</ele>
        <time>2011-11-18T10:14:31Z</time>
      </trkpt>
      <trkpt lat="45.82623" lon="4.78141">
        <ele>365</ele>
        <time>2011-11-18T10:14:34Z</time>
      </trkpt>
      <trkpt lat="45.82624" lon="4.78145">
        <ele>364.8</ele>
        <time>2011-11-18T10:14:35Z</time>
      </trkpt>
      <trkpt lat="45.82632" lon="4.7816">
        <ele>364.2</ele>
        <time>2011-11-18T10:14:41Z</time>
      </trkpt>
      <trkpt lat="45.82634" lon="4.78163">
        <ele>364</ele>
        <time>2011-11-18T10:14:42Z</time>
      </trkpt>
      <trkpt lat="45.8264" lon="4.78171">
        <ele>363.8</ele>
        <time>2011-11-18T10:14:45Z</time>
      </trkpt>
      <trkpt lat="45.82647" lon="4.7818">
        <ele>363.4</ele>
        <time>2011-11-18T10:14:49Z</time>
      </trkpt>
      <trkpt lat="45.82649" lon="4.78185">
        <ele>363.2</ele>
        <time>2011-11-18T10:14:51Z</time>
      </trkpt>
      <trkpt lat="45.82658" lon="4.78197">
        <ele>362.8</ele>
        <time>2011-11-18T10:14:56Z</time>
      </trkpt>
      <trkpt lat="45.8266" lon="4.78199">
        <ele>362.8</ele>
        <time>2011-11-18T10:14:57Z</time>
      </trkpt>
      <trkpt lat="45.82667" lon="4.7821">
        <ele>362.6</ele>
        <time>2011-11-18T10:15:01Z</time>
      </trkpt>
      <trkpt lat="45.82674" lon="4.7822">
        <ele>362.4</ele>
        <time>2011-11-18T10:15:05Z</time>
      </trkpt>
      <trkpt lat="45.82676" lon="4.78226">
        <ele>362.4</ele>
        <time>2011-11-18T10:15:07Z</time>
      </trkpt>
      <trkpt lat="45.82685" lon="4.78238">
        <ele>362.2</ele>
        <time>2011-11-18T10:15:12Z</time>
      </trkpt>
      <trkpt lat="45.82687" lon="4.7824">
        <ele>362.2</ele>
        <time>2011-11-18T10:15:13Z</time>
      </trkpt>
      <trkpt lat="45.82695" lon="4.78248">
        <ele>361.8</ele>
        <time>2011-11-18T10:15:18Z</time>
      </trkpt>
      <trkpt lat="45.82701" lon="4.78252">
        <ele>361.6</ele>
        <time>2011-11-18T10:15:22Z</time>
      </trkpt>
      <trkpt lat="45.82703" lon="4.78253">
        <ele>361.6</ele>
        <time>2011-11-18T10:15:23Z</time>
      </trkpt>
      <trkpt lat="45.82705" lon="4.78255">
        <ele>361.4</ele>
        <time>2011-11-18T10:15:24Z</time>
      </trkpt>
      <trkpt lat="45.82707" lon="4.78263">
        <ele>361.2</ele>
        <time>2011-11-18T10:15:27Z</time>
      </trkpt>
      <trkpt lat="45.82706" lon="4.78267">
        <ele>361.2</ele>
        <time>2011-11-18T10:15:29Z</time>
      </trkpt>
      <trkpt lat="45.82701" lon="4.78275">
        <ele>360.8</ele>
        <time>2011-11-18T10:15:34Z</time>
      </trkpt>
      <trkpt lat="45.827" lon="4.78276">
        <ele>360.8</ele>
        <time>2011-11-18T10:15:35Z</time>
      </trkpt>
      <trkpt lat="45.82691" lon="4.78279">
        <ele>360.4</ele>
        <time>2011-11-18T10:15:40Z</time>
      </trkpt>
      <trkpt lat="45.8268" lon="4.78281">
        <ele>360.4</ele>
        <time>2011-11-18T10:15:45Z</time>
      </trkpt>
      <trkpt lat="45.82678" lon="4.78282">
        <ele>360.2</ele>
        <time>2011-11-18T10:15:46Z</time>
      </trkpt>
      <trkpt lat="45.82665" lon="4.78284">
        <ele>360</ele>
        <time>2011-11-18T10:15:52Z</time>
      </trkpt>
      <trkpt lat="45.82661" lon="4.78285">
        <ele>360</ele>
        <time>2011-11-18T10:15:54Z</time>
      </trkpt>
      <trkpt lat="45.82654" lon="4.78286">
        <ele>360</ele>
        <time>2011-11-18T10:15:58Z</time>
      </trkpt>
      <trkpt lat="45.82649" lon="4.78288">
        <ele>359.8</ele>
        <time>2011-11-18T10:16:01Z</time>
      </trkpt>
      <trkpt lat="45.82643" lon="4.78291">
        <ele>359.6</ele>
        <time>2011-11-18T10:16:04Z</time>
      </trkpt>
      <trkpt lat="45.82638" lon="4.78296">
        <ele>359.4</ele>
        <time>2011-11-18T10:16:07Z</time>
      </trkpt>
      <trkpt lat="45.82636" lon="4.78297">
        <ele>359.4</ele>
        <time>2011-11-18T10:16:08Z</time>
      </trkpt>
      <trkpt lat="45.82629" lon="4.78307">
        <ele>359.2</ele>
        <time>2011-11-18T10:16:13Z</time>
      </trkpt>
      <trkpt lat="45.82626" lon="4.78316">
        <ele>358.8</ele>
        <time>2011-11-18T10:16:17Z</time>
      </trkpt>
      <trkpt lat="45.82625" lon="4.78321">
        <ele>358.8</ele>
        <time>2011-11-18T10:16:19Z</time>
      </trkpt>
      <trkpt lat="45.82625" lon="4.78325">
        <ele>358.6</ele>
        <time>2011-11-18T10:16:21Z</time>
      </trkpt>
      <trkpt lat="45.82624" lon="4.78334">
        <ele>358.4</ele>
        <time>2011-11-18T10:16:24Z</time>
      </trkpt>
      <trkpt lat="45.82624" lon="4.78336">
        <ele>358.4</ele>
        <time>2011-11-18T10:16:25Z</time>
      </trkpt>
      <trkpt lat="45.82623" lon="4.78345">
        <ele>358.2</ele>
        <time>2011-11-18T10:16:29Z</time>
      </trkpt>
      <trkpt lat="45.82622" lon="4.78349">
        <ele>358</ele>
        <time>2011-11-18T10:16:31Z</time>
      </trkpt>
      <trkpt lat="45.82619" lon="4.78359">
        <ele>358.2</ele>
        <time>2011-11-18T10:16:35Z</time>
      </trkpt>
      <trkpt lat="45.82617" lon="4.78359">
        <ele>358.2</ele>
        <time>2011-11-18T10:16:37Z</time>
      </trkpt>
      <trkpt lat="45.82616" lon="4.78359">
        <ele>358.2</ele>
        <time>2011-11-18T10:16:38Z</time>
      </trkpt>
      <trkpt lat="45.82613" lon="4.78362">
        <ele>360.2</ele>
        <time>2011-11-18T10:16:45Z</time>
      </trkpt>
      <trkpt lat="45.82604" lon="4.78361">
        <ele>368.6</ele>
        <time>2011-11-18T10:17:20Z</time>
      </trkpt>
      <trkpt lat="45.82604" lon="4.78361">
        <ele>369.6</ele>
        <time>2011-11-18T10:17:25Z</time>
      </trkpt>
      <trkpt lat="45.82603" lon="4.78361">
        <ele>370.4</ele>
        <time>2011-11-18T10:17:29Z</time>
      </trkpt>
      <trkpt lat="45.82601" lon="4.78361">
        <ele>370.6</ele>
        <time>2011-11-18T10:17:31Z</time>
      </trkpt>
      <trkpt lat="45.82593" lon="4.7836">
        <ele>371</ele>
        <time>2011-11-18T10:17:40Z</time>
      </trkpt>
      <trkpt lat="45.8259" lon="4.78359">
        <ele>371</ele>
        <time>2011-11-18T10:17:49Z</time>
      </trkpt>
      <trkpt lat="45.82585" lon="4.78359">
        <ele>370.8</ele>
        <time>2011-11-18T10:17:57Z</time>
      </trkpt>
      <trkpt lat="45.82574" lon="4.78358">
        <ele>370.6</ele>
        <time>2011-11-18T10:18:02Z</time>
      </trkpt>
      <trkpt lat="45.82567" lon="4.78355">
        <ele>370.2</ele>
        <time>2011-11-18T10:18:05Z</time>
      </trkpt>
      <trkpt lat="45.82559" lon="4.78354">
        <ele>370</ele>
        <time>2011-11-18T10:18:08Z</time>
      </trkpt>
      <trkpt lat="45.82547" lon="4.78351">
        <ele>369.4</ele>
        <time>2011-11-18T10:18:13Z</time>
      </trkpt>
      <trkpt lat="45.82533" lon="4.78348">
        <ele>369.2</ele>
        <time>2011-11-18T10:18:17Z</time>
      </trkpt>
      <trkpt lat="45.82528" lon="4.78346">
        <ele>369</ele>
        <time>2011-11-18T10:18:19Z</time>
      </trkpt>
      <trkpt lat="45.82521" lon="4.78343">
        <ele>368.6</ele>
        <time>2011-11-18T10:18:22Z</time>
      </trkpt>
      <trkpt lat="45.82509" lon="4.78341">
        <ele>368</ele>
        <time>2011-11-18T10:18:27Z</time>
      </trkpt>
      <trkpt lat="45.82506" lon="4.7834">
        <ele>368</ele>
        <time>2011-11-18T10:18:28Z</time>
      </trkpt>
      <trkpt lat="45.82495" lon="4.78337">
        <ele>367.4</ele>
        <time>2011-11-18T10:18:33Z</time>
      </trkpt>
      <trkpt lat="45.8249" lon="4.78336">
        <ele>367.2</ele>
        <time>2011-11-18T10:18:35Z</time>
      </trkpt>
      <trkpt lat="45.82484" lon="4.78333">
        <ele>366.8</ele>
        <time>2011-11-18T10:18:38Z</time>
      </trkpt>
      <trkpt lat="45.8247" lon="4.78331">
        <ele>366</ele>
        <time>2011-11-18T10:18:44Z</time>
      </trkpt>
      <trkpt lat="45.82457" lon="4.78325">
        <ele>365.4</ele>
        <time>2011-11-18T10:18:50Z</time>
      </trkpt>
      <trkpt lat="45.82452" lon="4.78323">
        <ele>365</ele>
        <time>2011-11-18T10:18:52Z</time>
      </trkpt>
      <trkpt lat="45.82444" lon="4.78317">
        <ele>364.4</ele>
        <time>2011-11-18T10:18:56Z</time>
      </trkpt>
      <trkpt lat="45.82436" lon="4.78313">
        <ele>364</ele>
        <time>2011-11-18T10:19:00Z</time>
      </trkpt>
      <trkpt lat="45.82435" lon="4.78314">
        <ele>363.8</ele>
        <time>2011-11-18T10:19:01Z</time>
      </trkpt>
      <trkpt lat="45.82427" lon="4.7832">
        <ele>363.2</ele>
        <time>2011-11-18T10:19:06Z</time>
      </trkpt>
      <trkpt lat="45.82426" lon="4.78321">
        <ele>363</ele>
        <time>2011-11-18T10:19:07Z</time>
      </trkpt>
      <trkpt lat="45.82424" lon="4.78321">
        <ele>362.8</ele>
        <time>2011-11-18T10:19:08Z</time>
      </trkpt>
      <trkpt lat="45.82419" lon="4.78317">
        <ele>362.6</ele>
        <time>2011-11-18T10:19:10Z</time>
      </trkpt>
      <trkpt lat="45.82417" lon="4.78315">
        <ele>362.6</ele>
        <time>2011-11-18T10:19:11Z</time>
      </trkpt>
      <trkpt lat="45.82406" lon="4.78309">
        <ele>362</ele>
        <time>2011-11-18T10:19:15Z</time>
      </trkpt>
      <trkpt lat="45.82399" lon="4.78303">
        <ele>361.8</ele>
        <time>2011-11-18T10:19:18Z</time>
      </trkpt>
      <trkpt lat="45.82398" lon="4.78302">
        <ele>361.6</ele>
        <time>2011-11-18T10:19:19Z</time>
      </trkpt>
      <trkpt lat="45.82396" lon="4.78299">
        <ele>361.4</ele>
        <time>2011-11-18T10:19:20Z</time>
      </trkpt>
      <trkpt lat="45.82386" lon="4.78297">
        <ele>361</ele>
        <time>2011-11-18T10:19:24Z</time>
      </trkpt>
      <trkpt lat="45.82381" lon="4.78298">
        <ele>360.6</ele>
        <time>2011-11-18T10:19:26Z</time>
      </trkpt>
      <trkpt lat="45.82373" lon="4.78297">
        <ele>360.2</ele>
        <time>2011-11-18T10:19:29Z</time>
      </trkpt>
      <trkpt lat="45.82365" lon="4.78296">
        <ele>359.8</ele>
        <time>2011-11-18T10:19:32Z</time>
      </trkpt>
      <trkpt lat="45.82363" lon="4.78297">
        <ele>359.6</ele>
        <time>2011-11-18T10:19:33Z</time>
      </trkpt>
      <trkpt lat="45.82361" lon="4.78298">
        <ele>359.6</ele>
        <time>2011-11-18T10:19:34Z</time>
      </trkpt>
      <trkpt lat="45.82352" lon="4.78301">
        <ele>358.8</ele>
        <time>2011-11-18T10:19:38Z</time>
      </trkpt>
      <trkpt lat="45.82348" lon="4.78301">
        <ele>358.4</ele>
        <time>2011-11-18T10:19:40Z</time>
      </trkpt>
      <trkpt lat="45.82344" lon="4.783">
        <ele>358.2</ele>
        <time>2011-11-18T10:19:42Z</time>
      </trkpt>
      <trkpt lat="45.82343" lon="4.78301">
        <ele>358</ele>
        <time>2011-11-18T10:19:43Z</time>
      </trkpt>
      <trkpt lat="45.82341" lon="4.78303">
        <ele>357.8</ele>
        <time>2011-11-18T10:19:44Z</time>
      </trkpt>
      <trkpt lat="45.82333" lon="4.78304">
        <ele>357.2</ele>
        <time>2011-11-18T10:19:48Z</time>
      </trkpt>
      <trkpt lat="45.82326" lon="4.78304">
        <ele>356.8</ele>
        <time>2011-11-18T10:19:51Z</time>
      </trkpt>
      <trkpt lat="45.82323" lon="4.78303">
        <ele>356.8</ele>
        <time>2011-11-18T10:19:52Z</time>
      </trkpt>
      <trkpt lat="45.82311" lon="4.78299">
        <ele>356</ele>
        <time>2011-11-18T10:19:57Z</time>
      </trkpt>
      <trkpt lat="45.82306" lon="4.78299">
        <ele>355.6</ele>
        <time>2011-11-18T10:19:59Z</time>
      </trkpt>
      <trkpt lat="45.82302" lon="4.78297">
        <ele>355.4</ele>
        <time>2011-11-18T10:20:01Z</time>
      </trkpt>
      <trkpt lat="45.82301" lon="4.78287">
        <ele>355</ele>
        <time>2011-11-18T10:20:04Z</time>
      </trkpt>
      <trkpt lat="45.82295" lon="4.78282">
        <ele>354.6</ele>
        <time>2011-11-18T10:20:08Z</time>
      </trkpt>
      <trkpt lat="45.82292" lon="4.78283">
        <ele>354.6</ele>
        <time>2011-11-18T10:20:09Z</time>
      </trkpt>
      <trkpt lat="45.82284" lon="4.78281">
        <ele>354.2</ele>
        <time>2011-11-18T10:20:12Z</time>
      </trkpt>
      <trkpt lat="45.82282" lon="4.78281">
        <ele>354.2</ele>
        <time>2011-11-18T10:20:13Z</time>
      </trkpt>
      <trkpt lat="45.82276" lon="4.78281">
        <ele>354</ele>
        <time>2011-11-18T10:20:15Z</time>
      </trkpt>
      <trkpt lat="45.82272" lon="4.7828">
        <ele>353.8</ele>
        <time>2011-11-18T10:20:17Z</time>
      </trkpt>
      <trkpt lat="45.82269" lon="4.78281">
        <ele>353.6</ele>
        <time>2011-11-18T10:20:18Z</time>
      </trkpt>
      <trkpt lat="45.82263" lon="4.78284">
        <ele>353.2</ele>
        <time>2011-11-18T10:20:21Z</time>
      </trkpt>
      <trkpt lat="45.82257" lon="4.78284">
        <ele>353</ele>
        <time>2011-11-18T10:20:23Z</time>
      </trkpt>
      <trkpt lat="45.82252" lon="4.78284">
        <ele>352.6</ele>
        <time>2011-11-18T10:20:25Z</time>
      </trkpt>
      <trkpt lat="45.82239" lon="4.78285">
        <ele>351.8</ele>
        <time>2011-11-18T10:20:30Z</time>
      </trkpt>
      <trkpt lat="45.82237" lon="4.78285">
        <ele>351.6</ele>
        <time>2011-11-18T10:20:31Z</time>
      </trkpt>
      <trkpt lat="45.82217" lon="4.78285">
        <ele>350.4</ele>
        <time>2011-11-18T10:20:38Z</time>
      </trkpt>
      <trkpt lat="45.82204" lon="4.78285">
        <ele>349.4</ele>
        <time>2011-11-18T10:20:43Z</time>
      </trkpt>
      <trkpt lat="45.82199" lon="4.78284">
        <ele>349.2</ele>
        <time>2011-11-18T10:20:45Z</time>
      </trkpt>
      <trkpt lat="45.82192" lon="4.78281">
        <ele>348.6</ele>
        <time>2011-11-18T10:20:48Z</time>
      </trkpt>
      <trkpt lat="45.82185" lon="4.78279">
        <ele>348.2</ele>
        <time>2011-11-18T10:20:51Z</time>
      </trkpt>
      <trkpt lat="45.82182" lon="4.78279">
        <ele>347.6</ele>
        <time>2011-11-18T10:20:53Z</time>
      </trkpt>
      <trkpt lat="45.82179" lon="4.78278">
        <ele>347.6</ele>
        <time>2011-11-18T10:20:54Z</time>
      </trkpt>
      <trkpt lat="45.82173" lon="4.78277">
        <ele>347</ele>
        <time>2011-11-18T10:20:57Z</time>
      </trkpt>
      <trkpt lat="45.82164" lon="4.78278">
        <ele>346.2</ele>
        <time>2011-11-18T10:21:01Z</time>
      </trkpt>
      <trkpt lat="45.82162" lon="4.78279">
        <ele>345.8</ele>
        <time>2011-11-18T10:21:02Z</time>
      </trkpt>
      <trkpt lat="45.82159" lon="4.78279">
        <ele>345.6</ele>
        <time>2011-11-18T10:21:03Z</time>
      </trkpt>
      <trkpt lat="45.82145" lon="4.78281">
        <ele>344.4</ele>
        <time>2011-11-18T10:21:09Z</time>
      </trkpt>
      <trkpt lat="45.82143" lon="4.78282">
        <ele>344.2</ele>
        <time>2011-11-18T10:21:10Z</time>
      </trkpt>
      <trkpt lat="45.82141" lon="4.78283">
        <ele>343.8</ele>
        <time>2011-11-18T10:21:11Z</time>
      </trkpt>
      <trkpt lat="45.82136" lon="4.78284">
        <ele>343.6</ele>
        <time>2011-11-18T10:21:13Z</time>
      </trkpt>
      <trkpt lat="45.82131" lon="4.78283">
        <ele>343.2</ele>
        <time>2011-11-18T10:21:15Z</time>
      </trkpt>
      <trkpt lat="45.82127" lon="4.78281">
        <ele>342.8</ele>
        <time>2011-11-18T10:21:17Z</time>
      </trkpt>
      <trkpt lat="45.82124" lon="4.78282">
        <ele>342.2</ele>
        <time>2011-11-18T10:21:19Z</time>
      </trkpt>
      <trkpt lat="45.8212" lon="4.78284">
        <ele>341.8</ele>
        <time>2011-11-18T10:21:21Z</time>
      </trkpt>
      <trkpt lat="45.82113" lon="4.78285">
        <ele>340.8</ele>
        <time>2011-11-18T10:21:25Z</time>
      </trkpt>
      <trkpt lat="45.82106" lon="4.78289">
        <ele>340</ele>
        <time>2011-11-18T10:21:29Z</time>
      </trkpt>
      <trkpt lat="45.82097" lon="4.78286">
        <ele>339</ele>
        <time>2011-11-18T10:21:33Z</time>
      </trkpt>
      <trkpt lat="45.82087" lon="4.78282">
        <ele>338</ele>
        <time>2011-11-18T10:21:37Z</time>
      </trkpt>
      <trkpt lat="45.82084" lon="4.78281">
        <ele>337.8</ele>
        <time>2011-11-18T10:21:38Z</time>
      </trkpt>
      <trkpt lat="45.82069" lon="4.78275">
        <ele>336.2</ele>
        <time>2011-11-18T10:21:44Z</time>
      </trkpt>
      <trkpt lat="45.82067" lon="4.78274">
        <ele>335.8</ele>
        <time>2011-11-18T10:21:45Z</time>
      </trkpt>
      <trkpt lat="45.8206" lon="4.78272">
        <ele>335</ele>
        <time>2011-11-18T10:21:48Z</time>
      </trkpt>
      <trkpt lat="45.82055" lon="4.78271">
        <ele>334.4</ele>
        <time>2011-11-18T10:21:50Z</time>
      </trkpt>
      <trkpt lat="45.82047" lon="4.78268">
        <ele>333.4</ele>
        <time>2011-11-18T10:21:53Z</time>
      </trkpt>
      <trkpt lat="45.82042" lon="4.78265">
        <ele>333</ele>
        <time>2011-11-18T10:21:55Z</time>
      </trkpt>
      <trkpt lat="45.82031" lon="4.78266">
        <ele>331.4</ele>
        <time>2011-11-18T10:22:00Z</time>
      </trkpt>
      <trkpt lat="45.82029" lon="4.78267">
        <ele>331</ele>
        <time>2011-11-18T10:22:01Z</time>
      </trkpt>
      <trkpt lat="45.82024" lon="4.78264">
        <ele>330.2</ele>
        <time>2011-11-18T10:22:04Z</time>
      </trkpt>
      <trkpt lat="45.82022" lon="4.78263">
        <ele>330</ele>
        <time>2011-11-18T10:22:05Z</time>
      </trkpt>
      <trkpt lat="45.82022" lon="4.7826">
        <ele>329.6</ele>
        <time>2011-11-18T10:22:06Z</time>
      </trkpt>
      <trkpt lat="45.82022" lon="4.78255">
        <ele>329</ele>
        <time>2011-11-18T10:22:08Z</time>
      </trkpt>
      <trkpt lat="45.82017" lon="4.78252">
        <ele>327.8</ele>
        <time>2011-11-18T10:22:12Z</time>
      </trkpt>
      <trkpt lat="45.82009" lon="4.78246">
        <ele>327</ele>
        <time>2011-11-18T10:22:16Z</time>
      </trkpt>
      <trkpt lat="45.82005" lon="4.78248">
        <ele>326.4</ele>
        <time>2011-11-18T10:22:18Z</time>
      </trkpt>
      <trkpt lat="45.81999" lon="4.78249">
        <ele>326</ele>
        <time>2011-11-18T10:22:20Z</time>
      </trkpt>
      <trkpt lat="45.81986" lon="4.78248">
        <ele>324.8</ele>
        <time>2011-11-18T10:22:25Z</time>
      </trkpt>
      <trkpt lat="45.8198" lon="4.78249">
        <ele>324.2</ele>
        <time>2011-11-18T10:22:27Z</time>
      </trkpt>
      <trkpt lat="45.81976" lon="4.78251">
        <ele>323.8</ele>
        <time>2011-11-18T10:22:29Z</time>
      </trkpt>
      <trkpt lat="45.81972" lon="4.78254">
        <ele>323.4</ele>
        <time>2011-11-18T10:22:31Z</time>
      </trkpt>
      <trkpt lat="45.81962" lon="4.78257">
        <ele>322.2</ele>
        <time>2011-11-18T10:22:35Z</time>
      </trkpt>
      <trkpt lat="45.81946" lon="4.78255">
        <ele>320.4</ele>
        <time>2011-11-18T10:22:42Z</time>
      </trkpt>
      <trkpt lat="45.81943" lon="4.78256">
        <ele>320</ele>
        <time>2011-11-18T10:22:43Z</time>
      </trkpt>
      <trkpt lat="45.81934" lon="4.78258">
        <ele>319</ele>
        <time>2011-11-18T10:22:47Z</time>
      </trkpt>
      <trkpt lat="45.81924" lon="4.78256">
        <ele>317.8</ele>
        <time>2011-11-18T10:22:51Z</time>
      </trkpt>
      <trkpt lat="45.8192" lon="4.78256">
        <ele>317.2</ele>
        <time>2011-11-18T10:22:53Z</time>
      </trkpt>
      <trkpt lat="45.81906" lon="4.78259">
        <ele>315.6</ele>
        <time>2011-11-18T10:22:59Z</time>
      </trkpt>
      <trkpt lat="45.81905" lon="4.78259">
        <ele>315.4</ele>
        <time>2011-11-18T10:23:00Z</time>
      </trkpt>
      <trkpt lat="45.819" lon="4.78264">
        <ele>314.6</ele>
        <time>2011-11-18T10:23:04Z</time>
      </trkpt>
      <trkpt lat="45.81895" lon="4.78262">
        <ele>313.2</ele>
        <time>2011-11-18T10:23:12Z</time>
      </trkpt>
      <trkpt lat="45.81893" lon="4.78271">
        <ele>310</ele>
        <time>2011-11-18T10:23:39Z</time>
      </trkpt>
      <trkpt lat="45.81895" lon="4.78275">
        <ele>309.4</ele>
        <time>2011-11-18T10:23:44Z</time>
      </trkpt>
      <trkpt lat="45.81897" lon="4.78276">
        <ele>309.4</ele>
        <time>2011-11-18T10:23:46Z</time>
      </trkpt>
      <trkpt lat="45.81899" lon="4.78279">
        <ele>309</ele>
        <time>2011-11-18T10:23:51Z</time>
      </trkpt>
      <trkpt lat="45.81895" lon="4.78274">
        <ele>310.4</ele>
        <time>2011-11-18T10:24:09Z</time>
      </trkpt>
      <trkpt lat="45.81893" lon="4.78272">
        <ele>310.4</ele>
        <time>2011-11-18T10:24:10Z</time>
      </trkpt>
      <trkpt lat="45.81888" lon="4.78265">
        <ele>311</ele>
        <time>2011-11-18T10:24:13Z</time>
      </trkpt>
      <trkpt lat="45.81885" lon="4.78263">
        <ele>311</ele>
        <time>2011-11-18T10:24:14Z</time>
      </trkpt>
      <trkpt lat="45.8188" lon="4.78258">
        <ele>311.2</ele>
        <time>2011-11-18T10:24:16Z</time>
      </trkpt>
      <trkpt lat="45.81874" lon="4.78253">
        <ele>311.2</ele>
        <time>2011-11-18T10:24:18Z</time>
      </trkpt>
      <trkpt lat="45.81863" lon="4.78242">
        <ele>311.2</ele>
        <time>2011-11-18T10:24:23Z</time>
      </trkpt>
      <trkpt lat="45.81859" lon="4.78237">
        <ele>311.2</ele>
        <time>2011-11-18T10:24:25Z</time>
      </trkpt>
      <trkpt lat="45.8185" lon="4.78227">
        <ele>311</ele>
        <time>2011-11-18T10:24:30Z</time>
      </trkpt>
      <trkpt lat="45.81848" lon="4.78226">
        <ele>310.8</ele>
        <time>2011-11-18T10:24:31Z</time>
      </trkpt>
      <trkpt lat="45.81838" lon="4.78216">
        <ele>310.6</ele>
        <time>2011-11-18T10:24:37Z</time>
      </trkpt>
      <trkpt lat="45.81833" lon="4.7821">
        <ele>310.2</ele>
        <time>2011-11-18T10:24:41Z</time>
      </trkpt>
      <trkpt lat="45.8183" lon="4.78209">
        <ele>310.2</ele>
        <time>2011-11-18T10:24:43Z</time>
      </trkpt>
      <trkpt lat="45.81822" lon="4.78201">
        <ele>309.8</ele>
        <time>2011-11-18T10:24:51Z</time>
      </trkpt>
      <trkpt lat="45.81817" lon="4.78196">
        <ele>309.4</ele>
        <time>2011-11-18T10:24:57Z</time>
      </trkpt>
      <trkpt lat="45.81815" lon="4.78193">
        <ele>309.4</ele>
        <time>2011-11-18T10:25:00Z</time>
      </trkpt>
      <trkpt lat="45.81807" lon="4.78188">
        <ele>309</ele>
        <time>2011-11-18T10:25:05Z</time>
      </trkpt>
      <trkpt lat="45.818" lon="4.78184">
        <ele>308.8</ele>
        <time>2011-11-18T10:25:08Z</time>
      </trkpt>
      <trkpt lat="45.81793" lon="4.78181">
        <ele>308.6</ele>
        <time>2011-11-18T10:25:11Z</time>
      </trkpt>
      <trkpt lat="45.81782" lon="4.78176">
        <ele>308.4</ele>
        <time>2011-11-18T10:25:16Z</time>
      </trkpt>
      <trkpt lat="45.81764" lon="4.78176">
        <ele>308.2</ele>
        <time>2011-11-18T10:25:24Z</time>
      </trkpt>
      <trkpt lat="45.81762" lon="4.78176">
        <ele>308.2</ele>
        <time>2011-11-18T10:25:25Z</time>
      </trkpt>
      <trkpt lat="45.8175" lon="4.78172">
        <ele>308</ele>
        <time>2011-11-18T10:25:31Z</time>
      </trkpt>
      <trkpt lat="45.81749" lon="4.78171">
        <ele>308</ele>
        <time>2011-11-18T10:25:32Z</time>
      </trkpt>
      <trkpt lat="45.81746" lon="4.78166">
        <ele>308</ele>
        <time>2011-11-18T10:25:36Z</time>
      </trkpt>
      <trkpt lat="45.81742" lon="4.7816">
        <ele>308</ele>
        <time>2011-11-18T10:25:41Z</time>
      </trkpt>
      <trkpt lat="45.81741" lon="4.78159">
        <ele>308.2</ele>
        <time>2011-11-18T10:25:42Z</time>
      </trkpt>
      <trkpt lat="45.81738" lon="4.78156">
        <ele>308.8</ele>
        <time>2011-11-18T10:25:46Z</time>
      </trkpt>
      <trkpt lat="45.81737" lon="4.78154">
        <ele>309.4</ele>
        <time>2011-11-18T10:25:48Z</time>
      </trkpt>
      <trkpt lat="45.81734" lon="4.78149">
        <ele>310.4</ele>
        <time>2011-11-18T10:25:53Z</time>
      </trkpt>
      <trkpt lat="45.81733" lon="4.78146">
        <ele>310.6</ele>
        <time>2011-11-18T10:25:55Z</time>
      </trkpt>
      <trkpt lat="45.81733" lon="4.78144">
        <ele>310.6</ele>
        <time>2011-11-18T10:25:56Z</time>
      </trkpt>
      <trkpt lat="45.81731" lon="4.7814">
        <ele>310.8</ele>
        <time>2011-11-18T10:25:59Z</time>
      </trkpt>
      <trkpt lat="45.81729" lon="4.78135">
        <ele>311.4</ele>
        <time>2011-11-18T10:26:02Z</time>
      </trkpt>
      <trkpt lat="45.81729" lon="4.78134">
        <ele>311.4</ele>
        <time>2011-11-18T10:26:03Z</time>
      </trkpt>
      <trkpt lat="45.81725" lon="4.78129">
        <ele>311.8</ele>
        <time>2011-11-18T10:26:06Z</time>
      </trkpt>
      <trkpt lat="45.81722" lon="4.78125">
        <ele>312.4</ele>
        <time>2011-11-18T10:26:13Z</time>
      </trkpt>
      <trkpt lat="45.81719" lon="4.78121">
        <ele>317.8</ele>
        <time>2011-11-18T10:26:34Z</time>
      </trkpt>
      <trkpt lat="45.81713" lon="4.78109">
        <ele>319.6</ele>
        <time>2011-11-18T10:26:40Z</time>
      </trkpt>
      <trkpt lat="45.81711" lon="4.78106">
        <ele>320</ele>
        <time>2011-11-18T10:26:41Z</time>
      </trkpt>
      <trkpt lat="45.81706" lon="4.78092">
        <ele>321.2</ele>
        <time>2011-11-18T10:26:46Z</time>
      </trkpt>
      <trkpt lat="45.81703" lon="4.78082">
        <ele>322</ele>
        <time>2011-11-18T10:26:49Z</time>
      </trkpt>
      <trkpt lat="45.817" lon="4.78076">
        <ele>322.8</ele>
        <time>2011-11-18T10:26:52Z</time>
      </trkpt>
      <trkpt lat="45.817" lon="4.78076">
        <ele>322.8</ele>
        <time>2011-11-18T10:26:53Z</time>
      </trkpt>
      <trkpt lat="45.81695" lon="4.78077">
        <ele>323.4</ele>
        <time>2011-11-18T10:26:59Z</time>
      </trkpt>
      <trkpt lat="45.81693" lon="4.78078">
        <ele>323.4</ele>
        <time>2011-11-18T10:27:00Z</time>
      </trkpt>
      <trkpt lat="45.81688" lon="4.78079">
        <ele>323.6</ele>
        <time>2011-11-18T10:27:02Z</time>
      </trkpt>
      <trkpt lat="45.81683" lon="4.7808">
        <ele>323.6</ele>
        <time>2011-11-18T10:27:04Z</time>
      </trkpt>
      <trkpt lat="45.81669" lon="4.78086">
        <ele>323.4</ele>
        <time>2011-11-18T10:27:09Z</time>
      </trkpt>
      <trkpt lat="45.81667" lon="4.78087">
        <ele>323.4</ele>
        <time>2011-11-18T10:27:10Z</time>
      </trkpt>
      <trkpt lat="45.81654" lon="4.78097">
        <ele>323.4</ele>
        <time>2011-11-18T10:27:16Z</time>
      </trkpt>
      <trkpt lat="45.81652" lon="4.78098">
        <ele>323.4</ele>
        <time>2011-11-18T10:27:17Z</time>
      </trkpt>
      <trkpt lat="45.8164" lon="4.78108">
        <ele>323.2</ele>
        <time>2011-11-18T10:27:22Z</time>
      </trkpt>
      <trkpt lat="45.81636" lon="4.78112">
        <ele>323.2</ele>
        <time>2011-11-18T10:27:24Z</time>
      </trkpt>
      <trkpt lat="45.8163" lon="4.78119">
        <ele>323.2</ele>
        <time>2011-11-18T10:27:27Z</time>
      </trkpt>
      <trkpt lat="45.81621" lon="4.78132">
        <ele>323</ele>
        <time>2011-11-18T10:27:32Z</time>
      </trkpt>
      <trkpt lat="45.8161" lon="4.78155">
        <ele>322.8</ele>
        <time>2011-11-18T10:27:39Z</time>
      </trkpt>
      <trkpt lat="45.81597" lon="4.78169">
        <ele>322.6</ele>
        <time>2011-11-18T10:27:45Z</time>
      </trkpt>
      <trkpt lat="45.81594" lon="4.78172">
        <ele>322.6</ele>
        <time>2011-11-18T10:27:46Z</time>
      </trkpt>
      <trkpt lat="45.8158" lon="4.78183">
        <ele>322.4</ele>
        <time>2011-11-18T10:27:52Z</time>
      </trkpt>
      <trkpt lat="45.81577" lon="4.78185">
        <ele>322.2</ele>
        <time>2011-11-18T10:27:54Z</time>
      </trkpt>
      <trkpt lat="45.81566" lon="4.78193">
        <ele>321.8</ele>
        <time>2011-11-18T10:27:59Z</time>
      </trkpt>
      <trkpt lat="45.81559" lon="4.78199">
        <ele>321.6</ele>
        <time>2011-11-18T10:28:02Z</time>
      </trkpt>
      <trkpt lat="45.8155" lon="4.78204">
        <ele>321.4</ele>
        <time>2011-11-18T10:28:06Z</time>
      </trkpt>
      <trkpt lat="45.81542" lon="4.7821">
        <ele>321</ele>
        <time>2011-11-18T10:28:10Z</time>
      </trkpt>
      <trkpt lat="45.81532" lon="4.78218">
        <ele>320.6</ele>
        <time>2011-11-18T10:28:14Z</time>
      </trkpt>
      <trkpt lat="45.81524" lon="4.78223">
        <ele>320.4</ele>
        <time>2011-11-18T10:28:17Z</time>
      </trkpt>
      <trkpt lat="45.81515" lon="4.78231">
        <ele>320</ele>
        <time>2011-11-18T10:28:21Z</time>
      </trkpt>
      <trkpt lat="45.81509" lon="4.78238">
        <ele>319.8</ele>
        <time>2011-11-18T10:28:24Z</time>
      </trkpt>
      <trkpt lat="45.81506" lon="4.78244">
        <ele>319.4</ele>
        <time>2011-11-18T10:28:26Z</time>
      </trkpt>
      <trkpt lat="45.81501" lon="4.78258">
        <ele>319</ele>
        <time>2011-11-18T10:28:30Z</time>
      </trkpt>
      <trkpt lat="45.81501" lon="4.78262">
        <ele>318.8</ele>
        <time>2011-11-18T10:28:31Z</time>
      </trkpt>
      <trkpt lat="45.81508" lon="4.78276">
        <ele>318.2</ele>
        <time>2011-11-18T10:28:36Z</time>
      </trkpt>
      <trkpt lat="45.81511" lon="4.78277">
        <ele>318</ele>
        <time>2011-11-18T10:28:37Z</time>
      </trkpt>
      <trkpt lat="45.81516" lon="4.7828">
        <ele>317.8</ele>
        <time>2011-11-18T10:28:39Z</time>
      </trkpt>
      <trkpt lat="45.81521" lon="4.7828">
        <ele>317.4</ele>
        <time>2011-11-18T10:28:41Z</time>
      </trkpt>
      <trkpt lat="45.81534" lon="4.78283">
        <ele>316.6</ele>
        <time>2011-11-18T10:28:46Z</time>
      </trkpt>
      <trkpt lat="45.81536" lon="4.78282">
        <ele>316.4</ele>
        <time>2011-11-18T10:28:47Z</time>
      </trkpt>
      <trkpt lat="45.81545" lon="4.78289">
        <ele>315.8</ele>
        <time>2011-11-18T10:28:51Z</time>
      </trkpt>
      <trkpt lat="45.81548" lon="4.78296">
        <ele>315.4</ele>
        <time>2011-11-18T10:28:53Z</time>
      </trkpt>
      <trkpt lat="45.81547" lon="4.783">
        <ele>315.4</ele>
        <time>2011-11-18T10:28:54Z</time>
      </trkpt>
      <trkpt lat="45.81546" lon="4.78302">
        <ele>315.2</ele>
        <time>2011-11-18T10:28:55Z</time>
      </trkpt>
      <trkpt lat="45.81543" lon="4.78306">
        <ele>314.8</ele>
        <time>2011-11-18T10:28:57Z</time>
      </trkpt>
      <trkpt lat="45.81538" lon="4.78309">
        <ele>314.4</ele>
        <time>2011-11-18T10:28:59Z</time>
      </trkpt>
      <trkpt lat="45.81531" lon="4.78309">
        <ele>313.8</ele>
        <time>2011-11-18T10:29:02Z</time>
      </trkpt>
      <trkpt lat="45.81525" lon="4.78309">
        <ele>313.2</ele>
        <time>2011-11-18T10:29:05Z</time>
      </trkpt>
      <trkpt lat="45.81514" lon="4.78309">
        <ele>312</ele>
        <time>2011-11-18T10:29:11Z</time>
      </trkpt>
      <trkpt lat="45.81511" lon="4.78309">
        <ele>311.8</ele>
        <time>2011-11-18T10:29:12Z</time>
      </trkpt>
      <trkpt lat="45.81502" lon="4.78309">
        <ele>311</ele>
        <time>2011-11-18T10:29:16Z</time>
      </trkpt>
      <trkpt lat="45.81493" lon="4.78308">
        <ele>309.6</ele>
        <time>2011-11-18T10:29:22Z</time>
      </trkpt>
      <trkpt lat="45.81491" lon="4.78308">
        <ele>309.4</ele>
        <time>2011-11-18T10:29:23Z</time>
      </trkpt>
      <trkpt lat="45.8148" lon="4.78306">
        <ele>308</ele>
        <time>2011-11-18T10:29:30Z</time>
      </trkpt>
      <trkpt lat="45.81474" lon="4.78304">
        <ele>307.8</ele>
        <time>2011-11-18T10:29:32Z</time>
      </trkpt>
      <trkpt lat="45.81464" lon="4.78297">
        <ele>307</ele>
        <time>2011-11-18T10:29:36Z</time>
      </trkpt>
      <trkpt lat="45.81458" lon="4.78291">
        <ele>306.6</ele>
        <time>2011-11-18T10:29:39Z</time>
      </trkpt>
      <trkpt lat="45.81452" lon="4.78284">
        <ele>306.2</ele>
        <time>2011-11-18T10:29:42Z</time>
      </trkpt>
      <trkpt lat="45.81441" lon="4.78275">
        <ele>305.6</ele>
        <time>2011-11-18T10:29:47Z</time>
      </trkpt>
      <trkpt lat="45.81438" lon="4.78273">
        <ele>305.6</ele>
        <time>2011-11-18T10:29:48Z</time>
      </trkpt>
      <trkpt lat="45.81425" lon="4.78262">
        <ele>305.2</ele>
        <time>2011-11-18T10:29:52Z</time>
      </trkpt>
      <trkpt lat="45.81412" lon="4.78249">
        <ele>304.8</ele>
        <time>2011-11-18T10:29:56Z</time>
      </trkpt>
      <trkpt lat="45.81409" lon="4.78247">
        <ele>304.8</ele>
        <time>2011-11-18T10:29:57Z</time>
      </trkpt>
      <trkpt lat="45.81395" lon="4.78238">
        <ele>304.4</ele>
        <time>2011-11-18T10:30:02Z</time>
      </trkpt>
      <trkpt lat="45.81392" lon="4.78237">
        <ele>304.2</ele>
        <time>2011-11-18T10:30:03Z</time>
      </trkpt>
      <trkpt lat="45.8138" lon="4.78237">
        <ele>303.6</ele>
        <time>2011-11-18T10:30:07Z</time>
      </trkpt>
      <trkpt lat="45.81371" lon="4.78237">
        <ele>303.2</ele>
        <time>2011-11-18T10:30:10Z</time>
      </trkpt>
      <trkpt lat="45.81363" lon="4.78237">
        <ele>302.8</ele>
        <time>2011-11-18T10:30:13Z</time>
      </trkpt>
      <trkpt lat="45.81351" lon="4.78238">
        <ele>302.2</ele>
        <time>2011-11-18T10:30:17Z</time>
      </trkpt>
      <trkpt lat="45.81349" lon="4.78237">
        <ele>302</ele>
        <time>2011-11-18T10:30:18Z</time>
      </trkpt>
      <trkpt lat="45.81333" lon="4.78239">
        <ele>300.8</ele>
        <time>2011-11-18T10:30:24Z</time>
      </trkpt>
      <trkpt lat="45.81316" lon="4.78238">
        <ele>299.6</ele>
        <time>2011-11-18T10:30:30Z</time>
      </trkpt>
      <trkpt lat="45.81314" lon="4.78239">
        <ele>299.4</ele>
        <time>2011-11-18T10:30:31Z</time>
      </trkpt>
      <trkpt lat="45.81303" lon="4.78245">
        <ele>298.6</ele>
        <time>2011-11-18T10:30:35Z</time>
      </trkpt>
      <trkpt lat="45.81296" lon="4.7825">
        <ele>297.8</ele>
        <time>2011-11-18T10:30:38Z</time>
      </trkpt>
      <trkpt lat="45.81292" lon="4.78254">
        <ele>297.4</ele>
        <time>2011-11-18T10:30:40Z</time>
      </trkpt>
      <trkpt lat="45.81278" lon="4.78263">
        <ele>295.4</ele>
        <time>2011-11-18T10:30:46Z</time>
      </trkpt>
      <trkpt lat="45.81264" lon="4.78266">
        <ele>293.6</ele>
        <time>2011-11-18T10:30:52Z</time>
      </trkpt>
      <trkpt lat="45.8126" lon="4.78263">
        <ele>293</ele>
        <time>2011-11-18T10:30:54Z</time>
      </trkpt>
      <trkpt lat="45.81253" lon="4.78256">
        <ele>292.2</ele>
        <time>2011-11-18T10:30:57Z</time>
      </trkpt>
      <trkpt lat="45.81247" lon="4.78244">
        <ele>291.2</ele>
        <time>2011-11-18T10:31:01Z</time>
      </trkpt>
      <trkpt lat="45.81245" lon="4.78241">
        <ele>291</ele>
        <time>2011-11-18T10:31:02Z</time>
      </trkpt>
      <trkpt lat="45.81233" lon="4.78228">
        <ele>290</ele>
        <time>2011-11-18T10:31:08Z</time>
      </trkpt>
      <trkpt lat="45.81231" lon="4.78226">
        <ele>289.8</ele>
        <time>2011-11-18T10:31:09Z</time>
      </trkpt>
      <trkpt lat="45.81225" lon="4.78225">
        <ele>289.4</ele>
        <time>2011-11-18T10:31:12Z</time>
      </trkpt>
      <trkpt lat="45.81212" lon="4.78226">
        <ele>288.6</ele>
        <time>2011-11-18T10:31:17Z</time>
      </trkpt>
      <trkpt lat="45.8121" lon="4.78226">
        <ele>288.6</ele>
        <time>2011-11-18T10:31:18Z</time>
      </trkpt>
      <trkpt lat="45.81197" lon="4.78227">
        <ele>287.6</ele>
        <time>2011-11-18T10:31:24Z</time>
      </trkpt>
      <trkpt lat="45.81193" lon="4.78227">
        <ele>287.2</ele>
        <time>2011-11-18T10:31:27Z</time>
      </trkpt>
      <trkpt lat="45.81188" lon="4.78227">
        <ele>286.4</ele>
        <time>2011-11-18T10:31:32Z</time>
      </trkpt>
      <trkpt lat="45.81178" lon="4.78231">
        <ele>285.2</ele>
        <time>2011-11-18T10:31:40Z</time>
      </trkpt>
      <trkpt lat="45.81175" lon="4.78231">
        <ele>284.8</ele>
        <time>2011-11-18T10:31:43Z</time>
      </trkpt>
      <trkpt lat="45.81173" lon="4.7823">
        <ele>284.6</ele>
        <time>2011-11-18T10:31:44Z</time>
      </trkpt>
      <trkpt lat="45.81167" lon="4.78232">
        <ele>284</ele>
        <time>2011-11-18T10:31:47Z</time>
      </trkpt>
      <trkpt lat="45.81162" lon="4.78233">
        <ele>283.6</ele>
        <time>2011-11-18T10:31:49Z</time>
      </trkpt>
      <trkpt lat="45.81157" lon="4.78235">
        <ele>283.2</ele>
        <time>2011-11-18T10:31:51Z</time>
      </trkpt>
      <trkpt lat="45.8115" lon="4.78238">
        <ele>282.6</ele>
        <time>2011-11-18T10:31:54Z</time>
      </trkpt>
      <trkpt lat="45.81137" lon="4.78243">
        <ele>281.4</ele>
        <time>2011-11-18T10:31:59Z</time>
      </trkpt>
      <trkpt lat="45.81135" lon="4.78243">
        <ele>281.2</ele>
        <time>2011-11-18T10:32:00Z</time>
      </trkpt>
      <trkpt lat="45.81117" lon="4.78248">
        <ele>279.2</ele>
        <time>2011-11-18T10:32:07Z</time>
      </trkpt>
      <trkpt lat="45.81113" lon="4.78248">
        <ele>279</ele>
        <time>2011-11-18T10:32:08Z</time>
      </trkpt>
      <trkpt lat="45.81095" lon="4.78248">
        <ele>277.6</ele>
        <time>2011-11-18T10:32:14Z</time>
      </trkpt>
      <trkpt lat="45.8108" lon="4.78248">
        <ele>276.4</ele>
        <time>2011-11-18T10:32:19Z</time>
      </trkpt>
      <trkpt lat="45.81077" lon="4.78249">
        <ele>276.2</ele>
        <time>2011-11-18T10:32:20Z</time>
      </trkpt>
      <trkpt lat="45.81066" lon="4.78249">
        <ele>275.2</ele>
        <time>2011-11-18T10:32:24Z</time>
      </trkpt>
      <trkpt lat="45.81057" lon="4.78249">
        <ele>274.8</ele>
        <time>2011-11-18T10:32:27Z</time>
      </trkpt>
      <trkpt lat="45.81048" lon="4.78253">
        <ele>274.6</ele>
        <time>2011-11-18T10:32:30Z</time>
      </trkpt>
      <trkpt lat="45.81039" lon="4.78256">
        <ele>274.2</ele>
        <time>2011-11-18T10:32:33Z</time>
      </trkpt>
      <trkpt lat="45.81036" lon="4.78256">
        <ele>274.2</ele>
        <time>2011-11-18T10:32:34Z</time>
      </trkpt>
      <trkpt lat="45.81018" lon="4.78259">
        <ele>274</ele>
        <time>2011-11-18T10:32:40Z</time>
      </trkpt>
      <trkpt lat="45.81004" lon="4.78258">
        <ele>273.8</ele>
        <time>2011-11-18T10:32:45Z</time>
      </trkpt>
      <trkpt lat="45.80999" lon="4.78257">
        <ele>273.8</ele>
        <time>2011-11-18T10:32:47Z</time>
      </trkpt>
      <trkpt lat="45.8099" lon="4.78257">
        <ele>273.8</ele>
        <time>2011-11-18T10:32:50Z</time>
      </trkpt>
      <trkpt lat="45.8098" lon="4.78254">
        <ele>274</ele>
        <time>2011-11-18T10:32:54Z</time>
      </trkpt>
      <trkpt lat="45.80975" lon="4.78255">
        <ele>274.2</ele>
        <time>2011-11-18T10:32:56Z</time>
      </trkpt>
      <trkpt lat="45.80972" lon="4.78254">
        <ele>274.4</ele>
        <time>2011-11-18T10:32:57Z</time>
      </trkpt>
      <trkpt lat="45.80964" lon="4.78254">
        <ele>274.6</ele>
        <time>2011-11-18T10:33:00Z</time>
      </trkpt>
      <trkpt lat="45.80961" lon="4.78253">
        <ele>274.8</ele>
        <time>2011-11-18T10:33:01Z</time>
      </trkpt>
      <trkpt lat="45.80946" lon="4.78254">
        <ele>275.4</ele>
        <time>2011-11-18T10:33:07Z</time>
      </trkpt>
      <trkpt lat="45.80943" lon="4.78254">
        <ele>275.6</ele>
        <time>2011-11-18T10:33:08Z</time>
      </trkpt>
      <trkpt lat="45.80936" lon="4.78256">
        <ele>276</ele>
        <time>2011-11-18T10:33:11Z</time>
      </trkpt>
      <trkpt lat="45.80934" lon="4.78258">
        <ele>276.2</ele>
        <time>2011-11-18T10:33:12Z</time>
      </trkpt>
      <trkpt lat="45.80929" lon="4.78265">
        <ele>275.8</ele>
        <time>2011-11-18T10:33:15Z</time>
      </trkpt>
      <trkpt lat="45.80927" lon="4.78267">
        <ele>275.8</ele>
        <time>2011-11-18T10:33:16Z</time>
      </trkpt>
      <trkpt lat="45.80925" lon="4.78273">
        <ele>275.8</ele>
        <time>2011-11-18T10:33:18Z</time>
      </trkpt>
      <trkpt lat="45.80924" lon="4.78277">
        <ele>275.8</ele>
        <time>2011-11-18T10:33:19Z</time>
      </trkpt>
      <trkpt lat="45.80921" lon="4.78288">
        <ele>275.8</ele>
        <time>2011-11-18T10:33:23Z</time>
      </trkpt>
      <trkpt lat="45.80921" lon="4.78293">
        <ele>275.8</ele>
        <time>2011-11-18T10:33:25Z</time>
      </trkpt>
      <trkpt lat="45.80919" lon="4.783">
        <ele>275.8</ele>
        <time>2011-11-18T10:33:27Z</time>
      </trkpt>
      <trkpt lat="45.80915" lon="4.78316">
        <ele>275.6</ele>
        <time>2011-11-18T10:33:32Z</time>
      </trkpt>
      <trkpt lat="45.80914" lon="4.78319">
        <ele>275.6</ele>
        <time>2011-11-18T10:33:33Z</time>
      </trkpt>
      <trkpt lat="45.80907" lon="4.78334">
        <ele>275.4</ele>
        <time>2011-11-18T10:33:38Z</time>
      </trkpt>
      <trkpt lat="45.80905" lon="4.78342">
        <ele>275.2</ele>
        <time>2011-11-18T10:33:41Z</time>
      </trkpt>
      <trkpt lat="45.80901" lon="4.7835">
        <ele>274.8</ele>
        <time>2011-11-18T10:33:44Z</time>
      </trkpt>
      <trkpt lat="45.80895" lon="4.78359">
        <ele>274.2</ele>
        <time>2011-11-18T10:33:48Z</time>
      </trkpt>
      <trkpt lat="45.80893" lon="4.7836">
        <ele>273.8</ele>
        <time>2011-11-18T10:33:50Z</time>
      </trkpt>
      <trkpt lat="45.80891" lon="4.7836">
        <ele>273.6</ele>
        <time>2011-11-18T10:33:51Z</time>
      </trkpt>
      <trkpt lat="45.80885" lon="4.78361">
        <ele>272.8</ele>
        <time>2011-11-18T10:33:54Z</time>
      </trkpt>
      <trkpt lat="45.80877" lon="4.78361">
        <ele>272</ele>
        <time>2011-11-18T10:33:57Z</time>
      </trkpt>
      <trkpt lat="45.80871" lon="4.78359">
        <ele>271.2</ele>
        <time>2011-11-18T10:34:00Z</time>
      </trkpt>
      <trkpt lat="45.80867" lon="4.78357">
        <ele>270.6</ele>
        <time>2011-11-18T10:34:02Z</time>
      </trkpt>
      <trkpt lat="45.80857" lon="4.78357">
        <ele>269.6</ele>
        <time>2011-11-18T10:34:07Z</time>
      </trkpt>
      <trkpt lat="45.80852" lon="4.78357">
        <ele>269.2</ele>
        <time>2011-11-18T10:34:09Z</time>
      </trkpt>
      <trkpt lat="45.80844" lon="4.78358">
        <ele>268.8</ele>
        <time>2011-11-18T10:34:12Z</time>
      </trkpt>
      <trkpt lat="45.80833" lon="4.7836">
        <ele>268.2</ele>
        <time>2011-11-18T10:34:17Z</time>
      </trkpt>
      <trkpt lat="45.80831" lon="4.78361">
        <ele>268</ele>
        <time>2011-11-18T10:34:18Z</time>
      </trkpt>
      <trkpt lat="45.80818" lon="4.78365">
        <ele>267.6</ele>
        <time>2011-11-18T10:34:23Z</time>
      </trkpt>
      <trkpt lat="45.80815" lon="4.78365">
        <ele>267.6</ele>
        <time>2011-11-18T10:34:24Z</time>
      </trkpt>
      <trkpt lat="45.80802" lon="4.78367">
        <ele>267.4</ele>
        <time>2011-11-18T10:34:29Z</time>
      </trkpt>
      <trkpt lat="45.80797" lon="4.78368">
        <ele>267.4</ele>
        <time>2011-11-18T10:34:31Z</time>
      </trkpt>
      <trkpt lat="45.80794" lon="4.78369">
        <ele>267.2</ele>
        <time>2011-11-18T10:34:33Z</time>
      </trkpt>
      <trkpt lat="45.80783" lon="4.7837">
        <ele>267</ele>
        <time>2011-11-18T10:34:38Z</time>
      </trkpt>
      <trkpt lat="45.8078" lon="4.78369">
        <ele>266.8</ele>
        <time>2011-11-18T10:34:39Z</time>
      </trkpt>
      <trkpt lat="45.80778" lon="4.78369">
        <ele>266.8</ele>
        <time>2011-11-18T10:34:40Z</time>
      </trkpt>
      <trkpt lat="45.8077" lon="4.7837">
        <ele>266.4</ele>
        <time>2011-11-18T10:34:43Z</time>
      </trkpt>
      <trkpt lat="45.80767" lon="4.78372">
        <ele>266.2</ele>
        <time>2011-11-18T10:34:45Z</time>
      </trkpt>
      <trkpt lat="45.8076" lon="4.78373">
        <ele>265.8</ele>
        <time>2011-11-18T10:34:48Z</time>
      </trkpt>
      <trkpt lat="45.80747" lon="4.78374">
        <ele>265</ele>
        <time>2011-11-18T10:34:53Z</time>
      </trkpt>
      <trkpt lat="45.8074" lon="4.78376">
        <ele>264.4</ele>
        <time>2011-11-18T10:34:56Z</time>
      </trkpt>
      <trkpt lat="45.80738" lon="4.78376">
        <ele>264.2</ele>
        <time>2011-11-18T10:34:57Z</time>
      </trkpt>
      <trkpt lat="45.80735" lon="4.78375">
        <ele>264</ele>
        <time>2011-11-18T10:34:58Z</time>
      </trkpt>
      <trkpt lat="45.80723" lon="4.7838">
        <ele>263.2</ele>
        <time>2011-11-18T10:35:03Z</time>
      </trkpt>
      <trkpt lat="45.8072" lon="4.78382">
        <ele>263</ele>
        <time>2011-11-18T10:35:04Z</time>
      </trkpt>
      <trkpt lat="45.8071" lon="4.78387">
        <ele>262.4</ele>
        <time>2011-11-18T10:35:08Z</time>
      </trkpt>
      <trkpt lat="45.807" lon="4.78388">
        <ele>261.6</ele>
        <time>2011-11-18T10:35:12Z</time>
      </trkpt>
      <trkpt lat="45.8069" lon="4.78393">
        <ele>261.2</ele>
        <time>2011-11-18T10:35:16Z</time>
      </trkpt>
      <trkpt lat="45.80683" lon="4.78394">
        <ele>260.8</ele>
        <time>2011-11-18T10:35:19Z</time>
      </trkpt>
      <trkpt lat="45.80681" lon="4.78393">
        <ele>260.6</ele>
        <time>2011-11-18T10:35:20Z</time>
      </trkpt>
      <trkpt lat="45.80679" lon="4.78392">
        <ele>260.6</ele>
        <time>2011-11-18T10:35:21Z</time>
      </trkpt>
      <trkpt lat="45.80666" lon="4.78388">
        <ele>260</ele>
        <time>2011-11-18T10:35:26Z</time>
      </trkpt>
      <trkpt lat="45.80661" lon="4.78389">
        <ele>259.8</ele>
        <time>2011-11-18T10:35:28Z</time>
      </trkpt>
      <trkpt lat="45.80658" lon="4.7839">
        <ele>259.6</ele>
        <time>2011-11-18T10:35:29Z</time>
      </trkpt>
      <trkpt lat="45.80653" lon="4.78393">
        <ele>259.4</ele>
        <time>2011-11-18T10:35:31Z</time>
      </trkpt>
      <trkpt lat="45.80648" lon="4.78396">
        <ele>259.2</ele>
        <time>2011-11-18T10:35:33Z</time>
      </trkpt>
      <trkpt lat="45.80644" lon="4.784">
        <ele>259</ele>
        <time>2011-11-18T10:35:35Z</time>
      </trkpt>
      <trkpt lat="45.80641" lon="4.784">
        <ele>258.8</ele>
        <time>2011-11-18T10:35:36Z</time>
      </trkpt>
      <trkpt lat="45.8063" lon="4.78407">
        <ele>257.8</ele>
        <time>2011-11-18T10:35:42Z</time>
      </trkpt>
      <trkpt lat="45.80626" lon="4.7841">
        <ele>257.6</ele>
        <time>2011-11-18T10:35:44Z</time>
      </trkpt>
      <trkpt lat="45.80621" lon="4.78418">
        <ele>257</ele>
        <time>2011-11-18T10:35:47Z</time>
      </trkpt>
      <trkpt lat="45.80613" lon="4.78431">
        <ele>256.6</ele>
        <time>2011-11-18T10:35:51Z</time>
      </trkpt>
      <trkpt lat="45.80606" lon="4.78442">
        <ele>256.6</ele>
        <time>2011-11-18T10:35:54Z</time>
      </trkpt>
      <trkpt lat="45.80602" lon="4.78455">
        <ele>256</ele>
        <time>2011-11-18T10:35:58Z</time>
      </trkpt>
      <trkpt lat="45.80602" lon="4.78462">
        <ele>255.8</ele>
        <time>2011-11-18T10:36:00Z</time>
      </trkpt>
      <trkpt lat="45.80599" lon="4.78481">
        <ele>255.2</ele>
        <time>2011-11-18T10:36:05Z</time>
      </trkpt>
      <trkpt lat="45.80599" lon="4.78485">
        <ele>255</ele>
        <time>2011-11-18T10:36:06Z</time>
      </trkpt>
      <trkpt lat="45.80597" lon="4.785">
        <ele>254.4</ele>
        <time>2011-11-18T10:36:10Z</time>
      </trkpt>
      <trkpt lat="45.80595" lon="4.78508">
        <ele>254.2</ele>
        <time>2011-11-18T10:36:12Z</time>
      </trkpt>
      <trkpt lat="45.80592" lon="4.78522">
        <ele>253.8</ele>
        <time>2011-11-18T10:36:15Z</time>
      </trkpt>
      <trkpt lat="45.80589" lon="4.78534">
        <ele>253.4</ele>
        <time>2011-11-18T10:36:18Z</time>
      </trkpt>
      <trkpt lat="45.80584" lon="4.78549">
        <ele>253</ele>
        <time>2011-11-18T10:36:22Z</time>
      </trkpt>
      <trkpt lat="45.80581" lon="4.78559">
        <ele>252.8</ele>
        <time>2011-11-18T10:36:25Z</time>
      </trkpt>
      <trkpt lat="45.80579" lon="4.78567">
        <ele>252.6</ele>
        <time>2011-11-18T10:36:27Z</time>
      </trkpt>
      <trkpt lat="45.80574" lon="4.78586">
        <ele>252</ele>
        <time>2011-11-18T10:36:32Z</time>
      </trkpt>
      <trkpt lat="45.80571" lon="4.78592">
        <ele>251.8</ele>
        <time>2011-11-18T10:36:34Z</time>
      </trkpt>
      <trkpt lat="45.80561" lon="4.78606">
        <ele>251.4</ele>
        <time>2011-11-18T10:36:39Z</time>
      </trkpt>
      <trkpt lat="45.80558" lon="4.78608">
        <ele>251.4</ele>
        <time>2011-11-18T10:36:40Z</time>
      </trkpt>
      <trkpt lat="45.80554" lon="4.78611">
        <ele>251.4</ele>
        <time>2011-11-18T10:36:43Z</time>
      </trkpt>
      <trkpt lat="45.80553" lon="4.78613">
        <ele>251.2</ele>
        <time>2011-11-18T10:36:44Z</time>
      </trkpt>
      <trkpt lat="45.80548" lon="4.78623">
        <ele>251</ele>
        <time>2011-11-18T10:36:48Z</time>
      </trkpt>
      <trkpt lat="45.80546" lon="4.78625">
        <ele>251</ele>
        <time>2011-11-18T10:36:49Z</time>
      </trkpt>
      <trkpt lat="45.80541" lon="4.78627">
        <ele>251</ele>
        <time>2011-11-18T10:36:51Z</time>
      </trkpt>
      <trkpt lat="45.80532" lon="4.78633">
        <ele>250.6</ele>
        <time>2011-11-18T10:36:55Z</time>
      </trkpt>
      <trkpt lat="45.80529" lon="4.78634">
        <ele>250.6</ele>
        <time>2011-11-18T10:36:56Z</time>
      </trkpt>
      <trkpt lat="45.80517" lon="4.78644">
        <ele>250.6</ele>
        <time>2011-11-18T10:37:01Z</time>
      </trkpt>
      <trkpt lat="45.80512" lon="4.78645">
        <ele>250.6</ele>
        <time>2011-11-18T10:37:03Z</time>
      </trkpt>
      <trkpt lat="45.80507" lon="4.78645">
        <ele>250.4</ele>
        <time>2011-11-18T10:37:06Z</time>
      </trkpt>
      <trkpt lat="45.80498" lon="4.78645">
        <ele>250.4</ele>
        <time>2011-11-18T10:37:10Z</time>
      </trkpt>
      <trkpt lat="45.80493" lon="4.78646">
        <ele>250.4</ele>
        <time>2011-11-18T10:37:12Z</time>
      </trkpt>
      <trkpt lat="45.80484" lon="4.7865">
        <ele>250.2</ele>
        <time>2011-11-18T10:37:16Z</time>
      </trkpt>
      <trkpt lat="45.80479" lon="4.78653">
        <ele>250.2</ele>
        <time>2011-11-18T10:37:19Z</time>
      </trkpt>
      <trkpt lat="45.8048" lon="4.78654">
        <ele>250.2</ele>
        <time>2011-11-18T10:37:20Z</time>
      </trkpt>
      <trkpt lat="45.80483" lon="4.78654">
        <ele>250.2</ele>
        <time>2011-11-18T10:37:22Z</time>
      </trkpt>
      <trkpt lat="45.80485" lon="4.78653">
        <ele>250</ele>
        <time>2011-11-18T10:37:23Z</time>
      </trkpt>
      <trkpt lat="45.80497" lon="4.7865">
        <ele>250.2</ele>
        <time>2011-11-18T10:37:28Z</time>
      </trkpt>
      <trkpt lat="45.80501" lon="4.78648">
        <ele>250.6</ele>
        <time>2011-11-18T10:37:30Z</time>
      </trkpt>
      <trkpt lat="45.80503" lon="4.78646">
        <ele>250.6</ele>
        <time>2011-11-18T10:37:31Z</time>
      </trkpt>
      <trkpt lat="45.80503" lon="4.78644">
        <ele>250.6</ele>
        <time>2011-11-18T10:37:32Z</time>
      </trkpt>
      <trkpt lat="45.80497" lon="4.78634">
        <ele>250.8</ele>
        <time>2011-11-18T10:37:36Z</time>
      </trkpt>
      <trkpt lat="45.80492" lon="4.7863">
        <ele>251</ele>
        <time>2011-11-18T10:37:38Z</time>
      </trkpt>
      <trkpt lat="45.80486" lon="4.78626">
        <ele>251</ele>
        <time>2011-11-18T10:37:41Z</time>
      </trkpt>
      <trkpt lat="45.80474" lon="4.78616">
        <ele>250.8</ele>
        <time>2011-11-18T10:37:46Z</time>
      </trkpt>
      <trkpt lat="45.80472" lon="4.78615">
        <ele>250.8</ele>
        <time>2011-11-18T10:37:47Z</time>
      </trkpt>
      <trkpt lat="45.80456" lon="4.78602">
        <ele>250.8</ele>
        <time>2011-11-18T10:37:54Z</time>
      </trkpt>
      <trkpt lat="45.80441" lon="4.78596">
        <ele>250.6</ele>
        <time>2011-11-18T10:38:00Z</time>
      </trkpt>
      <trkpt lat="45.80439" lon="4.78596">
        <ele>250.6</ele>
        <time>2011-11-18T10:38:01Z</time>
      </trkpt>
      <trkpt lat="45.80437" lon="4.78597">
        <ele>250.6</ele>
        <time>2011-11-18T10:38:02Z</time>
      </trkpt>
      <trkpt lat="45.80428" lon="4.78602">
        <ele>250.2</ele>
        <time>2011-11-18T10:38:06Z</time>
      </trkpt>
      <trkpt lat="45.80424" lon="4.78604">
        <ele>250.2</ele>
        <time>2011-11-18T10:38:08Z</time>
      </trkpt>
      <trkpt lat="45.80419" lon="4.78606">
        <ele>250</ele>
        <time>2011-11-18T10:38:10Z</time>
      </trkpt>
      <trkpt lat="45.80417" lon="4.78607">
        <ele>250</ele>
        <time>2011-11-18T10:38:11Z</time>
      </trkpt>
      <trkpt lat="45.80403" lon="4.78612">
        <ele>249.6</ele>
        <time>2011-11-18T10:38:17Z</time>
      </trkpt>
      <trkpt lat="45.80401" lon="4.78614">
        <ele>249.6</ele>
        <time>2011-11-18T10:38:18Z</time>
      </trkpt>
      <trkpt lat="45.80391" lon="4.78625">
        <ele>249.4</ele>
        <time>2011-11-18T10:38:24Z</time>
      </trkpt>
      <trkpt lat="45.80385" lon="4.7863">
        <ele>249.4</ele>
        <time>2011-11-18T10:38:28Z</time>
      </trkpt>
      <trkpt lat="45.80381" lon="4.78634">
        <ele>249.4</ele>
        <time>2011-11-18T10:38:31Z</time>
      </trkpt>
      <trkpt lat="45.80371" lon="4.78642">
        <ele>249.6</ele>
        <time>2011-11-18T10:38:37Z</time>
      </trkpt>
      <trkpt lat="45.80369" lon="4.78643">
        <ele>249.4</ele>
        <time>2011-11-18T10:38:38Z</time>
      </trkpt>
      <trkpt lat="45.80363" lon="4.78647">
        <ele>249.6</ele>
        <time>2011-11-18T10:38:41Z</time>
      </trkpt>
      <trkpt lat="45.80362" lon="4.78649">
        <ele>249.8</ele>
        <time>2011-11-18T10:38:42Z</time>
      </trkpt>
      <trkpt lat="45.80356" lon="4.78653">
        <ele>250</ele>
        <time>2011-11-18T10:38:45Z</time>
      </trkpt>
      <trkpt lat="45.80353" lon="4.78657">
        <ele>250.4</ele>
        <time>2011-11-18T10:38:47Z</time>
      </trkpt>
      <trkpt lat="45.80351" lon="4.78659">
        <ele>250.4</ele>
        <time>2011-11-18T10:38:48Z</time>
      </trkpt>
      <trkpt lat="45.80339" lon="4.78662">
        <ele>250.8</ele>
        <time>2011-11-18T10:38:55Z</time>
      </trkpt>
      <trkpt lat="45.80333" lon="4.78664">
        <ele>251.2</ele>
        <time>2011-11-18T10:38:58Z</time>
      </trkpt>
      <trkpt lat="45.80328" lon="4.78664">
        <ele>251.4</ele>
        <time>2011-11-18T10:39:01Z</time>
      </trkpt>
      <trkpt lat="45.80314" lon="4.78662">
        <ele>251.6</ele>
        <time>2011-11-18T10:39:08Z</time>
      </trkpt>
      <trkpt lat="45.80312" lon="4.78662">
        <ele>251.6</ele>
        <time>2011-11-18T10:39:09Z</time>
      </trkpt>
      <trkpt lat="45.80301" lon="4.78658">
        <ele>251.4</ele>
        <time>2011-11-18T10:39:16Z</time>
      </trkpt>
      <trkpt lat="45.80295" lon="4.78658">
        <ele>251.4</ele>
        <time>2011-11-18T10:39:19Z</time>
      </trkpt>
      <trkpt lat="45.80289" lon="4.78655">
        <ele>251.2</ele>
        <time>2011-11-18T10:39:22Z</time>
      </trkpt>
      <trkpt lat="45.80287" lon="4.78657">
        <ele>251.4</ele>
        <time>2011-11-18T10:39:23Z</time>
      </trkpt>
      <trkpt lat="45.8028" lon="4.78657">
        <ele>251.2</ele>
        <time>2011-11-18T10:39:26Z</time>
      </trkpt>
      <trkpt lat="45.80278" lon="4.78657">
        <ele>251.2</ele>
        <time>2011-11-18T10:39:27Z</time>
      </trkpt>
      <trkpt lat="45.80273" lon="4.78657">
        <ele>251.4</ele>
        <time>2011-11-18T10:39:29Z</time>
      </trkpt>
      <trkpt lat="45.80263" lon="4.78657">
        <ele>251.8</ele>
        <time>2011-11-18T10:39:33Z</time>
      </trkpt>
      <trkpt lat="45.80259" lon="4.78655">
        <ele>251.8</ele>
        <time>2011-11-18T10:39:35Z</time>
      </trkpt>
      <trkpt lat="45.8025" lon="4.78655">
        <ele>251.8</ele>
        <time>2011-11-18T10:39:39Z</time>
      </trkpt>
      <trkpt lat="45.8024" lon="4.78654">
        <ele>252.2</ele>
        <time>2011-11-18T10:39:43Z</time>
      </trkpt>
      <trkpt lat="45.80236" lon="4.78654">
        <ele>252</ele>
        <time>2011-11-18T10:39:45Z</time>
      </trkpt>
      <trkpt lat="45.80221" lon="4.78654">
        <ele>252.6</ele>
        <time>2011-11-18T10:39:51Z</time>
      </trkpt>
      <trkpt lat="45.80218" lon="4.78654">
        <ele>252.6</ele>
        <time>2011-11-18T10:39:52Z</time>
      </trkpt>
      <trkpt lat="45.80203" lon="4.78655">
        <ele>253</ele>
        <time>2011-11-18T10:39:57Z</time>
      </trkpt>
      <trkpt lat="45.802" lon="4.78655">
        <ele>253</ele>
        <time>2011-11-18T10:39:58Z</time>
      </trkpt>
    </trkseg>
  </trk>
</gpx>